<?xml version="1.0" encoding="UTF-8" standalone="no" ?>
<gpx xmlns="http://www.topografix.com/GPX/1/1" xmlns:xsi="http://www.w3.org/2001/XMLSchema-instance" xsi:schemaLocation="http://www.topografix.com/GPX/1/1 http://www.topografix.com/GPX/1/1/gpx.xsd" version="1.1" creator="VisuGPX - https://www.visugpx.com">
  <metadata>
    <name>Balade au-dessus de Limousis</name>
    <desc><![CDATA[Départ dans le village et puis voici le ruisseau. Il n'y a pas eu d'orage et les marches de pierre, les arbres et les buissons sont là...  ça monte jusqu'au village en sommeil de Fournes-Cabardès . Plus haut nous sommes dans les bois du grand bosc qui abritent Seriès. Le chemin devient un parcours pastoral et par temps clair on voit la plaine. La terre est abandonnée et quelques arbres restent debout pour nous offrir le nid d'entrée de la grotte.
Photos: http://vttolonzac.blogspot.fr/2015/11/balade-limousis.html]]></desc>
  </metadata>
  <trk>
    <name><![CDATA[02-NOV-15 12:05:53]]></name>
    <trkseg>
      <trkpt lat="43.33393" lon="2.40365">
        <ele>269.79</ele>
        <time>2015-11-02T07:43:21Z</time>
      </trkpt>
      <trkpt lat="43.33393" lon="2.40365">
        <ele>269.31</ele>
        <time>2015-11-02T07:43:22Z</time>
      </trkpt>
      <trkpt lat="43.33392" lon="2.40367">
        <ele>269.79</ele>
        <time>2015-11-02T07:43:48Z</time>
      </trkpt>
      <trkpt lat="43.33392" lon="2.40366">
        <ele>272.67</ele>
        <time>2015-11-02T07:43:49Z</time>
      </trkpt>
      <trkpt lat="43.33391" lon="2.40365">
        <ele>278.44</ele>
        <time>2015-11-02T07:43:51Z</time>
      </trkpt>
      <trkpt lat="43.3339" lon="2.40363">
        <ele>283.73</ele>
        <time>2015-11-02T07:43:53Z</time>
      </trkpt>
      <trkpt lat="43.33389" lon="2.40362">
        <ele>289.49</ele>
        <time>2015-11-02T07:43:55Z</time>
      </trkpt>
      <trkpt lat="43.33389" lon="2.40362">
        <ele>293.82</ele>
        <time>2015-11-02T07:43:57Z</time>
      </trkpt>
      <trkpt lat="43.33389" lon="2.40361">
        <ele>299.59</ele>
        <time>2015-11-02T07:43:59Z</time>
      </trkpt>
      <trkpt lat="43.33388" lon="2.4036">
        <ele>303.43</ele>
        <time>2015-11-02T07:44:01Z</time>
      </trkpt>
      <trkpt lat="43.33387" lon="2.40359">
        <ele>307.76</ele>
        <time>2015-11-02T07:44:03Z</time>
      </trkpt>
      <trkpt lat="43.33387" lon="2.40359">
        <ele>311.12</ele>
        <time>2015-11-02T07:44:05Z</time>
      </trkpt>
      <trkpt lat="43.33387" lon="2.40359">
        <ele>314.97</ele>
        <time>2015-11-02T07:44:07Z</time>
      </trkpt>
      <trkpt lat="43.33388" lon="2.4036">
        <ele>318.33</ele>
        <time>2015-11-02T07:44:09Z</time>
      </trkpt>
      <trkpt lat="43.33388" lon="2.40361">
        <ele>322.66</ele>
        <time>2015-11-02T07:44:11Z</time>
      </trkpt>
      <trkpt lat="43.33387" lon="2.4036">
        <ele>325.54</ele>
        <time>2015-11-02T07:44:14Z</time>
      </trkpt>
      <trkpt lat="43.33387" lon="2.40359">
        <ele>329.39</ele>
        <time>2015-11-02T07:44:16Z</time>
      </trkpt>
      <trkpt lat="43.33387" lon="2.40359">
        <ele>332.27</ele>
        <time>2015-11-02T07:44:19Z</time>
      </trkpt>
      <trkpt lat="43.3339" lon="2.40362">
        <ele>334.2</ele>
        <time>2015-11-02T07:44:21Z</time>
      </trkpt>
      <trkpt lat="43.33389" lon="2.4036">
        <ele>336.6</ele>
        <time>2015-11-02T07:44:23Z</time>
      </trkpt>
      <trkpt lat="43.33387" lon="2.40354">
        <ele>340.92</ele>
        <time>2015-11-02T07:44:28Z</time>
      </trkpt>
      <trkpt lat="43.33386" lon="2.40351">
        <ele>342.37</ele>
        <time>2015-11-02T07:44:30Z</time>
      </trkpt>
      <trkpt lat="43.33386" lon="2.40346">
        <ele>344.29</ele>
        <time>2015-11-02T07:44:33Z</time>
      </trkpt>
      <trkpt lat="43.33387" lon="2.40344">
        <ele>347.65</ele>
        <time>2015-11-02T07:44:35Z</time>
      </trkpt>
      <trkpt lat="43.33388" lon="2.40343">
        <ele>348.13</ele>
        <time>2015-11-02T07:44:37Z</time>
      </trkpt>
      <trkpt lat="43.33391" lon="2.40342">
        <ele>351.5</ele>
        <time>2015-11-02T07:44:41Z</time>
      </trkpt>
      <trkpt lat="43.33392" lon="2.40341">
        <ele>351.5</ele>
        <time>2015-11-02T07:44:42Z</time>
      </trkpt>
      <trkpt lat="43.33397" lon="2.40333">
        <ele>355.34</ele>
        <time>2015-11-02T07:44:49Z</time>
      </trkpt>
      <trkpt lat="43.33398" lon="2.40331">
        <ele>355.34</ele>
        <time>2015-11-02T07:44:50Z</time>
      </trkpt>
      <trkpt lat="43.334" lon="2.40322">
        <ele>357.27</ele>
        <time>2015-11-02T07:44:56Z</time>
      </trkpt>
      <trkpt lat="43.334" lon="2.40313">
        <ele>358.23</ele>
        <time>2015-11-02T07:45:01Z</time>
      </trkpt>
      <trkpt lat="43.334" lon="2.40309">
        <ele>359.19</ele>
        <time>2015-11-02T07:45:03Z</time>
      </trkpt>
      <trkpt lat="43.33402" lon="2.40292">
        <ele>362.07</ele>
        <time>2015-11-02T07:45:12Z</time>
      </trkpt>
      <trkpt lat="43.33402" lon="2.40287">
        <ele>363.52</ele>
        <time>2015-11-02T07:45:17Z</time>
      </trkpt>
      <trkpt lat="43.33401" lon="2.40278">
        <ele>364.48</ele>
        <time>2015-11-02T07:45:22Z</time>
      </trkpt>
      <trkpt lat="43.33404" lon="2.4026">
        <ele>365.44</ele>
        <time>2015-11-02T07:45:34Z</time>
      </trkpt>
      <trkpt lat="43.33404" lon="2.40256">
        <ele>365.44</ele>
        <time>2015-11-02T07:45:37Z</time>
      </trkpt>
      <trkpt lat="43.33406" lon="2.40239">
        <ele>366.88</ele>
        <time>2015-11-02T07:45:50Z</time>
      </trkpt>
      <trkpt lat="43.33409" lon="2.40236">
        <ele>367.36</ele>
        <time>2015-11-02T07:45:54Z</time>
      </trkpt>
      <trkpt lat="43.33409" lon="2.4023">
        <ele>366.4</ele>
        <time>2015-11-02T07:45:59Z</time>
      </trkpt>
      <trkpt lat="43.33409" lon="2.40226">
        <ele>366.88</ele>
        <time>2015-11-02T07:46:02Z</time>
      </trkpt>
      <trkpt lat="43.33409" lon="2.4022">
        <ele>367.36</ele>
        <time>2015-11-02T07:46:06Z</time>
      </trkpt>
      <trkpt lat="43.3341" lon="2.40213">
        <ele>367.36</ele>
        <time>2015-11-02T07:46:10Z</time>
      </trkpt>
      <trkpt lat="43.33411" lon="2.40208">
        <ele>366.88</ele>
        <time>2015-11-02T07:46:13Z</time>
      </trkpt>
      <trkpt lat="43.33415" lon="2.40201">
        <ele>367.36</ele>
        <time>2015-11-02T07:46:19Z</time>
      </trkpt>
      <trkpt lat="43.33417" lon="2.40191">
        <ele>368.32</ele>
        <time>2015-11-02T07:46:32Z</time>
      </trkpt>
      <trkpt lat="43.33417" lon="2.4019">
        <ele>366.88</ele>
        <time>2015-11-02T07:46:36Z</time>
      </trkpt>
      <trkpt lat="43.33416" lon="2.40181">
        <ele>367.36</ele>
        <time>2015-11-02T07:46:41Z</time>
      </trkpt>
      <trkpt lat="43.33418" lon="2.40175">
        <ele>368.32</ele>
        <time>2015-11-02T07:46:46Z</time>
      </trkpt>
      <trkpt lat="43.33421" lon="2.40172">
        <ele>367.84</ele>
        <time>2015-11-02T07:46:49Z</time>
      </trkpt>
      <trkpt lat="43.33425" lon="2.40163">
        <ele>367.84</ele>
        <time>2015-11-02T07:46:58Z</time>
      </trkpt>
      <trkpt lat="43.33425" lon="2.4016">
        <ele>368.32</ele>
        <time>2015-11-02T07:47:00Z</time>
      </trkpt>
      <trkpt lat="43.33426" lon="2.40155">
        <ele>368.8</ele>
        <time>2015-11-02T07:47:04Z</time>
      </trkpt>
      <trkpt lat="43.33429" lon="2.40152">
        <ele>368.32</ele>
        <time>2015-11-02T07:47:07Z</time>
      </trkpt>
      <trkpt lat="43.33434" lon="2.4014">
        <ele>368.8</ele>
        <time>2015-11-02T07:47:15Z</time>
      </trkpt>
      <trkpt lat="43.33435" lon="2.40138">
        <ele>369.28</ele>
        <time>2015-11-02T07:47:17Z</time>
      </trkpt>
      <trkpt lat="43.33442" lon="2.40131">
        <ele>369.76</ele>
        <time>2015-11-02T07:47:27Z</time>
      </trkpt>
      <trkpt lat="43.33447" lon="2.40124">
        <ele>368.8</ele>
        <time>2015-11-02T07:47:34Z</time>
      </trkpt>
      <trkpt lat="43.33462" lon="2.40129">
        <ele>368.8</ele>
        <time>2015-11-02T07:47:50Z</time>
      </trkpt>
      <trkpt lat="43.33468" lon="2.40131">
        <ele>368.32</ele>
        <time>2015-11-02T07:47:58Z</time>
      </trkpt>
      <trkpt lat="43.33473" lon="2.40128">
        <ele>368.8</ele>
        <time>2015-11-02T07:48:04Z</time>
      </trkpt>
      <trkpt lat="43.33481" lon="2.40128">
        <ele>368.32</ele>
        <time>2015-11-02T07:48:10Z</time>
      </trkpt>
      <trkpt lat="43.33488" lon="2.40129">
        <ele>368.32</ele>
        <time>2015-11-02T07:48:15Z</time>
      </trkpt>
      <trkpt lat="43.33491" lon="2.40123">
        <ele>367.84</ele>
        <time>2015-11-02T07:48:18Z</time>
      </trkpt>
      <trkpt lat="43.33499" lon="2.40129">
        <ele>366.88</ele>
        <time>2015-11-02T07:48:25Z</time>
      </trkpt>
      <trkpt lat="43.33506" lon="2.40134">
        <ele>365.44</ele>
        <time>2015-11-02T07:48:37Z</time>
      </trkpt>
      <trkpt lat="43.3351" lon="2.4014">
        <ele>364.48</ele>
        <time>2015-11-02T07:48:41Z</time>
      </trkpt>
      <trkpt lat="43.33514" lon="2.40144">
        <ele>364</ele>
        <time>2015-11-02T07:48:49Z</time>
      </trkpt>
      <trkpt lat="43.33516" lon="2.40147">
        <ele>363.52</ele>
        <time>2015-11-02T07:48:52Z</time>
      </trkpt>
      <trkpt lat="43.33521" lon="2.40156">
        <ele>361.59</ele>
        <time>2015-11-02T07:49:02Z</time>
      </trkpt>
      <trkpt lat="43.33522" lon="2.40157">
        <ele>361.59</ele>
        <time>2015-11-02T07:49:05Z</time>
      </trkpt>
      <trkpt lat="43.33523" lon="2.40169">
        <ele>359.67</ele>
        <time>2015-11-02T07:49:17Z</time>
      </trkpt>
      <trkpt lat="43.33526" lon="2.40174">
        <ele>358.71</ele>
        <time>2015-11-02T07:49:27Z</time>
      </trkpt>
      <trkpt lat="43.33528" lon="2.40176">
        <ele>358.23</ele>
        <time>2015-11-02T07:49:30Z</time>
      </trkpt>
      <trkpt lat="43.33541" lon="2.40186">
        <ele>357.75</ele>
        <time>2015-11-02T07:49:43Z</time>
      </trkpt>
      <trkpt lat="43.33559" lon="2.40193">
        <ele>357.75</ele>
        <time>2015-11-02T07:49:56Z</time>
      </trkpt>
      <trkpt lat="43.33562" lon="2.40196">
        <ele>357.75</ele>
        <time>2015-11-02T07:49:58Z</time>
      </trkpt>
      <trkpt lat="43.33573" lon="2.40197">
        <ele>357.27</ele>
        <time>2015-11-02T07:50:09Z</time>
      </trkpt>
      <trkpt lat="43.33574" lon="2.40197">
        <ele>357.27</ele>
        <time>2015-11-02T07:50:10Z</time>
      </trkpt>
      <trkpt lat="43.33577" lon="2.40197">
        <ele>357.27</ele>
        <time>2015-11-02T07:50:13Z</time>
      </trkpt>
      <trkpt lat="43.33596" lon="2.402">
        <ele>358.71</ele>
        <time>2015-11-02T07:50:30Z</time>
      </trkpt>
      <trkpt lat="43.33612" lon="2.40202">
        <ele>359.19</ele>
        <time>2015-11-02T07:50:46Z</time>
      </trkpt>
      <trkpt lat="43.33621" lon="2.40203">
        <ele>359.19</ele>
        <time>2015-11-02T07:50:57Z</time>
      </trkpt>
      <trkpt lat="43.33627" lon="2.40204">
        <ele>359.19</ele>
        <time>2015-11-02T07:51:01Z</time>
      </trkpt>
      <trkpt lat="43.33633" lon="2.40209">
        <ele>359.19</ele>
        <time>2015-11-02T07:51:14Z</time>
      </trkpt>
      <trkpt lat="43.33633" lon="2.4021">
        <ele>358.71</ele>
        <time>2015-11-02T07:51:34Z</time>
      </trkpt>
      <trkpt lat="43.33635" lon="2.40209">
        <ele>359.19</ele>
        <time>2015-11-02T07:51:46Z</time>
      </trkpt>
      <trkpt lat="43.33646" lon="2.4021">
        <ele>357.75</ele>
        <time>2015-11-02T07:51:57Z</time>
      </trkpt>
      <trkpt lat="43.3366" lon="2.40214">
        <ele>356.31</ele>
        <time>2015-11-02T07:52:08Z</time>
      </trkpt>
      <trkpt lat="43.3366" lon="2.40223">
        <ele>354.38</ele>
        <time>2015-11-02T07:52:16Z</time>
      </trkpt>
      <trkpt lat="43.33661" lon="2.40231">
        <ele>352.94</ele>
        <time>2015-11-02T07:52:21Z</time>
      </trkpt>
      <trkpt lat="43.33665" lon="2.4025">
        <ele>350.54</ele>
        <time>2015-11-02T07:52:30Z</time>
      </trkpt>
      <trkpt lat="43.33665" lon="2.40254">
        <ele>350.06</ele>
        <time>2015-11-02T07:52:32Z</time>
      </trkpt>
      <trkpt lat="43.33666" lon="2.40264">
        <ele>349.1</ele>
        <time>2015-11-02T07:52:43Z</time>
      </trkpt>
      <trkpt lat="43.33666" lon="2.40266">
        <ele>350.06</ele>
        <time>2015-11-02T07:52:52Z</time>
      </trkpt>
      <trkpt lat="43.33666" lon="2.40271">
        <ele>349.58</ele>
        <time>2015-11-02T07:52:55Z</time>
      </trkpt>
      <trkpt lat="43.33665" lon="2.40285">
        <ele>348.13</ele>
        <time>2015-11-02T07:53:03Z</time>
      </trkpt>
      <trkpt lat="43.33664" lon="2.4029">
        <ele>346.69</ele>
        <time>2015-11-02T07:53:06Z</time>
      </trkpt>
      <trkpt lat="43.33663" lon="2.40294">
        <ele>345.73</ele>
        <time>2015-11-02T07:53:09Z</time>
      </trkpt>
      <trkpt lat="43.33663" lon="2.40301">
        <ele>344.29</ele>
        <time>2015-11-02T07:53:13Z</time>
      </trkpt>
      <trkpt lat="43.33663" lon="2.40313">
        <ele>343.81</ele>
        <time>2015-11-02T07:53:19Z</time>
      </trkpt>
      <trkpt lat="43.33666" lon="2.40321">
        <ele>343.33</ele>
        <time>2015-11-02T07:53:25Z</time>
      </trkpt>
      <trkpt lat="43.33673" lon="2.40336">
        <ele>341.41</ele>
        <time>2015-11-02T07:53:38Z</time>
      </trkpt>
      <trkpt lat="43.33679" lon="2.40345">
        <ele>340.44</ele>
        <time>2015-11-02T07:53:46Z</time>
      </trkpt>
      <trkpt lat="43.33688" lon="2.40359">
        <ele>339</ele>
        <time>2015-11-02T07:53:58Z</time>
      </trkpt>
      <trkpt lat="43.33696" lon="2.40365">
        <ele>338.04</ele>
        <time>2015-11-02T07:54:05Z</time>
      </trkpt>
      <trkpt lat="43.33707" lon="2.40373">
        <ele>337.08</ele>
        <time>2015-11-02T07:54:15Z</time>
      </trkpt>
      <trkpt lat="43.33717" lon="2.4038">
        <ele>336.6</ele>
        <time>2015-11-02T07:54:26Z</time>
      </trkpt>
      <trkpt lat="43.33724" lon="2.40383">
        <ele>336.12</ele>
        <time>2015-11-02T07:54:36Z</time>
      </trkpt>
      <trkpt lat="43.33725" lon="2.40384">
        <ele>335.64</ele>
        <time>2015-11-02T07:54:39Z</time>
      </trkpt>
      <trkpt lat="43.33745" lon="2.40394">
        <ele>334.68</ele>
        <time>2015-11-02T07:54:52Z</time>
      </trkpt>
      <trkpt lat="43.33748" lon="2.40396">
        <ele>334.68</ele>
        <time>2015-11-02T07:54:55Z</time>
      </trkpt>
      <trkpt lat="43.33755" lon="2.40398">
        <ele>333.71</ele>
        <time>2015-11-02T07:55:01Z</time>
      </trkpt>
      <trkpt lat="43.33758" lon="2.404">
        <ele>333.23</ele>
        <time>2015-11-02T07:55:04Z</time>
      </trkpt>
      <trkpt lat="43.33764" lon="2.40404">
        <ele>333.23</ele>
        <time>2015-11-02T07:55:10Z</time>
      </trkpt>
      <trkpt lat="43.33777" lon="2.40412">
        <ele>330.35</ele>
        <time>2015-11-02T07:55:24Z</time>
      </trkpt>
      <trkpt lat="43.33778" lon="2.40413">
        <ele>329.87</ele>
        <time>2015-11-02T07:55:25Z</time>
      </trkpt>
      <trkpt lat="43.33787" lon="2.40418">
        <ele>329.39</ele>
        <time>2015-11-02T07:55:37Z</time>
      </trkpt>
      <trkpt lat="43.3379" lon="2.4042">
        <ele>328.91</ele>
        <time>2015-11-02T07:55:40Z</time>
      </trkpt>
      <trkpt lat="43.33803" lon="2.40427">
        <ele>326.99</ele>
        <time>2015-11-02T07:55:52Z</time>
      </trkpt>
      <trkpt lat="43.33804" lon="2.40428">
        <ele>326.5</ele>
        <time>2015-11-02T07:55:54Z</time>
      </trkpt>
      <trkpt lat="43.33815" lon="2.4043">
        <ele>325.54</ele>
        <time>2015-11-02T07:56:06Z</time>
      </trkpt>
      <trkpt lat="43.33816" lon="2.40431">
        <ele>325.06</ele>
        <time>2015-11-02T07:56:10Z</time>
      </trkpt>
      <trkpt lat="43.3382" lon="2.40432">
        <ele>324.58</ele>
        <time>2015-11-02T07:56:15Z</time>
      </trkpt>
      <trkpt lat="43.33824" lon="2.40431">
        <ele>324.1</ele>
        <time>2015-11-02T07:56:19Z</time>
      </trkpt>
      <trkpt lat="43.33829" lon="2.40431">
        <ele>324.1</ele>
        <time>2015-11-02T07:56:25Z</time>
      </trkpt>
      <trkpt lat="43.33836" lon="2.4043">
        <ele>324.58</ele>
        <time>2015-11-02T07:56:32Z</time>
      </trkpt>
      <trkpt lat="43.33848" lon="2.40432">
        <ele>325.06</ele>
        <time>2015-11-02T07:56:42Z</time>
      </trkpt>
      <trkpt lat="43.33856" lon="2.40432">
        <ele>325.54</ele>
        <time>2015-11-02T07:56:49Z</time>
      </trkpt>
      <trkpt lat="43.33863" lon="2.40432">
        <ele>326.02</ele>
        <time>2015-11-02T07:57:04Z</time>
      </trkpt>
      <trkpt lat="43.33868" lon="2.40435">
        <ele>326.02</ele>
        <time>2015-11-02T07:57:14Z</time>
      </trkpt>
      <trkpt lat="43.33871" lon="2.40436">
        <ele>326.02</ele>
        <time>2015-11-02T07:57:17Z</time>
      </trkpt>
      <trkpt lat="43.33886" lon="2.40441">
        <ele>326.02</ele>
        <time>2015-11-02T07:57:32Z</time>
      </trkpt>
      <trkpt lat="43.33887" lon="2.40441">
        <ele>326.02</ele>
        <time>2015-11-02T07:57:33Z</time>
      </trkpt>
      <trkpt lat="43.33893" lon="2.40444">
        <ele>326.5</ele>
        <time>2015-11-02T07:57:39Z</time>
      </trkpt>
      <trkpt lat="43.33903" lon="2.40451">
        <ele>327.95</ele>
        <time>2015-11-02T07:57:47Z</time>
      </trkpt>
      <trkpt lat="43.3391" lon="2.40455">
        <ele>327.47</ele>
        <time>2015-11-02T07:57:52Z</time>
      </trkpt>
      <trkpt lat="43.33919" lon="2.40462">
        <ele>326.99</ele>
        <time>2015-11-02T07:58:06Z</time>
      </trkpt>
      <trkpt lat="43.33934" lon="2.4047">
        <ele>328.91</ele>
        <time>2015-11-02T07:58:22Z</time>
      </trkpt>
      <trkpt lat="43.33938" lon="2.40472">
        <ele>328.91</ele>
        <time>2015-11-02T07:58:26Z</time>
      </trkpt>
      <trkpt lat="43.33949" lon="2.4048">
        <ele>329.39</ele>
        <time>2015-11-02T07:58:38Z</time>
      </trkpt>
      <trkpt lat="43.33955" lon="2.40484">
        <ele>329.39</ele>
        <time>2015-11-02T07:58:52Z</time>
      </trkpt>
      <trkpt lat="43.33962" lon="2.40489">
        <ele>329.87</ele>
        <time>2015-11-02T07:59:00Z</time>
      </trkpt>
      <trkpt lat="43.33981" lon="2.40497">
        <ele>329.87</ele>
        <time>2015-11-02T07:59:13Z</time>
      </trkpt>
      <trkpt lat="43.33987" lon="2.40504">
        <ele>330.83</ele>
        <time>2015-11-02T07:59:20Z</time>
      </trkpt>
      <trkpt lat="43.33991" lon="2.40504">
        <ele>331.31</ele>
        <time>2015-11-02T07:59:25Z</time>
      </trkpt>
      <trkpt lat="43.34006" lon="2.4051">
        <ele>331.31</ele>
        <time>2015-11-02T07:59:38Z</time>
      </trkpt>
      <trkpt lat="43.34017" lon="2.40513">
        <ele>331.31</ele>
        <time>2015-11-02T07:59:49Z</time>
      </trkpt>
      <trkpt lat="43.34023" lon="2.40516">
        <ele>332.27</ele>
        <time>2015-11-02T07:59:58Z</time>
      </trkpt>
      <trkpt lat="43.34031" lon="2.40522">
        <ele>331.79</ele>
        <time>2015-11-02T08:00:12Z</time>
      </trkpt>
      <trkpt lat="43.34034" lon="2.40525">
        <ele>332.75</ele>
        <time>2015-11-02T08:00:22Z</time>
      </trkpt>
      <trkpt lat="43.34035" lon="2.40527">
        <ele>332.75</ele>
        <time>2015-11-02T08:00:41Z</time>
      </trkpt>
      <trkpt lat="43.34035" lon="2.40526">
        <ele>332.27</ele>
        <time>2015-11-02T08:00:54Z</time>
      </trkpt>
      <trkpt lat="43.3404" lon="2.40528">
        <ele>335.16</ele>
        <time>2015-11-02T08:01:10Z</time>
      </trkpt>
      <trkpt lat="43.3405" lon="2.40535">
        <ele>335.16</ele>
        <time>2015-11-02T08:01:26Z</time>
      </trkpt>
      <trkpt lat="43.34058" lon="2.40538">
        <ele>334.68</ele>
        <time>2015-11-02T08:01:40Z</time>
      </trkpt>
      <trkpt lat="43.34063" lon="2.40542">
        <ele>336.12</ele>
        <time>2015-11-02T08:01:47Z</time>
      </trkpt>
      <trkpt lat="43.34071" lon="2.40544">
        <ele>336.12</ele>
        <time>2015-11-02T08:01:59Z</time>
      </trkpt>
      <trkpt lat="43.34083" lon="2.40552">
        <ele>336.6</ele>
        <time>2015-11-02T08:02:10Z</time>
      </trkpt>
      <trkpt lat="43.34095" lon="2.40556">
        <ele>337.08</ele>
        <time>2015-11-02T08:02:24Z</time>
      </trkpt>
      <trkpt lat="43.34102" lon="2.40558">
        <ele>339.48</ele>
        <time>2015-11-02T08:02:37Z</time>
      </trkpt>
      <trkpt lat="43.34108" lon="2.40564">
        <ele>340.92</ele>
        <time>2015-11-02T08:02:49Z</time>
      </trkpt>
      <trkpt lat="43.34117" lon="2.40569">
        <ele>340.92</ele>
        <time>2015-11-02T08:03:01Z</time>
      </trkpt>
      <trkpt lat="43.34127" lon="2.40578">
        <ele>341.41</ele>
        <time>2015-11-02T08:03:11Z</time>
      </trkpt>
      <trkpt lat="43.34141" lon="2.40586">
        <ele>341.89</ele>
        <time>2015-11-02T08:03:25Z</time>
      </trkpt>
      <trkpt lat="43.3415" lon="2.4059">
        <ele>343.33</ele>
        <time>2015-11-02T08:03:38Z</time>
      </trkpt>
      <trkpt lat="43.34153" lon="2.40592">
        <ele>343.33</ele>
        <time>2015-11-02T08:03:41Z</time>
      </trkpt>
      <trkpt lat="43.34158" lon="2.40599">
        <ele>343.33</ele>
        <time>2015-11-02T08:03:47Z</time>
      </trkpt>
      <trkpt lat="43.34164" lon="2.40609">
        <ele>344.29</ele>
        <time>2015-11-02T08:04:01Z</time>
      </trkpt>
      <trkpt lat="43.34166" lon="2.40617">
        <ele>343.81</ele>
        <time>2015-11-02T08:04:12Z</time>
      </trkpt>
      <trkpt lat="43.34166" lon="2.40618">
        <ele>343.81</ele>
        <time>2015-11-02T08:04:13Z</time>
      </trkpt>
      <trkpt lat="43.34167" lon="2.4063">
        <ele>345.73</ele>
        <time>2015-11-02T08:04:26Z</time>
      </trkpt>
      <trkpt lat="43.34169" lon="2.40633">
        <ele>346.69</ele>
        <time>2015-11-02T08:04:41Z</time>
      </trkpt>
      <trkpt lat="43.34175" lon="2.40636">
        <ele>348.13</ele>
        <time>2015-11-02T08:04:56Z</time>
      </trkpt>
      <trkpt lat="43.3418" lon="2.40636">
        <ele>349.1</ele>
        <time>2015-11-02T08:05:10Z</time>
      </trkpt>
      <trkpt lat="43.34185" lon="2.40637">
        <ele>351.98</ele>
        <time>2015-11-02T08:05:22Z</time>
      </trkpt>
      <trkpt lat="43.34194" lon="2.40636">
        <ele>354.86</ele>
        <time>2015-11-02T08:05:33Z</time>
      </trkpt>
      <trkpt lat="43.34201" lon="2.40635">
        <ele>355.34</ele>
        <time>2015-11-02T08:05:42Z</time>
      </trkpt>
      <trkpt lat="43.34212" lon="2.40633">
        <ele>357.27</ele>
        <time>2015-11-02T08:05:57Z</time>
      </trkpt>
      <trkpt lat="43.3422" lon="2.40627">
        <ele>358.71</ele>
        <time>2015-11-02T08:06:10Z</time>
      </trkpt>
      <trkpt lat="43.34225" lon="2.40627">
        <ele>360.15</ele>
        <time>2015-11-02T08:06:22Z</time>
      </trkpt>
      <trkpt lat="43.34225" lon="2.40629">
        <ele>360.63</ele>
        <time>2015-11-02T08:06:35Z</time>
      </trkpt>
      <trkpt lat="43.34227" lon="2.40631">
        <ele>361.11</ele>
        <time>2015-11-02T08:06:55Z</time>
      </trkpt>
      <trkpt lat="43.3423" lon="2.40629">
        <ele>362.07</ele>
        <time>2015-11-02T08:07:04Z</time>
      </trkpt>
      <trkpt lat="43.34237" lon="2.4063">
        <ele>364.48</ele>
        <time>2015-11-02T08:07:19Z</time>
      </trkpt>
      <trkpt lat="43.34243" lon="2.4063">
        <ele>366.4</ele>
        <time>2015-11-02T08:07:30Z</time>
      </trkpt>
      <trkpt lat="43.34244" lon="2.4063">
        <ele>366.4</ele>
        <time>2015-11-02T08:07:31Z</time>
      </trkpt>
      <trkpt lat="43.3425" lon="2.40634">
        <ele>367.36</ele>
        <time>2015-11-02T08:07:45Z</time>
      </trkpt>
      <trkpt lat="43.3425" lon="2.40632">
        <ele>367.84</ele>
        <time>2015-11-02T08:08:02Z</time>
      </trkpt>
      <trkpt lat="43.34257" lon="2.4063">
        <ele>369.76</ele>
        <time>2015-11-02T08:08:14Z</time>
      </trkpt>
      <trkpt lat="43.34263" lon="2.40629">
        <ele>372.17</ele>
        <time>2015-11-02T08:08:26Z</time>
      </trkpt>
      <trkpt lat="43.34271" lon="2.40629">
        <ele>373.13</ele>
        <time>2015-11-02T08:08:38Z</time>
      </trkpt>
      <trkpt lat="43.34273" lon="2.40628">
        <ele>374.09</ele>
        <time>2015-11-02T08:08:53Z</time>
      </trkpt>
      <trkpt lat="43.34276" lon="2.40626">
        <ele>374.57</ele>
        <time>2015-11-02T08:09:01Z</time>
      </trkpt>
      <trkpt lat="43.34286" lon="2.4062">
        <ele>376.49</ele>
        <time>2015-11-02T08:09:15Z</time>
      </trkpt>
      <trkpt lat="43.34293" lon="2.40615">
        <ele>378.42</ele>
        <time>2015-11-02T08:09:29Z</time>
      </trkpt>
      <trkpt lat="43.34295" lon="2.40614">
        <ele>377.45</ele>
        <time>2015-11-02T08:09:43Z</time>
      </trkpt>
      <trkpt lat="43.34299" lon="2.40607">
        <ele>379.38</ele>
        <time>2015-11-02T08:09:56Z</time>
      </trkpt>
      <trkpt lat="43.34308" lon="2.40599">
        <ele>381.3</ele>
        <time>2015-11-02T08:10:09Z</time>
      </trkpt>
      <trkpt lat="43.34317" lon="2.4059">
        <ele>384.18</ele>
        <time>2015-11-02T08:10:23Z</time>
      </trkpt>
      <trkpt lat="43.34321" lon="2.40585">
        <ele>385.63</ele>
        <time>2015-11-02T08:10:35Z</time>
      </trkpt>
      <trkpt lat="43.34327" lon="2.40577">
        <ele>387.07</ele>
        <time>2015-11-02T08:10:50Z</time>
      </trkpt>
      <trkpt lat="43.34332" lon="2.4057">
        <ele>387.55</ele>
        <time>2015-11-02T08:11:03Z</time>
      </trkpt>
      <trkpt lat="43.34339" lon="2.40565">
        <ele>390.91</ele>
        <time>2015-11-02T08:11:17Z</time>
      </trkpt>
      <trkpt lat="43.34347" lon="2.40555">
        <ele>392.36</ele>
        <time>2015-11-02T08:11:31Z</time>
      </trkpt>
      <trkpt lat="43.34353" lon="2.4055">
        <ele>394.28</ele>
        <time>2015-11-02T08:11:43Z</time>
      </trkpt>
      <trkpt lat="43.34358" lon="2.40545">
        <ele>395.72</ele>
        <time>2015-11-02T08:11:58Z</time>
      </trkpt>
      <trkpt lat="43.34361" lon="2.4054">
        <ele>396.68</ele>
        <time>2015-11-02T08:12:11Z</time>
      </trkpt>
      <trkpt lat="43.34364" lon="2.40531">
        <ele>395.72</ele>
        <time>2015-11-02T08:12:25Z</time>
      </trkpt>
      <trkpt lat="43.34363" lon="2.40531">
        <ele>396.2</ele>
        <time>2015-11-02T08:12:49Z</time>
      </trkpt>
      <trkpt lat="43.34364" lon="2.40534">
        <ele>394.28</ele>
        <time>2015-11-02T08:13:13Z</time>
      </trkpt>
      <trkpt lat="43.34364" lon="2.40534">
        <ele>396.68</ele>
        <time>2015-11-02T08:13:39Z</time>
      </trkpt>
      <trkpt lat="43.34364" lon="2.40533">
        <ele>396.68</ele>
        <time>2015-11-02T08:14:00Z</time>
      </trkpt>
      <trkpt lat="43.34364" lon="2.40533">
        <ele>395.72</ele>
        <time>2015-11-02T08:14:21Z</time>
      </trkpt>
      <trkpt lat="43.34364" lon="2.40533">
        <ele>396.2</ele>
        <time>2015-11-02T08:14:39Z</time>
      </trkpt>
      <trkpt lat="43.34365" lon="2.40534">
        <ele>397.16</ele>
        <time>2015-11-02T08:14:59Z</time>
      </trkpt>
      <trkpt lat="43.34366" lon="2.40534">
        <ele>396.68</ele>
        <time>2015-11-02T08:15:07Z</time>
      </trkpt>
      <trkpt lat="43.34372" lon="2.40527">
        <ele>397.64</ele>
        <time>2015-11-02T08:15:18Z</time>
      </trkpt>
      <trkpt lat="43.34379" lon="2.40522">
        <ele>399.08</ele>
        <time>2015-11-02T08:15:33Z</time>
      </trkpt>
      <trkpt lat="43.34386" lon="2.40517">
        <ele>400.53</ele>
        <time>2015-11-02T08:15:46Z</time>
      </trkpt>
      <trkpt lat="43.34392" lon="2.40514">
        <ele>401.49</ele>
        <time>2015-11-02T08:15:57Z</time>
      </trkpt>
      <trkpt lat="43.344" lon="2.4051">
        <ele>403.89</ele>
        <time>2015-11-02T08:16:10Z</time>
      </trkpt>
      <trkpt lat="43.3441" lon="2.40504">
        <ele>405.33</ele>
        <time>2015-11-02T08:16:26Z</time>
      </trkpt>
      <trkpt lat="43.3442" lon="2.40501">
        <ele>406.77</ele>
        <time>2015-11-02T08:16:38Z</time>
      </trkpt>
      <trkpt lat="43.34427" lon="2.40497">
        <ele>407.74</ele>
        <time>2015-11-02T08:16:47Z</time>
      </trkpt>
      <trkpt lat="43.34429" lon="2.40496">
        <ele>408.7</ele>
        <time>2015-11-02T08:16:49Z</time>
      </trkpt>
      <trkpt lat="43.34439" lon="2.4049">
        <ele>409.18</ele>
        <time>2015-11-02T08:17:02Z</time>
      </trkpt>
      <trkpt lat="43.34447" lon="2.40486">
        <ele>411.1</ele>
        <time>2015-11-02T08:17:16Z</time>
      </trkpt>
      <trkpt lat="43.34457" lon="2.40479">
        <ele>413.02</ele>
        <time>2015-11-02T08:17:31Z</time>
      </trkpt>
      <trkpt lat="43.34458" lon="2.4048">
        <ele>413.02</ele>
        <time>2015-11-02T08:17:45Z</time>
      </trkpt>
      <trkpt lat="43.34459" lon="2.40479">
        <ele>413.5</ele>
        <time>2015-11-02T08:17:56Z</time>
      </trkpt>
      <trkpt lat="43.34469" lon="2.40475">
        <ele>414.95</ele>
        <time>2015-11-02T08:18:08Z</time>
      </trkpt>
      <trkpt lat="43.34477" lon="2.40471">
        <ele>416.87</ele>
        <time>2015-11-02T08:18:20Z</time>
      </trkpt>
      <trkpt lat="43.34486" lon="2.40468">
        <ele>418.79</ele>
        <time>2015-11-02T08:18:35Z</time>
      </trkpt>
      <trkpt lat="43.34489" lon="2.40468">
        <ele>419.27</ele>
        <time>2015-11-02T08:18:46Z</time>
      </trkpt>
      <trkpt lat="43.34492" lon="2.40467">
        <ele>419.75</ele>
        <time>2015-11-02T08:18:49Z</time>
      </trkpt>
      <trkpt lat="43.34499" lon="2.40461">
        <ele>421.68</ele>
        <time>2015-11-02T08:18:59Z</time>
      </trkpt>
      <trkpt lat="43.34504" lon="2.4046">
        <ele>423.12</ele>
        <time>2015-11-02T08:19:08Z</time>
      </trkpt>
      <trkpt lat="43.34512" lon="2.40455">
        <ele>424.56</ele>
        <time>2015-11-02T08:19:23Z</time>
      </trkpt>
      <trkpt lat="43.34521" lon="2.40447">
        <ele>426.48</ele>
        <time>2015-11-02T08:19:37Z</time>
      </trkpt>
      <trkpt lat="43.34525" lon="2.40445">
        <ele>426.96</ele>
        <time>2015-11-02T08:19:50Z</time>
      </trkpt>
      <trkpt lat="43.34531" lon="2.4044">
        <ele>429.37</ele>
        <time>2015-11-02T08:20:08Z</time>
      </trkpt>
      <trkpt lat="43.34539" lon="2.40433">
        <ele>431.77</ele>
        <time>2015-11-02T08:20:21Z</time>
      </trkpt>
      <trkpt lat="43.34546" lon="2.40428">
        <ele>433.21</ele>
        <time>2015-11-02T08:20:31Z</time>
      </trkpt>
      <trkpt lat="43.34552" lon="2.40425">
        <ele>434.17</ele>
        <time>2015-11-02T08:20:41Z</time>
      </trkpt>
      <trkpt lat="43.34555" lon="2.40424">
        <ele>434.17</ele>
        <time>2015-11-02T08:20:45Z</time>
      </trkpt>
      <trkpt lat="43.34561" lon="2.4042">
        <ele>435.13</ele>
        <time>2015-11-02T08:20:58Z</time>
      </trkpt>
      <trkpt lat="43.34566" lon="2.40419">
        <ele>436.1</ele>
        <time>2015-11-02T08:21:08Z</time>
      </trkpt>
      <trkpt lat="43.34578" lon="2.4041">
        <ele>438.02</ele>
        <time>2015-11-02T08:21:24Z</time>
      </trkpt>
      <trkpt lat="43.34583" lon="2.40407">
        <ele>439.46</ele>
        <time>2015-11-02T08:21:32Z</time>
      </trkpt>
      <trkpt lat="43.34588" lon="2.40403">
        <ele>439.94</ele>
        <time>2015-11-02T08:21:39Z</time>
      </trkpt>
      <trkpt lat="43.34595" lon="2.404">
        <ele>441.38</ele>
        <time>2015-11-02T08:21:52Z</time>
      </trkpt>
      <trkpt lat="43.34604" lon="2.40395">
        <ele>443.31</ele>
        <time>2015-11-02T08:22:05Z</time>
      </trkpt>
      <trkpt lat="43.34608" lon="2.40393">
        <ele>444.75</ele>
        <time>2015-11-02T08:22:13Z</time>
      </trkpt>
      <trkpt lat="43.34617" lon="2.4039">
        <ele>445.23</ele>
        <time>2015-11-02T08:22:26Z</time>
      </trkpt>
      <trkpt lat="43.34618" lon="2.40389">
        <ele>446.19</ele>
        <time>2015-11-02T08:22:28Z</time>
      </trkpt>
      <trkpt lat="43.3462" lon="2.40388">
        <ele>446.19</ele>
        <time>2015-11-02T08:22:30Z</time>
      </trkpt>
      <trkpt lat="43.34623" lon="2.40384">
        <ele>447.63</ele>
        <time>2015-11-02T08:22:38Z</time>
      </trkpt>
      <trkpt lat="43.3463" lon="2.4038">
        <ele>448.59</ele>
        <time>2015-11-02T08:22:50Z</time>
      </trkpt>
      <trkpt lat="43.34635" lon="2.40378">
        <ele>449.55</ele>
        <time>2015-11-02T08:23:00Z</time>
      </trkpt>
      <trkpt lat="43.3464" lon="2.40375">
        <ele>450.52</ele>
        <time>2015-11-02T08:23:12Z</time>
      </trkpt>
      <trkpt lat="43.34647" lon="2.40369">
        <ele>453.88</ele>
        <time>2015-11-02T08:23:22Z</time>
      </trkpt>
      <trkpt lat="43.34647" lon="2.40368">
        <ele>453.88</ele>
        <time>2015-11-02T08:23:23Z</time>
      </trkpt>
      <trkpt lat="43.34648" lon="2.40367">
        <ele>455.32</ele>
        <time>2015-11-02T08:23:25Z</time>
      </trkpt>
      <trkpt lat="43.34651" lon="2.40366">
        <ele>454.36</ele>
        <time>2015-11-02T08:23:30Z</time>
      </trkpt>
      <trkpt lat="43.34657" lon="2.40363">
        <ele>454.84</ele>
        <time>2015-11-02T08:23:44Z</time>
      </trkpt>
      <trkpt lat="43.34659" lon="2.40362">
        <ele>454.36</ele>
        <time>2015-11-02T08:23:53Z</time>
      </trkpt>
      <trkpt lat="43.34666" lon="2.4036">
        <ele>457.24</ele>
        <time>2015-11-02T08:24:02Z</time>
      </trkpt>
      <trkpt lat="43.34672" lon="2.40355">
        <ele>458.69</ele>
        <time>2015-11-02T08:24:13Z</time>
      </trkpt>
      <trkpt lat="43.34674" lon="2.40353">
        <ele>460.13</ele>
        <time>2015-11-02T08:24:17Z</time>
      </trkpt>
      <trkpt lat="43.34679" lon="2.40347">
        <ele>461.57</ele>
        <time>2015-11-02T08:24:32Z</time>
      </trkpt>
      <trkpt lat="43.34689" lon="2.40346">
        <ele>463.01</ele>
        <time>2015-11-02T08:24:45Z</time>
      </trkpt>
      <trkpt lat="43.34696" lon="2.40339">
        <ele>465.9</ele>
        <time>2015-11-02T08:24:58Z</time>
      </trkpt>
      <trkpt lat="43.34703" lon="2.40332">
        <ele>467.34</ele>
        <time>2015-11-02T08:25:10Z</time>
      </trkpt>
      <trkpt lat="43.34711" lon="2.40326">
        <ele>467.82</ele>
        <time>2015-11-02T08:25:24Z</time>
      </trkpt>
      <trkpt lat="43.34718" lon="2.40325">
        <ele>469.26</ele>
        <time>2015-11-02T08:25:37Z</time>
      </trkpt>
      <trkpt lat="43.34725" lon="2.40321">
        <ele>471.18</ele>
        <time>2015-11-02T08:25:52Z</time>
      </trkpt>
      <trkpt lat="43.3473" lon="2.40318">
        <ele>472.14</ele>
        <time>2015-11-02T08:26:04Z</time>
      </trkpt>
      <trkpt lat="43.34736" lon="2.40315">
        <ele>474.55</ele>
        <time>2015-11-02T08:26:14Z</time>
      </trkpt>
      <trkpt lat="43.34745" lon="2.40315">
        <ele>475.51</ele>
        <time>2015-11-02T08:26:27Z</time>
      </trkpt>
      <trkpt lat="43.34755" lon="2.40317">
        <ele>477.43</ele>
        <time>2015-11-02T08:26:37Z</time>
      </trkpt>
      <trkpt lat="43.34763" lon="2.40317">
        <ele>477.43</ele>
        <time>2015-11-02T08:26:51Z</time>
      </trkpt>
      <trkpt lat="43.34768" lon="2.4032">
        <ele>480.32</ele>
        <time>2015-11-02T08:26:58Z</time>
      </trkpt>
      <trkpt lat="43.34783" lon="2.40317">
        <ele>480.8</ele>
        <time>2015-11-02T08:27:14Z</time>
      </trkpt>
      <trkpt lat="43.34785" lon="2.40315">
        <ele>482.72</ele>
        <time>2015-11-02T08:27:21Z</time>
      </trkpt>
      <trkpt lat="43.34793" lon="2.40312">
        <ele>484.16</ele>
        <time>2015-11-02T08:27:32Z</time>
      </trkpt>
      <trkpt lat="43.34794" lon="2.40312">
        <ele>484.16</ele>
        <time>2015-11-02T08:27:33Z</time>
      </trkpt>
      <trkpt lat="43.34801" lon="2.4031">
        <ele>484.64</ele>
        <time>2015-11-02T08:27:45Z</time>
      </trkpt>
      <trkpt lat="43.34806" lon="2.40314">
        <ele>484.16</ele>
        <time>2015-11-02T08:27:58Z</time>
      </trkpt>
      <trkpt lat="43.34808" lon="2.40315">
        <ele>483.68</ele>
        <time>2015-11-02T08:28:15Z</time>
      </trkpt>
      <trkpt lat="43.34808" lon="2.40315">
        <ele>484.16</ele>
        <time>2015-11-02T08:28:35Z</time>
      </trkpt>
      <trkpt lat="43.34808" lon="2.40315">
        <ele>485.6</ele>
        <time>2015-11-02T08:28:56Z</time>
      </trkpt>
      <trkpt lat="43.34808" lon="2.40315">
        <ele>484.16</ele>
        <time>2015-11-02T08:29:13Z</time>
      </trkpt>
      <trkpt lat="43.34808" lon="2.40315">
        <ele>486.08</ele>
        <time>2015-11-02T08:29:37Z</time>
      </trkpt>
      <trkpt lat="43.34809" lon="2.40315">
        <ele>486.56</ele>
        <time>2015-11-02T08:30:02Z</time>
      </trkpt>
      <trkpt lat="43.34809" lon="2.40315">
        <ele>483.2</ele>
        <time>2015-11-02T08:30:12Z</time>
      </trkpt>
      <trkpt lat="43.34809" lon="2.40314">
        <ele>483.68</ele>
        <time>2015-11-02T08:30:31Z</time>
      </trkpt>
      <trkpt lat="43.3481" lon="2.40314">
        <ele>484.64</ele>
        <time>2015-11-02T08:30:58Z</time>
      </trkpt>
      <trkpt lat="43.3481" lon="2.40315">
        <ele>484.16</ele>
        <time>2015-11-02T08:31:18Z</time>
      </trkpt>
      <trkpt lat="43.3481" lon="2.40314">
        <ele>482.24</ele>
        <time>2015-11-02T08:31:41Z</time>
      </trkpt>
      <trkpt lat="43.34809" lon="2.40313">
        <ele>484.16</ele>
        <time>2015-11-02T08:32:13Z</time>
      </trkpt>
      <trkpt lat="43.34809" lon="2.40313">
        <ele>482.72</ele>
        <time>2015-11-02T08:32:40Z</time>
      </trkpt>
      <trkpt lat="43.34809" lon="2.40313">
        <ele>480.8</ele>
        <time>2015-11-02T08:32:44Z</time>
      </trkpt>
      <trkpt lat="43.3481" lon="2.40313">
        <ele>482.24</ele>
        <time>2015-11-02T08:33:08Z</time>
      </trkpt>
      <trkpt lat="43.3481" lon="2.40313">
        <ele>483.2</ele>
        <time>2015-11-02T08:33:21Z</time>
      </trkpt>
      <trkpt lat="43.34818" lon="2.40311">
        <ele>483.68</ele>
        <time>2015-11-02T08:33:40Z</time>
      </trkpt>
      <trkpt lat="43.34818" lon="2.40311">
        <ele>483.68</ele>
        <time>2015-11-02T08:33:41Z</time>
      </trkpt>
      <trkpt lat="43.34827" lon="2.40306">
        <ele>483.2</ele>
        <time>2015-11-02T08:33:52Z</time>
      </trkpt>
      <trkpt lat="43.34831" lon="2.40303">
        <ele>484.16</ele>
        <time>2015-11-02T08:33:57Z</time>
      </trkpt>
      <trkpt lat="43.34832" lon="2.40301">
        <ele>484.16</ele>
        <time>2015-11-02T08:33:59Z</time>
      </trkpt>
      <trkpt lat="43.34836" lon="2.40298">
        <ele>483.68</ele>
        <time>2015-11-02T08:34:02Z</time>
      </trkpt>
      <trkpt lat="43.34838" lon="2.40297">
        <ele>483.2</ele>
        <time>2015-11-02T08:34:05Z</time>
      </trkpt>
      <trkpt lat="43.34842" lon="2.40295">
        <ele>483.68</ele>
        <time>2015-11-02T08:34:08Z</time>
      </trkpt>
      <trkpt lat="43.34843" lon="2.40293">
        <ele>484.16</ele>
        <time>2015-11-02T08:34:10Z</time>
      </trkpt>
      <trkpt lat="43.34848" lon="2.40288">
        <ele>484.64</ele>
        <time>2015-11-02T08:34:16Z</time>
      </trkpt>
      <trkpt lat="43.34852" lon="2.40283">
        <ele>485.6</ele>
        <time>2015-11-02T08:34:21Z</time>
      </trkpt>
      <trkpt lat="43.34861" lon="2.40272">
        <ele>488.49</ele>
        <time>2015-11-02T08:34:34Z</time>
      </trkpt>
      <trkpt lat="43.3487" lon="2.40269">
        <ele>489.93</ele>
        <time>2015-11-02T08:34:44Z</time>
      </trkpt>
      <trkpt lat="43.34881" lon="2.40267">
        <ele>491.37</ele>
        <time>2015-11-02T08:34:57Z</time>
      </trkpt>
      <trkpt lat="43.34889" lon="2.40264">
        <ele>492.33</ele>
        <time>2015-11-02T08:35:05Z</time>
      </trkpt>
      <trkpt lat="43.34893" lon="2.40262">
        <ele>491.85</ele>
        <time>2015-11-02T08:35:17Z</time>
      </trkpt>
      <trkpt lat="43.34893" lon="2.40262">
        <ele>492.81</ele>
        <time>2015-11-02T08:35:33Z</time>
      </trkpt>
      <trkpt lat="43.34894" lon="2.40262">
        <ele>492.81</ele>
        <time>2015-11-02T08:35:51Z</time>
      </trkpt>
      <trkpt lat="43.34894" lon="2.40261">
        <ele>491.37</ele>
        <time>2015-11-02T08:35:56Z</time>
      </trkpt>
      <trkpt lat="43.34894" lon="2.4026">
        <ele>491.37</ele>
        <time>2015-11-02T08:36:11Z</time>
      </trkpt>
      <trkpt lat="43.34895" lon="2.40259">
        <ele>491.85</ele>
        <time>2015-11-02T08:36:27Z</time>
      </trkpt>
      <trkpt lat="43.34895" lon="2.40258">
        <ele>490.41</ele>
        <time>2015-11-02T08:36:42Z</time>
      </trkpt>
      <trkpt lat="43.34896" lon="2.40258">
        <ele>491.37</ele>
        <time>2015-11-02T08:36:48Z</time>
      </trkpt>
      <trkpt lat="43.34898" lon="2.40254">
        <ele>493.77</ele>
        <time>2015-11-02T08:36:52Z</time>
      </trkpt>
      <trkpt lat="43.34899" lon="2.40252">
        <ele>494.74</ele>
        <time>2015-11-02T08:36:54Z</time>
      </trkpt>
      <trkpt lat="43.34901" lon="2.40249">
        <ele>493.77</ele>
        <time>2015-11-02T08:36:57Z</time>
      </trkpt>
      <trkpt lat="43.34907" lon="2.40247">
        <ele>494.26</ele>
        <time>2015-11-02T08:37:03Z</time>
      </trkpt>
      <trkpt lat="43.34912" lon="2.40248">
        <ele>495.7</ele>
        <time>2015-11-02T08:37:07Z</time>
      </trkpt>
      <trkpt lat="43.34919" lon="2.40244">
        <ele>496.66</ele>
        <time>2015-11-02T08:37:14Z</time>
      </trkpt>
      <trkpt lat="43.34932" lon="2.40239">
        <ele>498.58</ele>
        <time>2015-11-02T08:37:24Z</time>
      </trkpt>
      <trkpt lat="43.34933" lon="2.40239">
        <ele>499.06</ele>
        <time>2015-11-02T08:37:25Z</time>
      </trkpt>
      <trkpt lat="43.3494" lon="2.40238">
        <ele>499.54</ele>
        <time>2015-11-02T08:37:30Z</time>
      </trkpt>
      <trkpt lat="43.34942" lon="2.40233">
        <ele>500.5</ele>
        <time>2015-11-02T08:37:33Z</time>
      </trkpt>
      <trkpt lat="43.34942" lon="2.40223">
        <ele>502.43</ele>
        <time>2015-11-02T08:37:41Z</time>
      </trkpt>
      <trkpt lat="43.34938" lon="2.40211">
        <ele>503.39</ele>
        <time>2015-11-02T08:37:48Z</time>
      </trkpt>
      <trkpt lat="43.34935" lon="2.40206">
        <ele>504.35</ele>
        <time>2015-11-02T08:37:54Z</time>
      </trkpt>
      <trkpt lat="43.34929" lon="2.40202">
        <ele>505.79</ele>
        <time>2015-11-02T08:38:01Z</time>
      </trkpt>
      <trkpt lat="43.34925" lon="2.40201">
        <ele>509.16</ele>
        <time>2015-11-02T08:38:06Z</time>
      </trkpt>
      <trkpt lat="43.34922" lon="2.402">
        <ele>507.23</ele>
        <time>2015-11-02T08:38:09Z</time>
      </trkpt>
      <trkpt lat="43.34919" lon="2.402">
        <ele>510.12</ele>
        <time>2015-11-02T08:38:12Z</time>
      </trkpt>
      <trkpt lat="43.34906" lon="2.40194">
        <ele>507.71</ele>
        <time>2015-11-02T08:38:25Z</time>
      </trkpt>
      <trkpt lat="43.34905" lon="2.40194">
        <ele>507.23</ele>
        <time>2015-11-02T08:38:26Z</time>
      </trkpt>
      <trkpt lat="43.34899" lon="2.4019">
        <ele>505.31</ele>
        <time>2015-11-02T08:38:32Z</time>
      </trkpt>
      <trkpt lat="43.34894" lon="2.40184">
        <ele>507.23</ele>
        <time>2015-11-02T08:38:38Z</time>
      </trkpt>
      <trkpt lat="43.34886" lon="2.40174">
        <ele>509.16</ele>
        <time>2015-11-02T08:38:50Z</time>
      </trkpt>
      <trkpt lat="43.34878" lon="2.40163">
        <ele>512.52</ele>
        <time>2015-11-02T08:39:02Z</time>
      </trkpt>
      <trkpt lat="43.34876" lon="2.40157">
        <ele>511.56</ele>
        <time>2015-11-02T08:39:07Z</time>
      </trkpt>
      <trkpt lat="43.34875" lon="2.40156">
        <ele>513</ele>
        <time>2015-11-02T08:39:08Z</time>
      </trkpt>
      <trkpt lat="43.34873" lon="2.40155">
        <ele>514.44</ele>
        <time>2015-11-02T08:39:10Z</time>
      </trkpt>
      <trkpt lat="43.34872" lon="2.40152">
        <ele>513</ele>
        <time>2015-11-02T08:39:12Z</time>
      </trkpt>
      <trkpt lat="43.3487" lon="2.4015">
        <ele>514.92</ele>
        <time>2015-11-02T08:39:15Z</time>
      </trkpt>
      <trkpt lat="43.34868" lon="2.40147">
        <ele>515.4</ele>
        <time>2015-11-02T08:39:18Z</time>
      </trkpt>
      <trkpt lat="43.34862" lon="2.4014">
        <ele>518.29</ele>
        <time>2015-11-02T08:39:28Z</time>
      </trkpt>
      <trkpt lat="43.34858" lon="2.4013">
        <ele>518.77</ele>
        <time>2015-11-02T08:39:39Z</time>
      </trkpt>
      <trkpt lat="43.34854" lon="2.40113">
        <ele>522.13</ele>
        <time>2015-11-02T08:39:53Z</time>
      </trkpt>
      <trkpt lat="43.34853" lon="2.40108">
        <ele>522.13</ele>
        <time>2015-11-02T08:39:57Z</time>
      </trkpt>
      <trkpt lat="43.34853" lon="2.40097">
        <ele>522.61</ele>
        <time>2015-11-02T08:40:06Z</time>
      </trkpt>
      <trkpt lat="43.34853" lon="2.40083">
        <ele>525.98</ele>
        <time>2015-11-02T08:40:17Z</time>
      </trkpt>
      <trkpt lat="43.34854" lon="2.40073">
        <ele>526.46</ele>
        <time>2015-11-02T08:40:30Z</time>
      </trkpt>
      <trkpt lat="43.34856" lon="2.4006">
        <ele>524.54</ele>
        <time>2015-11-02T08:40:40Z</time>
      </trkpt>
      <trkpt lat="43.34856" lon="2.40057">
        <ele>525.5</ele>
        <time>2015-11-02T08:40:42Z</time>
      </trkpt>
      <trkpt lat="43.34855" lon="2.40046">
        <ele>524.54</ele>
        <time>2015-11-02T08:40:49Z</time>
      </trkpt>
      <trkpt lat="43.34854" lon="2.40042">
        <ele>525.02</ele>
        <time>2015-11-02T08:40:52Z</time>
      </trkpt>
      <trkpt lat="43.34857" lon="2.40022">
        <ele>523.58</ele>
        <time>2015-11-02T08:41:03Z</time>
      </trkpt>
      <trkpt lat="43.34858" lon="2.40016">
        <ele>524.54</ele>
        <time>2015-11-02T08:41:07Z</time>
      </trkpt>
      <trkpt lat="43.34859" lon="2.40002">
        <ele>523.58</ele>
        <time>2015-11-02T08:41:19Z</time>
      </trkpt>
      <trkpt lat="43.3486" lon="2.39992">
        <ele>523.58</ele>
        <time>2015-11-02T08:41:27Z</time>
      </trkpt>
      <trkpt lat="43.34861" lon="2.39978">
        <ele>522.61</ele>
        <time>2015-11-02T08:41:37Z</time>
      </trkpt>
      <trkpt lat="43.34861" lon="2.39976">
        <ele>523.58</ele>
        <time>2015-11-02T08:41:38Z</time>
      </trkpt>
      <trkpt lat="43.34861" lon="2.39974">
        <ele>522.13</ele>
        <time>2015-11-02T08:41:40Z</time>
      </trkpt>
      <trkpt lat="43.34861" lon="2.39966">
        <ele>521.65</ele>
        <time>2015-11-02T08:41:48Z</time>
      </trkpt>
      <trkpt lat="43.34861" lon="2.39963">
        <ele>521.17</ele>
        <time>2015-11-02T08:41:50Z</time>
      </trkpt>
      <trkpt lat="43.34862" lon="2.39956">
        <ele>521.17</ele>
        <time>2015-11-02T08:41:54Z</time>
      </trkpt>
      <trkpt lat="43.34863" lon="2.3995">
        <ele>519.73</ele>
        <time>2015-11-02T08:41:57Z</time>
      </trkpt>
      <trkpt lat="43.34864" lon="2.3994">
        <ele>519.25</ele>
        <time>2015-11-02T08:42:06Z</time>
      </trkpt>
      <trkpt lat="43.34865" lon="2.39938">
        <ele>519.73</ele>
        <time>2015-11-02T08:42:08Z</time>
      </trkpt>
      <trkpt lat="43.34866" lon="2.39921">
        <ele>518.29</ele>
        <time>2015-11-02T08:42:18Z</time>
      </trkpt>
      <trkpt lat="43.34867" lon="2.39918">
        <ele>517.81</ele>
        <time>2015-11-02T08:42:23Z</time>
      </trkpt>
      <trkpt lat="43.34868" lon="2.39912">
        <ele>516.85</ele>
        <time>2015-11-02T08:42:28Z</time>
      </trkpt>
      <trkpt lat="43.3487" lon="2.39907">
        <ele>516.37</ele>
        <time>2015-11-02T08:42:31Z</time>
      </trkpt>
      <trkpt lat="43.34875" lon="2.3989">
        <ele>516.85</ele>
        <time>2015-11-02T08:42:40Z</time>
      </trkpt>
      <trkpt lat="43.34878" lon="2.39878">
        <ele>515.4</ele>
        <time>2015-11-02T08:42:47Z</time>
      </trkpt>
      <trkpt lat="43.34878" lon="2.39876">
        <ele>515.4</ele>
        <time>2015-11-02T08:42:49Z</time>
      </trkpt>
      <trkpt lat="43.34879" lon="2.39872">
        <ele>514.92</ele>
        <time>2015-11-02T08:42:52Z</time>
      </trkpt>
      <trkpt lat="43.34882" lon="2.39865">
        <ele>514.92</ele>
        <time>2015-11-02T08:42:56Z</time>
      </trkpt>
      <trkpt lat="43.34884" lon="2.39858">
        <ele>514.92</ele>
        <time>2015-11-02T08:43:01Z</time>
      </trkpt>
      <trkpt lat="43.34885" lon="2.39854">
        <ele>514.44</ele>
        <time>2015-11-02T08:43:04Z</time>
      </trkpt>
      <trkpt lat="43.34885" lon="2.39851">
        <ele>514.44</ele>
        <time>2015-11-02T08:43:07Z</time>
      </trkpt>
      <trkpt lat="43.34886" lon="2.39848">
        <ele>514.92</ele>
        <time>2015-11-02T08:43:10Z</time>
      </trkpt>
      <trkpt lat="43.34886" lon="2.39845">
        <ele>514.44</ele>
        <time>2015-11-02T08:43:12Z</time>
      </trkpt>
      <trkpt lat="43.34891" lon="2.39829">
        <ele>515.4</ele>
        <time>2015-11-02T08:43:22Z</time>
      </trkpt>
      <trkpt lat="43.34891" lon="2.39828">
        <ele>515.4</ele>
        <time>2015-11-02T08:43:23Z</time>
      </trkpt>
      <trkpt lat="43.34891" lon="2.39823">
        <ele>515.88</ele>
        <time>2015-11-02T08:43:28Z</time>
      </trkpt>
      <trkpt lat="43.34893" lon="2.39812">
        <ele>516.37</ele>
        <time>2015-11-02T08:43:41Z</time>
      </trkpt>
      <trkpt lat="43.34894" lon="2.39811">
        <ele>516.37</ele>
        <time>2015-11-02T08:43:43Z</time>
      </trkpt>
      <trkpt lat="43.34894" lon="2.39807">
        <ele>516.85</ele>
        <time>2015-11-02T08:43:46Z</time>
      </trkpt>
      <trkpt lat="43.34896" lon="2.39802">
        <ele>516.85</ele>
        <time>2015-11-02T08:43:50Z</time>
      </trkpt>
      <trkpt lat="43.34897" lon="2.39798">
        <ele>516.85</ele>
        <time>2015-11-02T08:43:53Z</time>
      </trkpt>
      <trkpt lat="43.34902" lon="2.39788">
        <ele>517.33</ele>
        <time>2015-11-02T08:44:01Z</time>
      </trkpt>
      <trkpt lat="43.34909" lon="2.39784">
        <ele>517.33</ele>
        <time>2015-11-02T08:44:15Z</time>
      </trkpt>
      <trkpt lat="43.3491" lon="2.39779">
        <ele>517.81</ele>
        <time>2015-11-02T08:44:29Z</time>
      </trkpt>
      <trkpt lat="43.34909" lon="2.39779">
        <ele>517.33</ele>
        <time>2015-11-02T08:44:33Z</time>
      </trkpt>
      <trkpt lat="43.34911" lon="2.39775">
        <ele>516.85</ele>
        <time>2015-11-02T08:44:46Z</time>
      </trkpt>
      <trkpt lat="43.34912" lon="2.39774">
        <ele>516.85</ele>
        <time>2015-11-02T08:45:14Z</time>
      </trkpt>
      <trkpt lat="43.34912" lon="2.39774">
        <ele>516.85</ele>
        <time>2015-11-02T08:45:31Z</time>
      </trkpt>
      <trkpt lat="43.34908" lon="2.3978">
        <ele>517.33</ele>
        <time>2015-11-02T08:45:42Z</time>
      </trkpt>
      <trkpt lat="43.34907" lon="2.39783">
        <ele>516.37</ele>
        <time>2015-11-02T08:45:50Z</time>
      </trkpt>
      <trkpt lat="43.34913" lon="2.39786">
        <ele>517.33</ele>
        <time>2015-11-02T08:46:00Z</time>
      </trkpt>
      <trkpt lat="43.34917" lon="2.39791">
        <ele>517.33</ele>
        <time>2015-11-02T08:46:10Z</time>
      </trkpt>
      <trkpt lat="43.3492" lon="2.39794">
        <ele>516.85</ele>
        <time>2015-11-02T08:46:13Z</time>
      </trkpt>
      <trkpt lat="43.34925" lon="2.39801">
        <ele>518.77</ele>
        <time>2015-11-02T08:46:20Z</time>
      </trkpt>
      <trkpt lat="43.34929" lon="2.39809">
        <ele>519.73</ele>
        <time>2015-11-02T08:46:24Z</time>
      </trkpt>
      <trkpt lat="43.34931" lon="2.39819">
        <ele>519.73</ele>
        <time>2015-11-02T08:46:37Z</time>
      </trkpt>
      <trkpt lat="43.34932" lon="2.39825">
        <ele>520.21</ele>
        <time>2015-11-02T08:46:48Z</time>
      </trkpt>
      <trkpt lat="43.34933" lon="2.39827">
        <ele>520.69</ele>
        <time>2015-11-02T08:47:03Z</time>
      </trkpt>
      <trkpt lat="43.34934" lon="2.3983">
        <ele>521.17</ele>
        <time>2015-11-02T08:47:06Z</time>
      </trkpt>
      <trkpt lat="43.34936" lon="2.39832">
        <ele>522.13</ele>
        <time>2015-11-02T08:47:08Z</time>
      </trkpt>
      <trkpt lat="43.34938" lon="2.39837">
        <ele>520.21</ele>
        <time>2015-11-02T08:47:13Z</time>
      </trkpt>
      <trkpt lat="43.34939" lon="2.39839">
        <ele>520.69</ele>
        <time>2015-11-02T08:47:20Z</time>
      </trkpt>
      <trkpt lat="43.34941" lon="2.39842">
        <ele>522.13</ele>
        <time>2015-11-02T08:47:24Z</time>
      </trkpt>
      <trkpt lat="43.3495" lon="2.39856">
        <ele>523.09</ele>
        <time>2015-11-02T08:47:37Z</time>
      </trkpt>
      <trkpt lat="43.34951" lon="2.39857">
        <ele>523.58</ele>
        <time>2015-11-02T08:47:39Z</time>
      </trkpt>
      <trkpt lat="43.34961" lon="2.39865">
        <ele>526.46</ele>
        <time>2015-11-02T08:47:50Z</time>
      </trkpt>
      <trkpt lat="43.34964" lon="2.39865">
        <ele>527.42</ele>
        <time>2015-11-02T08:47:53Z</time>
      </trkpt>
      <trkpt lat="43.34967" lon="2.39868">
        <ele>526.46</ele>
        <time>2015-11-02T08:47:57Z</time>
      </trkpt>
      <trkpt lat="43.34973" lon="2.39876">
        <ele>526.46</ele>
        <time>2015-11-02T08:48:11Z</time>
      </trkpt>
      <trkpt lat="43.34977" lon="2.39885">
        <ele>526.46</ele>
        <time>2015-11-02T08:48:17Z</time>
      </trkpt>
      <trkpt lat="43.34982" lon="2.39901">
        <ele>530.3</ele>
        <time>2015-11-02T08:48:28Z</time>
      </trkpt>
      <trkpt lat="43.34983" lon="2.39905">
        <ele>529.34</ele>
        <time>2015-11-02T08:48:31Z</time>
      </trkpt>
      <trkpt lat="43.34985" lon="2.39908">
        <ele>529.34</ele>
        <time>2015-11-02T08:48:33Z</time>
      </trkpt>
      <trkpt lat="43.34991" lon="2.3993">
        <ele>532.71</ele>
        <time>2015-11-02T08:48:48Z</time>
      </trkpt>
      <trkpt lat="43.34991" lon="2.39937">
        <ele>530.79</ele>
        <time>2015-11-02T08:48:52Z</time>
      </trkpt>
      <trkpt lat="43.34992" lon="2.39939">
        <ele>532.23</ele>
        <time>2015-11-02T08:48:54Z</time>
      </trkpt>
      <trkpt lat="43.34994" lon="2.39949">
        <ele>533.67</ele>
        <time>2015-11-02T08:49:00Z</time>
      </trkpt>
      <trkpt lat="43.35" lon="2.39969">
        <ele>535.59</ele>
        <time>2015-11-02T08:49:13Z</time>
      </trkpt>
      <trkpt lat="43.35003" lon="2.39975">
        <ele>536.55</ele>
        <time>2015-11-02T08:49:19Z</time>
      </trkpt>
      <trkpt lat="43.35005" lon="2.39978">
        <ele>534.63</ele>
        <time>2015-11-02T08:49:25Z</time>
      </trkpt>
      <trkpt lat="43.35006" lon="2.39979">
        <ele>531.75</ele>
        <time>2015-11-02T08:49:27Z</time>
      </trkpt>
      <trkpt lat="43.35006" lon="2.39979">
        <ele>536.07</ele>
        <time>2015-11-02T08:49:31Z</time>
      </trkpt>
      <trkpt lat="43.35006" lon="2.39979">
        <ele>537.03</ele>
        <time>2015-11-02T08:49:33Z</time>
      </trkpt>
      <trkpt lat="43.35009" lon="2.39983">
        <ele>537.03</ele>
        <time>2015-11-02T08:49:37Z</time>
      </trkpt>
      <trkpt lat="43.35013" lon="2.39986">
        <ele>537.99</ele>
        <time>2015-11-02T08:49:45Z</time>
      </trkpt>
      <trkpt lat="43.3502" lon="2.39989">
        <ele>539.44</ele>
        <time>2015-11-02T08:49:55Z</time>
      </trkpt>
      <trkpt lat="43.35022" lon="2.39992">
        <ele>538.48</ele>
        <time>2015-11-02T08:49:59Z</time>
      </trkpt>
      <trkpt lat="43.35023" lon="2.39993">
        <ele>537.99</ele>
        <time>2015-11-02T08:50:18Z</time>
      </trkpt>
      <trkpt lat="43.35024" lon="2.39993">
        <ele>537.99</ele>
        <time>2015-11-02T08:50:40Z</time>
      </trkpt>
      <trkpt lat="43.35025" lon="2.39994">
        <ele>537.99</ele>
        <time>2015-11-02T08:50:42Z</time>
      </trkpt>
      <trkpt lat="43.35028" lon="2.39996">
        <ele>538.96</ele>
        <time>2015-11-02T08:50:46Z</time>
      </trkpt>
      <trkpt lat="43.35034" lon="2.39998">
        <ele>539.44</ele>
        <time>2015-11-02T08:50:58Z</time>
      </trkpt>
      <trkpt lat="43.35034" lon="2.39998">
        <ele>540.88</ele>
        <time>2015-11-02T08:51:08Z</time>
      </trkpt>
      <trkpt lat="43.35035" lon="2.39998">
        <ele>541.84</ele>
        <time>2015-11-02T08:51:09Z</time>
      </trkpt>
      <trkpt lat="43.35036" lon="2.4">
        <ele>539.92</ele>
        <time>2015-11-02T08:51:11Z</time>
      </trkpt>
      <trkpt lat="43.3505" lon="2.40009">
        <ele>541.36</ele>
        <time>2015-11-02T08:51:25Z</time>
      </trkpt>
      <trkpt lat="43.35064" lon="2.40022">
        <ele>541.84</ele>
        <time>2015-11-02T08:51:40Z</time>
      </trkpt>
      <trkpt lat="43.35076" lon="2.40037">
        <ele>543.76</ele>
        <time>2015-11-02T08:51:54Z</time>
      </trkpt>
      <trkpt lat="43.35082" lon="2.40048">
        <ele>543.76</ele>
        <time>2015-11-02T08:52:05Z</time>
      </trkpt>
      <trkpt lat="43.35092" lon="2.40065">
        <ele>545.2</ele>
        <time>2015-11-02T08:52:20Z</time>
      </trkpt>
      <trkpt lat="43.35092" lon="2.40067">
        <ele>544.72</ele>
        <time>2015-11-02T08:52:30Z</time>
      </trkpt>
      <trkpt lat="43.35092" lon="2.40066">
        <ele>544.72</ele>
        <time>2015-11-02T08:52:32Z</time>
      </trkpt>
      <trkpt lat="43.35091" lon="2.40064">
        <ele>544.24</ele>
        <time>2015-11-02T08:52:34Z</time>
      </trkpt>
      <trkpt lat="43.35088" lon="2.40057">
        <ele>543.28</ele>
        <time>2015-11-02T08:52:42Z</time>
      </trkpt>
      <trkpt lat="43.35087" lon="2.40051">
        <ele>544.72</ele>
        <time>2015-11-02T08:52:53Z</time>
      </trkpt>
      <trkpt lat="43.35081" lon="2.40043">
        <ele>543.28</ele>
        <time>2015-11-02T08:53:00Z</time>
      </trkpt>
      <trkpt lat="43.35079" lon="2.40039">
        <ele>542.32</ele>
        <time>2015-11-02T08:53:03Z</time>
      </trkpt>
      <trkpt lat="43.35074" lon="2.40034">
        <ele>542.32</ele>
        <time>2015-11-02T08:53:08Z</time>
      </trkpt>
      <trkpt lat="43.3507" lon="2.40028">
        <ele>542.32</ele>
        <time>2015-11-02T08:53:13Z</time>
      </trkpt>
      <trkpt lat="43.35056" lon="2.40014">
        <ele>541.36</ele>
        <time>2015-11-02T08:53:28Z</time>
      </trkpt>
      <trkpt lat="43.35055" lon="2.40011">
        <ele>542.32</ele>
        <time>2015-11-02T08:53:44Z</time>
      </trkpt>
      <trkpt lat="43.35056" lon="2.40011">
        <ele>540.88</ele>
        <time>2015-11-02T08:53:59Z</time>
      </trkpt>
      <trkpt lat="43.35057" lon="2.40013">
        <ele>540.4</ele>
        <time>2015-11-02T08:54:01Z</time>
      </trkpt>
      <trkpt lat="43.35058" lon="2.40013">
        <ele>540.88</ele>
        <time>2015-11-02T08:54:02Z</time>
      </trkpt>
      <trkpt lat="43.35064" lon="2.40021">
        <ele>542.32</ele>
        <time>2015-11-02T08:54:09Z</time>
      </trkpt>
      <trkpt lat="43.35066" lon="2.40023">
        <ele>543.28</ele>
        <time>2015-11-02T08:54:11Z</time>
      </trkpt>
      <trkpt lat="43.35078" lon="2.40041">
        <ele>543.76</ele>
        <time>2015-11-02T08:54:25Z</time>
      </trkpt>
      <trkpt lat="43.35087" lon="2.40056">
        <ele>546.17</ele>
        <time>2015-11-02T08:54:37Z</time>
      </trkpt>
      <trkpt lat="43.35091" lon="2.40062">
        <ele>545.2</ele>
        <time>2015-11-02T08:54:42Z</time>
      </trkpt>
      <trkpt lat="43.35095" lon="2.40072">
        <ele>545.2</ele>
        <time>2015-11-02T08:54:48Z</time>
      </trkpt>
      <trkpt lat="43.35105" lon="2.4009">
        <ele>546.65</ele>
        <time>2015-11-02T08:55:01Z</time>
      </trkpt>
      <trkpt lat="43.35114" lon="2.40111">
        <ele>549.05</ele>
        <time>2015-11-02T08:55:16Z</time>
      </trkpt>
      <trkpt lat="43.35116" lon="2.40114">
        <ele>550.49</ele>
        <time>2015-11-02T08:55:29Z</time>
      </trkpt>
      <trkpt lat="43.35123" lon="2.40131">
        <ele>549.53</ele>
        <time>2015-11-02T08:55:41Z</time>
      </trkpt>
      <trkpt lat="43.35131" lon="2.40148">
        <ele>550.97</ele>
        <time>2015-11-02T08:55:53Z</time>
      </trkpt>
      <trkpt lat="43.35132" lon="2.40152">
        <ele>551.45</ele>
        <time>2015-11-02T08:55:55Z</time>
      </trkpt>
      <trkpt lat="43.35137" lon="2.40164">
        <ele>551.45</ele>
        <time>2015-11-02T08:56:04Z</time>
      </trkpt>
      <trkpt lat="43.35144" lon="2.40182">
        <ele>553.38</ele>
        <time>2015-11-02T08:56:17Z</time>
      </trkpt>
      <trkpt lat="43.3515" lon="2.40201">
        <ele>553.38</ele>
        <time>2015-11-02T08:56:30Z</time>
      </trkpt>
      <trkpt lat="43.35152" lon="2.40206">
        <ele>554.34</ele>
        <time>2015-11-02T08:56:33Z</time>
      </trkpt>
      <trkpt lat="43.35153" lon="2.40209">
        <ele>556.26</ele>
        <time>2015-11-02T08:56:36Z</time>
      </trkpt>
      <trkpt lat="43.35159" lon="2.40227">
        <ele>555.78</ele>
        <time>2015-11-02T08:56:50Z</time>
      </trkpt>
      <trkpt lat="43.35159" lon="2.40228">
        <ele>554.34</ele>
        <time>2015-11-02T08:56:51Z</time>
      </trkpt>
      <trkpt lat="43.3516" lon="2.40232">
        <ele>556.26</ele>
        <time>2015-11-02T08:56:54Z</time>
      </trkpt>
      <trkpt lat="43.35161" lon="2.40234">
        <ele>557.22</ele>
        <time>2015-11-02T08:56:56Z</time>
      </trkpt>
      <trkpt lat="43.35167" lon="2.40245">
        <ele>556.74</ele>
        <time>2015-11-02T08:57:05Z</time>
      </trkpt>
      <trkpt lat="43.35167" lon="2.40248">
        <ele>558.66</ele>
        <time>2015-11-02T08:57:07Z</time>
      </trkpt>
      <trkpt lat="43.35168" lon="2.40251">
        <ele>558.18</ele>
        <time>2015-11-02T08:57:10Z</time>
      </trkpt>
      <trkpt lat="43.35173" lon="2.40265">
        <ele>558.18</ele>
        <time>2015-11-02T08:57:22Z</time>
      </trkpt>
      <trkpt lat="43.35174" lon="2.40268">
        <ele>559.62</ele>
        <time>2015-11-02T08:57:36Z</time>
      </trkpt>
      <trkpt lat="43.35173" lon="2.4027">
        <ele>558.66</ele>
        <time>2015-11-02T08:57:38Z</time>
      </trkpt>
      <trkpt lat="43.35174" lon="2.40276">
        <ele>558.66</ele>
        <time>2015-11-02T08:57:42Z</time>
      </trkpt>
      <trkpt lat="43.35173" lon="2.4029">
        <ele>559.14</ele>
        <time>2015-11-02T08:57:51Z</time>
      </trkpt>
      <trkpt lat="43.35173" lon="2.40309">
        <ele>559.62</ele>
        <time>2015-11-02T08:58:04Z</time>
      </trkpt>
      <trkpt lat="43.35173" lon="2.40317">
        <ele>560.11</ele>
        <time>2015-11-02T08:58:15Z</time>
      </trkpt>
      <trkpt lat="43.35173" lon="2.40318">
        <ele>559.62</ele>
        <time>2015-11-02T08:58:32Z</time>
      </trkpt>
      <trkpt lat="43.35173" lon="2.40324">
        <ele>561.07</ele>
        <time>2015-11-02T08:58:49Z</time>
      </trkpt>
      <trkpt lat="43.35173" lon="2.40325">
        <ele>561.55</ele>
        <time>2015-11-02T08:58:50Z</time>
      </trkpt>
      <trkpt lat="43.35174" lon="2.40335">
        <ele>561.07</ele>
        <time>2015-11-02T08:59:03Z</time>
      </trkpt>
      <trkpt lat="43.35173" lon="2.40346">
        <ele>561.55</ele>
        <time>2015-11-02T08:59:16Z</time>
      </trkpt>
      <trkpt lat="43.35173" lon="2.40361">
        <ele>562.99</ele>
        <time>2015-11-02T08:59:32Z</time>
      </trkpt>
      <trkpt lat="43.35175" lon="2.40377">
        <ele>565.39</ele>
        <time>2015-11-02T08:59:47Z</time>
      </trkpt>
      <trkpt lat="43.3518" lon="2.40391">
        <ele>566.35</ele>
        <time>2015-11-02T09:00:00Z</time>
      </trkpt>
      <trkpt lat="43.35182" lon="2.40396">
        <ele>566.35</ele>
        <time>2015-11-02T09:00:06Z</time>
      </trkpt>
      <trkpt lat="43.35187" lon="2.40411">
        <ele>564.91</ele>
        <time>2015-11-02T09:00:21Z</time>
      </trkpt>
      <trkpt lat="43.35188" lon="2.40413">
        <ele>565.87</ele>
        <time>2015-11-02T09:00:23Z</time>
      </trkpt>
      <trkpt lat="43.35191" lon="2.4042">
        <ele>564.43</ele>
        <time>2015-11-02T09:00:29Z</time>
      </trkpt>
      <trkpt lat="43.35197" lon="2.40433">
        <ele>563.47</ele>
        <time>2015-11-02T09:00:44Z</time>
      </trkpt>
      <trkpt lat="43.35199" lon="2.40439">
        <ele>563.47</ele>
        <time>2015-11-02T09:00:59Z</time>
      </trkpt>
      <trkpt lat="43.35209" lon="2.40451">
        <ele>562.51</ele>
        <time>2015-11-02T09:01:12Z</time>
      </trkpt>
      <trkpt lat="43.35218" lon="2.40465">
        <ele>562.03</ele>
        <time>2015-11-02T09:01:24Z</time>
      </trkpt>
      <trkpt lat="43.35226" lon="2.40481">
        <ele>562.51</ele>
        <time>2015-11-02T09:01:37Z</time>
      </trkpt>
      <trkpt lat="43.35234" lon="2.40495">
        <ele>563.47</ele>
        <time>2015-11-02T09:01:49Z</time>
      </trkpt>
      <trkpt lat="43.35239" lon="2.40503">
        <ele>562.51</ele>
        <time>2015-11-02T09:01:56Z</time>
      </trkpt>
      <trkpt lat="43.35243" lon="2.40511">
        <ele>562.03</ele>
        <time>2015-11-02T09:02:03Z</time>
      </trkpt>
      <trkpt lat="43.35247" lon="2.40526">
        <ele>562.03</ele>
        <time>2015-11-02T09:02:16Z</time>
      </trkpt>
      <trkpt lat="43.35252" lon="2.40542">
        <ele>562.03</ele>
        <time>2015-11-02T09:02:29Z</time>
      </trkpt>
      <trkpt lat="43.35255" lon="2.40561">
        <ele>560.11</ele>
        <time>2015-11-02T09:02:43Z</time>
      </trkpt>
      <trkpt lat="43.35256" lon="2.4057">
        <ele>559.62</ele>
        <time>2015-11-02T09:02:49Z</time>
      </trkpt>
      <trkpt lat="43.35259" lon="2.40592">
        <ele>559.14</ele>
        <time>2015-11-02T09:03:03Z</time>
      </trkpt>
      <trkpt lat="43.3526" lon="2.40601">
        <ele>557.7</ele>
        <time>2015-11-02T09:03:11Z</time>
      </trkpt>
      <trkpt lat="43.35261" lon="2.40607">
        <ele>561.55</ele>
        <time>2015-11-02T09:03:16Z</time>
      </trkpt>
      <trkpt lat="43.35261" lon="2.40608">
        <ele>560.59</ele>
        <time>2015-11-02T09:03:17Z</time>
      </trkpt>
      <trkpt lat="43.35263" lon="2.40626">
        <ele>559.14</ele>
        <time>2015-11-02T09:03:29Z</time>
      </trkpt>
      <trkpt lat="43.35264" lon="2.40638">
        <ele>559.14</ele>
        <time>2015-11-02T09:03:37Z</time>
      </trkpt>
      <trkpt lat="43.35266" lon="2.40649">
        <ele>558.66</ele>
        <time>2015-11-02T09:03:44Z</time>
      </trkpt>
      <trkpt lat="43.35267" lon="2.40651">
        <ele>561.07</ele>
        <time>2015-11-02T09:03:46Z</time>
      </trkpt>
      <trkpt lat="43.35275" lon="2.4067">
        <ele>560.11</ele>
        <time>2015-11-02T09:04:01Z</time>
      </trkpt>
      <trkpt lat="43.35286" lon="2.40686">
        <ele>559.14</ele>
        <time>2015-11-02T09:04:16Z</time>
      </trkpt>
      <trkpt lat="43.35299" lon="2.40698">
        <ele>559.14</ele>
        <time>2015-11-02T09:04:31Z</time>
      </trkpt>
      <trkpt lat="43.3531" lon="2.40705">
        <ele>558.66</ele>
        <time>2015-11-02T09:04:43Z</time>
      </trkpt>
      <trkpt lat="43.35311" lon="2.40705">
        <ele>558.66</ele>
        <time>2015-11-02T09:04:44Z</time>
      </trkpt>
      <trkpt lat="43.35315" lon="2.40708">
        <ele>558.18</ele>
        <time>2015-11-02T09:04:56Z</time>
      </trkpt>
      <trkpt lat="43.35315" lon="2.40708">
        <ele>559.62</ele>
        <time>2015-11-02T09:05:05Z</time>
      </trkpt>
      <trkpt lat="43.35322" lon="2.40713">
        <ele>558.66</ele>
        <time>2015-11-02T09:05:17Z</time>
      </trkpt>
      <trkpt lat="43.35327" lon="2.40715">
        <ele>558.18</ele>
        <time>2015-11-02T09:05:22Z</time>
      </trkpt>
      <trkpt lat="43.35343" lon="2.40722">
        <ele>557.7</ele>
        <time>2015-11-02T09:05:37Z</time>
      </trkpt>
      <trkpt lat="43.35362" lon="2.40736">
        <ele>556.26</ele>
        <time>2015-11-02T09:05:55Z</time>
      </trkpt>
      <trkpt lat="43.35375" lon="2.40742">
        <ele>555.78</ele>
        <time>2015-11-02T09:06:06Z</time>
      </trkpt>
      <trkpt lat="43.35379" lon="2.40743">
        <ele>555.3</ele>
        <time>2015-11-02T09:06:09Z</time>
      </trkpt>
      <trkpt lat="43.35387" lon="2.40748">
        <ele>554.82</ele>
        <time>2015-11-02T09:06:22Z</time>
      </trkpt>
      <trkpt lat="43.35388" lon="2.40748">
        <ele>553.86</ele>
        <time>2015-11-02T09:06:28Z</time>
      </trkpt>
      <trkpt lat="43.35391" lon="2.40746">
        <ele>552.9</ele>
        <time>2015-11-02T09:06:32Z</time>
      </trkpt>
      <trkpt lat="43.35393" lon="2.40744">
        <ele>551.93</ele>
        <time>2015-11-02T09:06:35Z</time>
      </trkpt>
      <trkpt lat="43.35398" lon="2.40744">
        <ele>551.45</ele>
        <time>2015-11-02T09:06:48Z</time>
      </trkpt>
      <trkpt lat="43.354" lon="2.40744">
        <ele>551.45</ele>
        <time>2015-11-02T09:07:12Z</time>
      </trkpt>
      <trkpt lat="43.354" lon="2.40745">
        <ele>550.97</ele>
        <time>2015-11-02T09:07:36Z</time>
      </trkpt>
      <trkpt lat="43.35401" lon="2.40745">
        <ele>551.45</ele>
        <time>2015-11-02T09:07:48Z</time>
      </trkpt>
      <trkpt lat="43.35403" lon="2.40743">
        <ele>550.01</ele>
        <time>2015-11-02T09:08:13Z</time>
      </trkpt>
      <trkpt lat="43.35409" lon="2.40743">
        <ele>549.05</ele>
        <time>2015-11-02T09:08:24Z</time>
      </trkpt>
      <trkpt lat="43.3541" lon="2.40743">
        <ele>549.53</ele>
        <time>2015-11-02T09:08:25Z</time>
      </trkpt>
      <trkpt lat="43.35416" lon="2.40746">
        <ele>547.61</ele>
        <time>2015-11-02T09:08:33Z</time>
      </trkpt>
      <trkpt lat="43.35427" lon="2.40752">
        <ele>544.24</ele>
        <time>2015-11-02T09:08:45Z</time>
      </trkpt>
      <trkpt lat="43.35436" lon="2.40757">
        <ele>543.28</ele>
        <time>2015-11-02T09:08:57Z</time>
      </trkpt>
      <trkpt lat="43.35437" lon="2.40759">
        <ele>542.8</ele>
        <time>2015-11-02T09:09:11Z</time>
      </trkpt>
      <trkpt lat="43.35446" lon="2.40764">
        <ele>542.8</ele>
        <time>2015-11-02T09:09:23Z</time>
      </trkpt>
      <trkpt lat="43.35453" lon="2.40766">
        <ele>542.32</ele>
        <time>2015-11-02T09:09:30Z</time>
      </trkpt>
      <trkpt lat="43.35456" lon="2.40765">
        <ele>541.84</ele>
        <time>2015-11-02T09:09:33Z</time>
      </trkpt>
      <trkpt lat="43.35468" lon="2.40764">
        <ele>539.92</ele>
        <time>2015-11-02T09:09:46Z</time>
      </trkpt>
      <trkpt lat="43.35475" lon="2.40764">
        <ele>537.03</ele>
        <time>2015-11-02T09:09:56Z</time>
      </trkpt>
      <trkpt lat="43.35476" lon="2.40764">
        <ele>536.55</ele>
        <time>2015-11-02T09:09:57Z</time>
      </trkpt>
      <trkpt lat="43.35488" lon="2.40769">
        <ele>536.07</ele>
        <time>2015-11-02T09:10:10Z</time>
      </trkpt>
      <trkpt lat="43.35489" lon="2.40769">
        <ele>535.59</ele>
        <time>2015-11-02T09:10:11Z</time>
      </trkpt>
      <trkpt lat="43.35502" lon="2.40775">
        <ele>534.15</ele>
        <time>2015-11-02T09:10:24Z</time>
      </trkpt>
      <trkpt lat="43.35503" lon="2.40775">
        <ele>533.67</ele>
        <time>2015-11-02T09:10:25Z</time>
      </trkpt>
      <trkpt lat="43.35513" lon="2.40777">
        <ele>533.19</ele>
        <time>2015-11-02T09:10:35Z</time>
      </trkpt>
      <trkpt lat="43.35517" lon="2.40781">
        <ele>531.27</ele>
        <time>2015-11-02T09:10:39Z</time>
      </trkpt>
      <trkpt lat="43.3552" lon="2.40782">
        <ele>534.63</ele>
        <time>2015-11-02T09:10:42Z</time>
      </trkpt>
      <trkpt lat="43.35525" lon="2.40784">
        <ele>530.79</ele>
        <time>2015-11-02T09:10:46Z</time>
      </trkpt>
      <trkpt lat="43.35527" lon="2.40783">
        <ele>530.3</ele>
        <time>2015-11-02T09:10:47Z</time>
      </trkpt>
      <trkpt lat="43.35536" lon="2.40783">
        <ele>530.3</ele>
        <time>2015-11-02T09:10:58Z</time>
      </trkpt>
      <trkpt lat="43.3554" lon="2.40785">
        <ele>530.79</ele>
        <time>2015-11-02T09:11:02Z</time>
      </trkpt>
      <trkpt lat="43.35546" lon="2.40785">
        <ele>529.82</ele>
        <time>2015-11-02T09:11:08Z</time>
      </trkpt>
      <trkpt lat="43.35546" lon="2.4079">
        <ele>529.82</ele>
        <time>2015-11-02T09:11:11Z</time>
      </trkpt>
      <trkpt lat="43.35545" lon="2.40802">
        <ele>531.75</ele>
        <time>2015-11-02T09:11:21Z</time>
      </trkpt>
      <trkpt lat="43.35543" lon="2.40804">
        <ele>531.27</ele>
        <time>2015-11-02T09:11:24Z</time>
      </trkpt>
      <trkpt lat="43.35538" lon="2.40818">
        <ele>533.67</ele>
        <time>2015-11-02T09:11:38Z</time>
      </trkpt>
      <trkpt lat="43.35537" lon="2.40819">
        <ele>534.63</ele>
        <time>2015-11-02T09:11:41Z</time>
      </trkpt>
      <trkpt lat="43.35532" lon="2.40825">
        <ele>536.07</ele>
        <time>2015-11-02T09:11:47Z</time>
      </trkpt>
      <trkpt lat="43.35528" lon="2.40829">
        <ele>536.07</ele>
        <time>2015-11-02T09:11:52Z</time>
      </trkpt>
      <trkpt lat="43.35515" lon="2.40844">
        <ele>534.63</ele>
        <time>2015-11-02T09:12:07Z</time>
      </trkpt>
      <trkpt lat="43.35511" lon="2.40846">
        <ele>533.67</ele>
        <time>2015-11-02T09:12:10Z</time>
      </trkpt>
      <trkpt lat="43.35496" lon="2.40856">
        <ele>535.11</ele>
        <time>2015-11-02T09:12:25Z</time>
      </trkpt>
      <trkpt lat="43.35492" lon="2.4086">
        <ele>535.11</ele>
        <time>2015-11-02T09:12:30Z</time>
      </trkpt>
      <trkpt lat="43.35481" lon="2.40875">
        <ele>533.67</ele>
        <time>2015-11-02T09:12:44Z</time>
      </trkpt>
      <trkpt lat="43.35475" lon="2.40886">
        <ele>533.19</ele>
        <time>2015-11-02T09:12:52Z</time>
      </trkpt>
      <trkpt lat="43.35466" lon="2.40897">
        <ele>532.71</ele>
        <time>2015-11-02T09:13:04Z</time>
      </trkpt>
      <trkpt lat="43.35455" lon="2.40913">
        <ele>531.75</ele>
        <time>2015-11-02T09:13:19Z</time>
      </trkpt>
      <trkpt lat="43.35451" lon="2.40918">
        <ele>531.75</ele>
        <time>2015-11-02T09:13:30Z</time>
      </trkpt>
      <trkpt lat="43.35442" lon="2.40931">
        <ele>531.27</ele>
        <time>2015-11-02T09:13:51Z</time>
      </trkpt>
      <trkpt lat="43.3543" lon="2.40945">
        <ele>530.79</ele>
        <time>2015-11-02T09:14:03Z</time>
      </trkpt>
      <trkpt lat="43.35419" lon="2.40964">
        <ele>532.71</ele>
        <time>2015-11-02T09:14:17Z</time>
      </trkpt>
      <trkpt lat="43.35408" lon="2.40981">
        <ele>532.23</ele>
        <time>2015-11-02T09:14:32Z</time>
      </trkpt>
      <trkpt lat="43.35399" lon="2.40996">
        <ele>535.59</ele>
        <time>2015-11-02T09:14:46Z</time>
      </trkpt>
      <trkpt lat="43.35391" lon="2.41014">
        <ele>535.11</ele>
        <time>2015-11-02T09:15:01Z</time>
      </trkpt>
      <trkpt lat="43.35388" lon="2.41024">
        <ele>536.07</ele>
        <time>2015-11-02T09:15:12Z</time>
      </trkpt>
      <trkpt lat="43.35387" lon="2.41027">
        <ele>536.07</ele>
        <time>2015-11-02T09:15:14Z</time>
      </trkpt>
      <trkpt lat="43.35384" lon="2.41039">
        <ele>537.99</ele>
        <time>2015-11-02T09:15:26Z</time>
      </trkpt>
      <trkpt lat="43.35384" lon="2.41039">
        <ele>537.99</ele>
        <time>2015-11-02T09:15:27Z</time>
      </trkpt>
      <trkpt lat="43.3538" lon="2.41053">
        <ele>538.48</ele>
        <time>2015-11-02T09:15:39Z</time>
      </trkpt>
      <trkpt lat="43.35382" lon="2.4106">
        <ele>537.03</ele>
        <time>2015-11-02T09:15:47Z</time>
      </trkpt>
      <trkpt lat="43.35384" lon="2.41065">
        <ele>536.55</ele>
        <time>2015-11-02T09:16:00Z</time>
      </trkpt>
      <trkpt lat="43.35385" lon="2.41067">
        <ele>537.51</ele>
        <time>2015-11-02T09:16:11Z</time>
      </trkpt>
      <trkpt lat="43.35382" lon="2.41072">
        <ele>538.96</ele>
        <time>2015-11-02T09:16:28Z</time>
      </trkpt>
      <trkpt lat="43.35382" lon="2.41074">
        <ele>537.51</ele>
        <time>2015-11-02T09:16:43Z</time>
      </trkpt>
      <trkpt lat="43.35382" lon="2.41074">
        <ele>537.99</ele>
        <time>2015-11-02T09:16:57Z</time>
      </trkpt>
      <trkpt lat="43.35382" lon="2.41074">
        <ele>537.99</ele>
        <time>2015-11-02T09:17:18Z</time>
      </trkpt>
      <trkpt lat="43.35382" lon="2.41076">
        <ele>540.4</ele>
        <time>2015-11-02T09:17:38Z</time>
      </trkpt>
      <trkpt lat="43.35382" lon="2.41076">
        <ele>540.4</ele>
        <time>2015-11-02T09:18:02Z</time>
      </trkpt>
      <trkpt lat="43.35382" lon="2.41076">
        <ele>538.96</ele>
        <time>2015-11-02T09:18:22Z</time>
      </trkpt>
      <trkpt lat="43.35382" lon="2.41076">
        <ele>540.88</ele>
        <time>2015-11-02T09:18:37Z</time>
      </trkpt>
      <trkpt lat="43.35382" lon="2.41076">
        <ele>539.44</ele>
        <time>2015-11-02T09:18:41Z</time>
      </trkpt>
      <trkpt lat="43.35383" lon="2.41076">
        <ele>539.44</ele>
        <time>2015-11-02T09:19:05Z</time>
      </trkpt>
      <trkpt lat="43.35383" lon="2.41076">
        <ele>538.96</ele>
        <time>2015-11-02T09:19:30Z</time>
      </trkpt>
      <trkpt lat="43.35383" lon="2.41076">
        <ele>538.96</ele>
        <time>2015-11-02T09:19:51Z</time>
      </trkpt>
      <trkpt lat="43.35383" lon="2.41078">
        <ele>538.48</ele>
        <time>2015-11-02T09:20:10Z</time>
      </trkpt>
      <trkpt lat="43.35382" lon="2.41079">
        <ele>538.96</ele>
        <time>2015-11-02T09:20:30Z</time>
      </trkpt>
      <trkpt lat="43.35382" lon="2.41079">
        <ele>539.92</ele>
        <time>2015-11-02T09:20:47Z</time>
      </trkpt>
      <trkpt lat="43.35383" lon="2.41079">
        <ele>539.44</ele>
        <time>2015-11-02T09:21:03Z</time>
      </trkpt>
      <trkpt lat="43.35383" lon="2.41094">
        <ele>537.99</ele>
        <time>2015-11-02T09:21:18Z</time>
      </trkpt>
      <trkpt lat="43.35383" lon="2.41097">
        <ele>537.03</ele>
        <time>2015-11-02T09:21:21Z</time>
      </trkpt>
      <trkpt lat="43.35386" lon="2.4111">
        <ele>534.15</ele>
        <time>2015-11-02T09:21:30Z</time>
      </trkpt>
      <trkpt lat="43.35387" lon="2.41115">
        <ele>532.23</ele>
        <time>2015-11-02T09:21:34Z</time>
      </trkpt>
      <trkpt lat="43.35392" lon="2.41126">
        <ele>532.23</ele>
        <time>2015-11-02T09:21:52Z</time>
      </trkpt>
      <trkpt lat="43.35405" lon="2.41142">
        <ele>535.11</ele>
        <time>2015-11-02T09:22:05Z</time>
      </trkpt>
      <trkpt lat="43.35407" lon="2.41143">
        <ele>534.15</ele>
        <time>2015-11-02T09:22:07Z</time>
      </trkpt>
      <trkpt lat="43.35411" lon="2.41144">
        <ele>532.23</ele>
        <time>2015-11-02T09:22:10Z</time>
      </trkpt>
      <trkpt lat="43.35412" lon="2.41145">
        <ele>531.75</ele>
        <time>2015-11-02T09:22:11Z</time>
      </trkpt>
      <trkpt lat="43.35428" lon="2.41153">
        <ele>531.27</ele>
        <time>2015-11-02T09:22:25Z</time>
      </trkpt>
      <trkpt lat="43.35432" lon="2.41155">
        <ele>529.82</ele>
        <time>2015-11-02T09:22:28Z</time>
      </trkpt>
      <trkpt lat="43.35433" lon="2.41158">
        <ele>529.82</ele>
        <time>2015-11-02T09:22:30Z</time>
      </trkpt>
      <trkpt lat="43.35437" lon="2.41164">
        <ele>528.38</ele>
        <time>2015-11-02T09:22:34Z</time>
      </trkpt>
      <trkpt lat="43.35449" lon="2.41173">
        <ele>525.02</ele>
        <time>2015-11-02T09:22:44Z</time>
      </trkpt>
      <trkpt lat="43.3545" lon="2.41173">
        <ele>524.54</ele>
        <time>2015-11-02T09:22:45Z</time>
      </trkpt>
      <trkpt lat="43.35452" lon="2.41175">
        <ele>523.58</ele>
        <time>2015-11-02T09:22:47Z</time>
      </trkpt>
      <trkpt lat="43.35464" lon="2.41194">
        <ele>522.61</ele>
        <time>2015-11-02T09:23:02Z</time>
      </trkpt>
      <trkpt lat="43.35474" lon="2.41203">
        <ele>521.65</ele>
        <time>2015-11-02T09:23:15Z</time>
      </trkpt>
      <trkpt lat="43.35477" lon="2.41208">
        <ele>522.61</ele>
        <time>2015-11-02T09:23:22Z</time>
      </trkpt>
      <trkpt lat="43.35479" lon="2.41224">
        <ele>522.61</ele>
        <time>2015-11-02T09:23:30Z</time>
      </trkpt>
      <trkpt lat="43.35474" lon="2.41239">
        <ele>523.09</ele>
        <time>2015-11-02T09:23:40Z</time>
      </trkpt>
      <trkpt lat="43.35467" lon="2.41257">
        <ele>525.98</ele>
        <time>2015-11-02T09:23:53Z</time>
      </trkpt>
      <trkpt lat="43.35462" lon="2.41275">
        <ele>528.38</ele>
        <time>2015-11-02T09:24:07Z</time>
      </trkpt>
      <trkpt lat="43.35462" lon="2.41276">
        <ele>528.86</ele>
        <time>2015-11-02T09:24:09Z</time>
      </trkpt>
      <trkpt lat="43.35461" lon="2.41287">
        <ele>529.34</ele>
        <time>2015-11-02T09:24:18Z</time>
      </trkpt>
      <trkpt lat="43.35464" lon="2.41304">
        <ele>532.23</ele>
        <time>2015-11-02T09:24:31Z</time>
      </trkpt>
      <trkpt lat="43.35469" lon="2.41321">
        <ele>534.15</ele>
        <time>2015-11-02T09:24:45Z</time>
      </trkpt>
      <trkpt lat="43.35477" lon="2.41336">
        <ele>536.07</ele>
        <time>2015-11-02T09:24:57Z</time>
      </trkpt>
      <trkpt lat="43.35479" lon="2.41339">
        <ele>535.59</ele>
        <time>2015-11-02T09:25:00Z</time>
      </trkpt>
      <trkpt lat="43.35488" lon="2.41357">
        <ele>537.51</ele>
        <time>2015-11-02T09:25:14Z</time>
      </trkpt>
      <trkpt lat="43.35496" lon="2.4137">
        <ele>540.88</ele>
        <time>2015-11-02T09:25:27Z</time>
      </trkpt>
      <trkpt lat="43.355" lon="2.41373">
        <ele>542.8</ele>
        <time>2015-11-02T09:25:31Z</time>
      </trkpt>
      <trkpt lat="43.35504" lon="2.41379">
        <ele>543.76</ele>
        <time>2015-11-02T09:25:36Z</time>
      </trkpt>
      <trkpt lat="43.35505" lon="2.4138">
        <ele>542.32</ele>
        <time>2015-11-02T09:25:37Z</time>
      </trkpt>
      <trkpt lat="43.35515" lon="2.41394">
        <ele>537.99</ele>
        <time>2015-11-02T09:25:49Z</time>
      </trkpt>
      <trkpt lat="43.35522" lon="2.41404">
        <ele>538.48</ele>
        <time>2015-11-02T09:25:58Z</time>
      </trkpt>
      <trkpt lat="43.35529" lon="2.41414">
        <ele>538.48</ele>
        <time>2015-11-02T09:26:11Z</time>
      </trkpt>
      <trkpt lat="43.35535" lon="2.41422">
        <ele>540.4</ele>
        <time>2015-11-02T09:26:19Z</time>
      </trkpt>
      <trkpt lat="43.35545" lon="2.41436">
        <ele>541.36</ele>
        <time>2015-11-02T09:26:33Z</time>
      </trkpt>
      <trkpt lat="43.35552" lon="2.41448">
        <ele>540.4</ele>
        <time>2015-11-02T09:26:45Z</time>
      </trkpt>
      <trkpt lat="43.35553" lon="2.41453">
        <ele>543.28</ele>
        <time>2015-11-02T09:26:52Z</time>
      </trkpt>
      <trkpt lat="43.35561" lon="2.41462">
        <ele>540.88</ele>
        <time>2015-11-02T09:27:04Z</time>
      </trkpt>
      <trkpt lat="43.35566" lon="2.41468">
        <ele>542.8</ele>
        <time>2015-11-02T09:27:14Z</time>
      </trkpt>
      <trkpt lat="43.35573" lon="2.41475">
        <ele>543.76</ele>
        <time>2015-11-02T09:27:25Z</time>
      </trkpt>
      <trkpt lat="43.35574" lon="2.41477">
        <ele>545.2</ele>
        <time>2015-11-02T09:27:27Z</time>
      </trkpt>
      <trkpt lat="43.35575" lon="2.41477">
        <ele>546.17</ele>
        <time>2015-11-02T09:27:29Z</time>
      </trkpt>
      <trkpt lat="43.35583" lon="2.41493">
        <ele>547.61</ele>
        <time>2015-11-02T09:27:41Z</time>
      </trkpt>
      <trkpt lat="43.35589" lon="2.41511">
        <ele>547.13</ele>
        <time>2015-11-02T09:27:52Z</time>
      </trkpt>
      <trkpt lat="43.35591" lon="2.41516">
        <ele>550.01</ele>
        <time>2015-11-02T09:28:05Z</time>
      </trkpt>
      <trkpt lat="43.35591" lon="2.41517">
        <ele>551.45</ele>
        <time>2015-11-02T09:28:07Z</time>
      </trkpt>
      <trkpt lat="43.35593" lon="2.41523">
        <ele>550.01</ele>
        <time>2015-11-02T09:28:12Z</time>
      </trkpt>
      <trkpt lat="43.35599" lon="2.41537">
        <ele>551.45</ele>
        <time>2015-11-02T09:28:23Z</time>
      </trkpt>
      <trkpt lat="43.35599" lon="2.41539">
        <ele>551.45</ele>
        <time>2015-11-02T09:28:24Z</time>
      </trkpt>
      <trkpt lat="43.35602" lon="2.41546">
        <ele>550.97</ele>
        <time>2015-11-02T09:28:37Z</time>
      </trkpt>
      <trkpt lat="43.3561" lon="2.4156">
        <ele>554.34</ele>
        <time>2015-11-02T09:28:53Z</time>
      </trkpt>
      <trkpt lat="43.35613" lon="2.41568">
        <ele>557.22</ele>
        <time>2015-11-02T09:29:00Z</time>
      </trkpt>
      <trkpt lat="43.35619" lon="2.41581">
        <ele>557.22</ele>
        <time>2015-11-02T09:29:12Z</time>
      </trkpt>
      <trkpt lat="43.35619" lon="2.41581">
        <ele>557.7</ele>
        <time>2015-11-02T09:29:13Z</time>
      </trkpt>
      <trkpt lat="43.35619" lon="2.41583">
        <ele>560.11</ele>
        <time>2015-11-02T09:29:19Z</time>
      </trkpt>
      <trkpt lat="43.35624" lon="2.41593">
        <ele>561.55</ele>
        <time>2015-11-02T09:29:31Z</time>
      </trkpt>
      <trkpt lat="43.3563" lon="2.41601">
        <ele>562.03</ele>
        <time>2015-11-02T09:29:42Z</time>
      </trkpt>
      <trkpt lat="43.3563" lon="2.41604">
        <ele>562.99</ele>
        <time>2015-11-02T09:29:44Z</time>
      </trkpt>
      <trkpt lat="43.35634" lon="2.41609">
        <ele>566.35</ele>
        <time>2015-11-02T09:29:50Z</time>
      </trkpt>
      <trkpt lat="43.35634" lon="2.4161">
        <ele>566.83</ele>
        <time>2015-11-02T09:29:52Z</time>
      </trkpt>
      <trkpt lat="43.35639" lon="2.41622">
        <ele>568.76</ele>
        <time>2015-11-02T09:30:04Z</time>
      </trkpt>
      <trkpt lat="43.35643" lon="2.41632">
        <ele>570.68</ele>
        <time>2015-11-02T09:30:14Z</time>
      </trkpt>
      <trkpt lat="43.35649" lon="2.41645">
        <ele>571.64</ele>
        <time>2015-11-02T09:30:26Z</time>
      </trkpt>
      <trkpt lat="43.35654" lon="2.41656">
        <ele>572.12</ele>
        <time>2015-11-02T09:30:39Z</time>
      </trkpt>
      <trkpt lat="43.35657" lon="2.41661">
        <ele>575.01</ele>
        <time>2015-11-02T09:30:45Z</time>
      </trkpt>
      <trkpt lat="43.35661" lon="2.41667">
        <ele>573.56</ele>
        <time>2015-11-02T09:30:54Z</time>
      </trkpt>
      <trkpt lat="43.35661" lon="2.41668">
        <ele>571.64</ele>
        <time>2015-11-02T09:30:56Z</time>
      </trkpt>
      <trkpt lat="43.35662" lon="2.41669">
        <ele>572.6</ele>
        <time>2015-11-02T09:30:58Z</time>
      </trkpt>
      <trkpt lat="43.35664" lon="2.41674">
        <ele>575.97</ele>
        <time>2015-11-02T09:31:10Z</time>
      </trkpt>
      <trkpt lat="43.35665" lon="2.41675">
        <ele>576.45</ele>
        <time>2015-11-02T09:31:11Z</time>
      </trkpt>
      <trkpt lat="43.35665" lon="2.41676">
        <ele>578.37</ele>
        <time>2015-11-02T09:31:13Z</time>
      </trkpt>
      <trkpt lat="43.35666" lon="2.41678">
        <ele>577.41</ele>
        <time>2015-11-02T09:31:15Z</time>
      </trkpt>
      <trkpt lat="43.35673" lon="2.41688">
        <ele>578.85</ele>
        <time>2015-11-02T09:31:27Z</time>
      </trkpt>
      <trkpt lat="43.35677" lon="2.41694">
        <ele>579.33</ele>
        <time>2015-11-02T09:31:34Z</time>
      </trkpt>
      <trkpt lat="43.35687" lon="2.41706">
        <ele>580.77</ele>
        <time>2015-11-02T09:31:45Z</time>
      </trkpt>
      <trkpt lat="43.35696" lon="2.4172">
        <ele>580.29</ele>
        <time>2015-11-02T09:31:59Z</time>
      </trkpt>
      <trkpt lat="43.35702" lon="2.41728">
        <ele>579.81</ele>
        <time>2015-11-02T09:32:12Z</time>
      </trkpt>
      <trkpt lat="43.35705" lon="2.41732">
        <ele>583.18</ele>
        <time>2015-11-02T09:32:21Z</time>
      </trkpt>
      <trkpt lat="43.35706" lon="2.41733">
        <ele>583.66</ele>
        <time>2015-11-02T09:32:22Z</time>
      </trkpt>
      <trkpt lat="43.35708" lon="2.41733">
        <ele>583.18</ele>
        <time>2015-11-02T09:32:24Z</time>
      </trkpt>
      <trkpt lat="43.3571" lon="2.41735">
        <ele>585.58</ele>
        <time>2015-11-02T09:32:27Z</time>
      </trkpt>
      <trkpt lat="43.35712" lon="2.41736">
        <ele>585.1</ele>
        <time>2015-11-02T09:32:29Z</time>
      </trkpt>
      <trkpt lat="43.35715" lon="2.4174">
        <ele>584.14</ele>
        <time>2015-11-02T09:32:32Z</time>
      </trkpt>
      <trkpt lat="43.3572" lon="2.41744">
        <ele>586.54</ele>
        <time>2015-11-02T09:32:38Z</time>
      </trkpt>
      <trkpt lat="43.35724" lon="2.41746">
        <ele>584.62</ele>
        <time>2015-11-02T09:32:42Z</time>
      </trkpt>
      <trkpt lat="43.35727" lon="2.41747">
        <ele>585.58</ele>
        <time>2015-11-02T09:32:46Z</time>
      </trkpt>
      <trkpt lat="43.35729" lon="2.41748">
        <ele>584.62</ele>
        <time>2015-11-02T09:32:48Z</time>
      </trkpt>
      <trkpt lat="43.35733" lon="2.41751">
        <ele>585.1</ele>
        <time>2015-11-02T09:32:52Z</time>
      </trkpt>
      <trkpt lat="43.35736" lon="2.41755">
        <ele>587.5</ele>
        <time>2015-11-02T09:32:55Z</time>
      </trkpt>
      <trkpt lat="43.35748" lon="2.41764">
        <ele>584.62</ele>
        <time>2015-11-02T09:33:10Z</time>
      </trkpt>
      <trkpt lat="43.35753" lon="2.41768">
        <ele>587.02</ele>
        <time>2015-11-02T09:33:22Z</time>
      </trkpt>
      <trkpt lat="43.35756" lon="2.4177">
        <ele>588.46</ele>
        <time>2015-11-02T09:33:25Z</time>
      </trkpt>
      <trkpt lat="43.35767" lon="2.41778">
        <ele>587.02</ele>
        <time>2015-11-02T09:33:38Z</time>
      </trkpt>
      <trkpt lat="43.35773" lon="2.41783">
        <ele>587.98</ele>
        <time>2015-11-02T09:33:46Z</time>
      </trkpt>
      <trkpt lat="43.35773" lon="2.41783">
        <ele>588.46</ele>
        <time>2015-11-02T09:33:48Z</time>
      </trkpt>
      <trkpt lat="43.35774" lon="2.41784">
        <ele>588.46</ele>
        <time>2015-11-02T09:34:03Z</time>
      </trkpt>
      <trkpt lat="43.35777" lon="2.41785">
        <ele>588.46</ele>
        <time>2015-11-02T09:34:19Z</time>
      </trkpt>
      <trkpt lat="43.35783" lon="2.41789">
        <ele>587.02</ele>
        <time>2015-11-02T09:34:33Z</time>
      </trkpt>
      <trkpt lat="43.35786" lon="2.41791">
        <ele>588.46</ele>
        <time>2015-11-02T09:34:53Z</time>
      </trkpt>
      <trkpt lat="43.35786" lon="2.41791">
        <ele>587.5</ele>
        <time>2015-11-02T09:35:16Z</time>
      </trkpt>
      <trkpt lat="43.35786" lon="2.4179">
        <ele>588.95</ele>
        <time>2015-11-02T09:35:41Z</time>
      </trkpt>
      <trkpt lat="43.35788" lon="2.41792">
        <ele>588.95</ele>
        <time>2015-11-02T09:35:56Z</time>
      </trkpt>
      <trkpt lat="43.35792" lon="2.41797">
        <ele>588.46</ele>
        <time>2015-11-02T09:36:05Z</time>
      </trkpt>
      <trkpt lat="43.35798" lon="2.41802">
        <ele>590.39</ele>
        <time>2015-11-02T09:36:11Z</time>
      </trkpt>
      <trkpt lat="43.35802" lon="2.41807">
        <ele>590.39</ele>
        <time>2015-11-02T09:36:15Z</time>
      </trkpt>
      <trkpt lat="43.35805" lon="2.4181">
        <ele>589.43</ele>
        <time>2015-11-02T09:36:18Z</time>
      </trkpt>
      <trkpt lat="43.35809" lon="2.41812">
        <ele>589.43</ele>
        <time>2015-11-02T09:36:22Z</time>
      </trkpt>
      <trkpt lat="43.35811" lon="2.41814">
        <ele>590.39</ele>
        <time>2015-11-02T09:36:24Z</time>
      </trkpt>
      <trkpt lat="43.35826" lon="2.41818">
        <ele>592.31</ele>
        <time>2015-11-02T09:36:39Z</time>
      </trkpt>
      <trkpt lat="43.35828" lon="2.41819">
        <ele>592.31</ele>
        <time>2015-11-02T09:36:41Z</time>
      </trkpt>
      <trkpt lat="43.35833" lon="2.41825">
        <ele>592.31</ele>
        <time>2015-11-02T09:36:47Z</time>
      </trkpt>
      <trkpt lat="43.35839" lon="2.4184">
        <ele>591.83</ele>
        <time>2015-11-02T09:36:58Z</time>
      </trkpt>
      <trkpt lat="43.35846" lon="2.41845">
        <ele>590.87</ele>
        <time>2015-11-02T09:37:04Z</time>
      </trkpt>
      <trkpt lat="43.35851" lon="2.41849">
        <ele>592.79</ele>
        <time>2015-11-02T09:37:10Z</time>
      </trkpt>
      <trkpt lat="43.35865" lon="2.41854">
        <ele>592.79</ele>
        <time>2015-11-02T09:37:23Z</time>
      </trkpt>
      <trkpt lat="43.35875" lon="2.4186">
        <ele>596.15</ele>
        <time>2015-11-02T09:37:34Z</time>
      </trkpt>
      <trkpt lat="43.35884" lon="2.4186">
        <ele>598.08</ele>
        <time>2015-11-02T09:37:43Z</time>
      </trkpt>
      <trkpt lat="43.35895" lon="2.41864">
        <ele>598.56</ele>
        <time>2015-11-02T09:37:53Z</time>
      </trkpt>
      <trkpt lat="43.35904" lon="2.41871">
        <ele>599.52</ele>
        <time>2015-11-02T09:38:05Z</time>
      </trkpt>
      <trkpt lat="43.35908" lon="2.41873">
        <ele>601.44</ele>
        <time>2015-11-02T09:38:09Z</time>
      </trkpt>
      <trkpt lat="43.35914" lon="2.41877">
        <ele>604.81</ele>
        <time>2015-11-02T09:38:16Z</time>
      </trkpt>
      <trkpt lat="43.35916" lon="2.41877">
        <ele>607.21</ele>
        <time>2015-11-02T09:38:19Z</time>
      </trkpt>
      <trkpt lat="43.3592" lon="2.41882">
        <ele>603.85</ele>
        <time>2015-11-02T09:38:24Z</time>
      </trkpt>
      <trkpt lat="43.35921" lon="2.41882">
        <ele>604.33</ele>
        <time>2015-11-02T09:38:25Z</time>
      </trkpt>
      <trkpt lat="43.35926" lon="2.41885">
        <ele>607.21</ele>
        <time>2015-11-02T09:38:30Z</time>
      </trkpt>
      <trkpt lat="43.35928" lon="2.41886">
        <ele>608.65</ele>
        <time>2015-11-02T09:38:41Z</time>
      </trkpt>
      <trkpt lat="43.35934" lon="2.41891">
        <ele>608.65</ele>
        <time>2015-11-02T09:38:49Z</time>
      </trkpt>
      <trkpt lat="43.35946" lon="2.419">
        <ele>609.13</ele>
        <time>2015-11-02T09:39:05Z</time>
      </trkpt>
      <trkpt lat="43.35947" lon="2.419">
        <ele>608.65</ele>
        <time>2015-11-02T09:39:06Z</time>
      </trkpt>
      <trkpt lat="43.35951" lon="2.419">
        <ele>608.65</ele>
        <time>2015-11-02T09:39:17Z</time>
      </trkpt>
      <trkpt lat="43.3595" lon="2.41899">
        <ele>609.13</ele>
        <time>2015-11-02T09:39:22Z</time>
      </trkpt>
      <trkpt lat="43.35946" lon="2.41892">
        <ele>610.57</ele>
        <time>2015-11-02T09:39:36Z</time>
      </trkpt>
      <trkpt lat="43.35947" lon="2.41894">
        <ele>610.09</ele>
        <time>2015-11-02T09:39:52Z</time>
      </trkpt>
      <trkpt lat="43.35948" lon="2.41895">
        <ele>612.02</ele>
        <time>2015-11-02T09:40:01Z</time>
      </trkpt>
      <trkpt lat="43.35952" lon="2.41897">
        <ele>615.38</ele>
        <time>2015-11-02T09:40:06Z</time>
      </trkpt>
      <trkpt lat="43.35952" lon="2.41898">
        <ele>611.54</ele>
        <time>2015-11-02T09:40:07Z</time>
      </trkpt>
      <trkpt lat="43.35953" lon="2.41899">
        <ele>611.54</ele>
        <time>2015-11-02T09:40:08Z</time>
      </trkpt>
      <trkpt lat="43.35956" lon="2.41903">
        <ele>610.57</ele>
        <time>2015-11-02T09:40:12Z</time>
      </trkpt>
      <trkpt lat="43.35966" lon="2.41918">
        <ele>608.65</ele>
        <time>2015-11-02T09:40:25Z</time>
      </trkpt>
      <trkpt lat="43.35978" lon="2.4193">
        <ele>606.25</ele>
        <time>2015-11-02T09:40:39Z</time>
      </trkpt>
      <trkpt lat="43.35979" lon="2.41931">
        <ele>611.06</ele>
        <time>2015-11-02T09:40:47Z</time>
      </trkpt>
      <trkpt lat="43.35979" lon="2.41931">
        <ele>608.65</ele>
        <time>2015-11-02T09:40:50Z</time>
      </trkpt>
      <trkpt lat="43.3598" lon="2.41931">
        <ele>607.21</ele>
        <time>2015-11-02T09:40:53Z</time>
      </trkpt>
      <trkpt lat="43.35982" lon="2.41934">
        <ele>607.69</ele>
        <time>2015-11-02T09:41:03Z</time>
      </trkpt>
      <trkpt lat="43.35982" lon="2.41936">
        <ele>606.73</ele>
        <time>2015-11-02T09:41:06Z</time>
      </trkpt>
      <trkpt lat="43.35982" lon="2.41939">
        <ele>606.73</ele>
        <time>2015-11-02T09:41:23Z</time>
      </trkpt>
      <trkpt lat="43.35982" lon="2.41939">
        <ele>609.13</ele>
        <time>2015-11-02T09:41:26Z</time>
      </trkpt>
      <trkpt lat="43.35982" lon="2.41938">
        <ele>611.06</ele>
        <time>2015-11-02T09:41:31Z</time>
      </trkpt>
      <trkpt lat="43.35982" lon="2.41938">
        <ele>609.13</ele>
        <time>2015-11-02T09:41:36Z</time>
      </trkpt>
      <trkpt lat="43.35981" lon="2.41938">
        <ele>607.69</ele>
        <time>2015-11-02T09:41:50Z</time>
      </trkpt>
      <trkpt lat="43.35983" lon="2.41935">
        <ele>604.33</ele>
        <time>2015-11-02T09:41:55Z</time>
      </trkpt>
      <trkpt lat="43.35985" lon="2.41935">
        <ele>604.81</ele>
        <time>2015-11-02T09:41:58Z</time>
      </trkpt>
      <trkpt lat="43.35989" lon="2.41936">
        <ele>606.25</ele>
        <time>2015-11-02T09:42:02Z</time>
      </trkpt>
      <trkpt lat="43.35997" lon="2.41935">
        <ele>602.88</ele>
        <time>2015-11-02T09:42:10Z</time>
      </trkpt>
      <trkpt lat="43.36001" lon="2.41935">
        <ele>604.81</ele>
        <time>2015-11-02T09:42:19Z</time>
      </trkpt>
      <trkpt lat="43.36003" lon="2.41935">
        <ele>605.29</ele>
        <time>2015-11-02T09:42:21Z</time>
      </trkpt>
      <trkpt lat="43.3601" lon="2.41932">
        <ele>604.33</ele>
        <time>2015-11-02T09:42:34Z</time>
      </trkpt>
      <trkpt lat="43.36014" lon="2.41936">
        <ele>602.4</ele>
        <time>2015-11-02T09:42:46Z</time>
      </trkpt>
      <trkpt lat="43.36015" lon="2.41935">
        <ele>599.04</ele>
        <time>2015-11-02T09:42:51Z</time>
      </trkpt>
      <trkpt lat="43.36019" lon="2.41938">
        <ele>598.56</ele>
        <time>2015-11-02T09:42:59Z</time>
      </trkpt>
      <trkpt lat="43.36025" lon="2.4194">
        <ele>598.56</ele>
        <time>2015-11-02T09:43:04Z</time>
      </trkpt>
      <trkpt lat="43.36035" lon="2.4195">
        <ele>597.6</ele>
        <time>2015-11-02T09:43:13Z</time>
      </trkpt>
      <trkpt lat="43.36039" lon="2.41953">
        <ele>601.44</ele>
        <time>2015-11-02T09:43:17Z</time>
      </trkpt>
      <trkpt lat="43.3604" lon="2.41954">
        <ele>600.96</ele>
        <time>2015-11-02T09:43:18Z</time>
      </trkpt>
      <trkpt lat="43.36045" lon="2.41958">
        <ele>598.08</ele>
        <time>2015-11-02T09:43:23Z</time>
      </trkpt>
      <trkpt lat="43.36048" lon="2.41962">
        <ele>594.71</ele>
        <time>2015-11-02T09:43:26Z</time>
      </trkpt>
      <trkpt lat="43.36051" lon="2.41969">
        <ele>592.31</ele>
        <time>2015-11-02T09:43:31Z</time>
      </trkpt>
      <trkpt lat="43.3606" lon="2.41978">
        <ele>596.64</ele>
        <time>2015-11-02T09:43:41Z</time>
      </trkpt>
      <trkpt lat="43.36063" lon="2.41981">
        <ele>594.23</ele>
        <time>2015-11-02T09:43:44Z</time>
      </trkpt>
      <trkpt lat="43.36068" lon="2.41984">
        <ele>595.19</ele>
        <time>2015-11-02T09:43:48Z</time>
      </trkpt>
      <trkpt lat="43.36075" lon="2.41993">
        <ele>594.71</ele>
        <time>2015-11-02T09:43:56Z</time>
      </trkpt>
      <trkpt lat="43.36077" lon="2.41995">
        <ele>593.75</ele>
        <time>2015-11-02T09:43:58Z</time>
      </trkpt>
      <trkpt lat="43.36079" lon="2.41998">
        <ele>593.75</ele>
        <time>2015-11-02T09:44:01Z</time>
      </trkpt>
      <trkpt lat="43.36088" lon="2.42013">
        <ele>593.27</ele>
        <time>2015-11-02T09:44:13Z</time>
      </trkpt>
      <trkpt lat="43.36096" lon="2.42032">
        <ele>594.23</ele>
        <time>2015-11-02T09:44:29Z</time>
      </trkpt>
      <trkpt lat="43.36097" lon="2.42036">
        <ele>592.31</ele>
        <time>2015-11-02T09:44:41Z</time>
      </trkpt>
      <trkpt lat="43.36101" lon="2.42039">
        <ele>588.95</ele>
        <time>2015-11-02T09:44:51Z</time>
      </trkpt>
      <trkpt lat="43.36101" lon="2.42041">
        <ele>588.95</ele>
        <time>2015-11-02T09:44:52Z</time>
      </trkpt>
      <trkpt lat="43.36104" lon="2.42047">
        <ele>587.02</ele>
        <time>2015-11-02T09:44:57Z</time>
      </trkpt>
      <trkpt lat="43.36108" lon="2.42055">
        <ele>588.46</ele>
        <time>2015-11-02T09:45:08Z</time>
      </trkpt>
      <trkpt lat="43.3611" lon="2.42058">
        <ele>588.46</ele>
        <time>2015-11-02T09:45:11Z</time>
      </trkpt>
      <trkpt lat="43.36112" lon="2.42067">
        <ele>592.31</ele>
        <time>2015-11-02T09:45:17Z</time>
      </trkpt>
      <trkpt lat="43.36119" lon="2.42082">
        <ele>596.15</ele>
        <time>2015-11-02T09:45:29Z</time>
      </trkpt>
      <trkpt lat="43.36121" lon="2.42084">
        <ele>599.52</ele>
        <time>2015-11-02T09:45:31Z</time>
      </trkpt>
      <trkpt lat="43.36122" lon="2.4209">
        <ele>597.12</ele>
        <time>2015-11-02T09:45:35Z</time>
      </trkpt>
      <trkpt lat="43.36127" lon="2.42108">
        <ele>600.96</ele>
        <time>2015-11-02T09:45:48Z</time>
      </trkpt>
      <trkpt lat="43.36132" lon="2.42128">
        <ele>600</ele>
        <time>2015-11-02T09:46:01Z</time>
      </trkpt>
      <trkpt lat="43.36134" lon="2.42139">
        <ele>602.4</ele>
        <time>2015-11-02T09:46:09Z</time>
      </trkpt>
      <trkpt lat="43.36135" lon="2.4214">
        <ele>602.4</ele>
        <time>2015-11-02T09:46:10Z</time>
      </trkpt>
      <trkpt lat="43.36137" lon="2.4215">
        <ele>605.29</ele>
        <time>2015-11-02T09:46:16Z</time>
      </trkpt>
      <trkpt lat="43.36139" lon="2.42161">
        <ele>605.77</ele>
        <time>2015-11-02T09:46:23Z</time>
      </trkpt>
      <trkpt lat="43.36138" lon="2.42166">
        <ele>605.77</ele>
        <time>2015-11-02T09:46:26Z</time>
      </trkpt>
      <trkpt lat="43.36134" lon="2.42174">
        <ele>608.65</ele>
        <time>2015-11-02T09:46:33Z</time>
      </trkpt>
      <trkpt lat="43.36129" lon="2.42176">
        <ele>610.57</ele>
        <time>2015-11-02T09:46:38Z</time>
      </trkpt>
      <trkpt lat="43.36116" lon="2.42178">
        <ele>611.54</ele>
        <time>2015-11-02T09:46:52Z</time>
      </trkpt>
      <trkpt lat="43.36106" lon="2.42181">
        <ele>612.5</ele>
        <time>2015-11-02T09:47:04Z</time>
      </trkpt>
      <trkpt lat="43.36102" lon="2.42181">
        <ele>611.54</ele>
        <time>2015-11-02T09:47:16Z</time>
      </trkpt>
      <trkpt lat="43.36097" lon="2.42183">
        <ele>613.46</ele>
        <time>2015-11-02T09:47:31Z</time>
      </trkpt>
      <trkpt lat="43.36097" lon="2.42182">
        <ele>610.57</ele>
        <time>2015-11-02T09:47:42Z</time>
      </trkpt>
      <trkpt lat="43.36095" lon="2.42181">
        <ele>610.57</ele>
        <time>2015-11-02T09:47:46Z</time>
      </trkpt>
      <trkpt lat="43.36091" lon="2.42179">
        <ele>614.42</ele>
        <time>2015-11-02T09:47:55Z</time>
      </trkpt>
      <trkpt lat="43.36082" lon="2.42176">
        <ele>614.42</ele>
        <time>2015-11-02T09:48:08Z</time>
      </trkpt>
      <trkpt lat="43.36079" lon="2.42176">
        <ele>612.5</ele>
        <time>2015-11-02T09:48:12Z</time>
      </trkpt>
      <trkpt lat="43.3607" lon="2.42173">
        <ele>614.42</ele>
        <time>2015-11-02T09:48:25Z</time>
      </trkpt>
      <trkpt lat="43.36067" lon="2.42173">
        <ele>613.94</ele>
        <time>2015-11-02T09:48:40Z</time>
      </trkpt>
      <trkpt lat="43.36063" lon="2.42174">
        <ele>615.38</ele>
        <time>2015-11-02T09:48:56Z</time>
      </trkpt>
      <trkpt lat="43.36056" lon="2.42174">
        <ele>614.9</ele>
        <time>2015-11-02T09:49:03Z</time>
      </trkpt>
      <trkpt lat="43.36051" lon="2.42175">
        <ele>615.38</ele>
        <time>2015-11-02T09:49:07Z</time>
      </trkpt>
      <trkpt lat="43.36046" lon="2.42175">
        <ele>615.38</ele>
        <time>2015-11-02T09:49:12Z</time>
      </trkpt>
      <trkpt lat="43.36038" lon="2.42177">
        <ele>616.82</ele>
        <time>2015-11-02T09:49:20Z</time>
      </trkpt>
      <trkpt lat="43.36033" lon="2.42178">
        <ele>616.34</ele>
        <time>2015-11-02T09:49:24Z</time>
      </trkpt>
      <trkpt lat="43.36028" lon="2.4218">
        <ele>616.82</ele>
        <time>2015-11-02T09:49:27Z</time>
      </trkpt>
      <trkpt lat="43.3601" lon="2.42186">
        <ele>618.75</ele>
        <time>2015-11-02T09:49:40Z</time>
      </trkpt>
      <trkpt lat="43.36002" lon="2.42189">
        <ele>618.26</ele>
        <time>2015-11-02T09:49:52Z</time>
      </trkpt>
      <trkpt lat="43.35997" lon="2.4219">
        <ele>619.23</ele>
        <time>2015-11-02T09:49:57Z</time>
      </trkpt>
      <trkpt lat="43.35993" lon="2.42191">
        <ele>619.23</ele>
        <time>2015-11-02T09:50:00Z</time>
      </trkpt>
      <trkpt lat="43.35984" lon="2.42194">
        <ele>619.71</ele>
        <time>2015-11-02T09:50:09Z</time>
      </trkpt>
      <trkpt lat="43.35981" lon="2.42195">
        <ele>619.23</ele>
        <time>2015-11-02T09:50:12Z</time>
      </trkpt>
      <trkpt lat="43.3597" lon="2.42196">
        <ele>622.59</ele>
        <time>2015-11-02T09:50:23Z</time>
      </trkpt>
      <trkpt lat="43.35968" lon="2.42197">
        <ele>622.59</ele>
        <time>2015-11-02T09:50:25Z</time>
      </trkpt>
      <trkpt lat="43.35965" lon="2.42197">
        <ele>623.07</ele>
        <time>2015-11-02T09:50:28Z</time>
      </trkpt>
      <trkpt lat="43.35963" lon="2.42198">
        <ele>622.59</ele>
        <time>2015-11-02T09:50:30Z</time>
      </trkpt>
      <trkpt lat="43.3596" lon="2.42198">
        <ele>622.59</ele>
        <time>2015-11-02T09:50:33Z</time>
      </trkpt>
      <trkpt lat="43.35949" lon="2.422">
        <ele>621.63</ele>
        <time>2015-11-02T09:50:44Z</time>
      </trkpt>
      <trkpt lat="43.35946" lon="2.42201">
        <ele>620.19</ele>
        <time>2015-11-02T09:50:47Z</time>
      </trkpt>
      <trkpt lat="43.35943" lon="2.42201">
        <ele>623.55</ele>
        <time>2015-11-02T09:50:51Z</time>
      </trkpt>
      <trkpt lat="43.35934" lon="2.42202">
        <ele>625.47</ele>
        <time>2015-11-02T09:51:02Z</time>
      </trkpt>
      <trkpt lat="43.35921" lon="2.42203">
        <ele>626.92</ele>
        <time>2015-11-02T09:51:16Z</time>
      </trkpt>
      <trkpt lat="43.35913" lon="2.42203">
        <ele>625.96</ele>
        <time>2015-11-02T09:51:29Z</time>
      </trkpt>
      <trkpt lat="43.3591" lon="2.42204">
        <ele>626.44</ele>
        <time>2015-11-02T09:51:32Z</time>
      </trkpt>
      <trkpt lat="43.35898" lon="2.42206">
        <ele>629.32</ele>
        <time>2015-11-02T09:51:45Z</time>
      </trkpt>
      <trkpt lat="43.35889" lon="2.42207">
        <ele>629.32</ele>
        <time>2015-11-02T09:51:59Z</time>
      </trkpt>
      <trkpt lat="43.35886" lon="2.42207">
        <ele>630.76</ele>
        <time>2015-11-02T09:52:11Z</time>
      </trkpt>
      <trkpt lat="43.35879" lon="2.42208">
        <ele>631.24</ele>
        <time>2015-11-02T09:52:17Z</time>
      </trkpt>
      <trkpt lat="43.35863" lon="2.42211">
        <ele>632.68</ele>
        <time>2015-11-02T09:52:30Z</time>
      </trkpt>
      <trkpt lat="43.3585" lon="2.42212">
        <ele>633.17</ele>
        <time>2015-11-02T09:52:44Z</time>
      </trkpt>
      <trkpt lat="43.35844" lon="2.42213">
        <ele>631.72</ele>
        <time>2015-11-02T09:52:51Z</time>
      </trkpt>
      <trkpt lat="43.35842" lon="2.42213">
        <ele>632.68</ele>
        <time>2015-11-02T09:52:53Z</time>
      </trkpt>
      <trkpt lat="43.35826" lon="2.4222">
        <ele>634.61</ele>
        <time>2015-11-02T09:53:09Z</time>
      </trkpt>
      <trkpt lat="43.35814" lon="2.42225">
        <ele>635.09</ele>
        <time>2015-11-02T09:53:22Z</time>
      </trkpt>
      <trkpt lat="43.35802" lon="2.42232">
        <ele>637.01</ele>
        <time>2015-11-02T09:53:36Z</time>
      </trkpt>
      <trkpt lat="43.35797" lon="2.42239">
        <ele>637.49</ele>
        <time>2015-11-02T09:53:44Z</time>
      </trkpt>
      <trkpt lat="43.35788" lon="2.42248">
        <ele>638.45</ele>
        <time>2015-11-02T09:53:58Z</time>
      </trkpt>
      <trkpt lat="43.35775" lon="2.42254">
        <ele>639.89</ele>
        <time>2015-11-02T09:54:11Z</time>
      </trkpt>
      <trkpt lat="43.3577" lon="2.42257">
        <ele>639.89</ele>
        <time>2015-11-02T09:54:18Z</time>
      </trkpt>
      <trkpt lat="43.3576" lon="2.42263">
        <ele>640.38</ele>
        <time>2015-11-02T09:54:31Z</time>
      </trkpt>
      <trkpt lat="43.35751" lon="2.42267">
        <ele>643.26</ele>
        <time>2015-11-02T09:54:44Z</time>
      </trkpt>
      <trkpt lat="43.3574" lon="2.42268">
        <ele>643.26</ele>
        <time>2015-11-02T09:54:57Z</time>
      </trkpt>
      <trkpt lat="43.3573" lon="2.42268">
        <ele>644.22</ele>
        <time>2015-11-02T09:55:08Z</time>
      </trkpt>
      <trkpt lat="43.35727" lon="2.42268">
        <ele>645.66</ele>
        <time>2015-11-02T09:55:11Z</time>
      </trkpt>
      <trkpt lat="43.35726" lon="2.42268">
        <ele>645.18</ele>
        <time>2015-11-02T09:55:12Z</time>
      </trkpt>
      <trkpt lat="43.35724" lon="2.42267">
        <ele>644.7</ele>
        <time>2015-11-02T09:55:14Z</time>
      </trkpt>
      <trkpt lat="43.35713" lon="2.42262">
        <ele>646.62</ele>
        <time>2015-11-02T09:55:28Z</time>
      </trkpt>
      <trkpt lat="43.35701" lon="2.42259">
        <ele>648.07</ele>
        <time>2015-11-02T09:55:41Z</time>
      </trkpt>
      <trkpt lat="43.35692" lon="2.42253">
        <ele>649.03</ele>
        <time>2015-11-02T09:55:55Z</time>
      </trkpt>
      <trkpt lat="43.35686" lon="2.42249">
        <ele>649.03</ele>
        <time>2015-11-02T09:56:03Z</time>
      </trkpt>
      <trkpt lat="43.35677" lon="2.42243">
        <ele>649.99</ele>
        <time>2015-11-02T09:56:16Z</time>
      </trkpt>
      <trkpt lat="43.35677" lon="2.42242">
        <ele>649.51</ele>
        <time>2015-11-02T09:56:17Z</time>
      </trkpt>
      <trkpt lat="43.35672" lon="2.42241">
        <ele>649.51</ele>
        <time>2015-11-02T09:56:29Z</time>
      </trkpt>
      <trkpt lat="43.35671" lon="2.4224">
        <ele>647.1</ele>
        <time>2015-11-02T09:56:49Z</time>
      </trkpt>
      <trkpt lat="43.35671" lon="2.4224">
        <ele>648.55</ele>
        <time>2015-11-02T09:56:52Z</time>
      </trkpt>
      <trkpt lat="43.35666" lon="2.42237">
        <ele>649.99</ele>
        <time>2015-11-02T09:57:03Z</time>
      </trkpt>
      <trkpt lat="43.3566" lon="2.42233">
        <ele>649.51</ele>
        <time>2015-11-02T09:57:11Z</time>
      </trkpt>
      <trkpt lat="43.35649" lon="2.42229">
        <ele>650.95</ele>
        <time>2015-11-02T09:57:26Z</time>
      </trkpt>
      <trkpt lat="43.35645" lon="2.42228">
        <ele>651.43</ele>
        <time>2015-11-02T09:57:34Z</time>
      </trkpt>
      <trkpt lat="43.3564" lon="2.42227">
        <ele>652.39</ele>
        <time>2015-11-02T09:57:40Z</time>
      </trkpt>
      <trkpt lat="43.35632" lon="2.42231">
        <ele>652.87</ele>
        <time>2015-11-02T09:57:53Z</time>
      </trkpt>
      <trkpt lat="43.35629" lon="2.42232">
        <ele>652.87</ele>
        <time>2015-11-02T09:57:59Z</time>
      </trkpt>
      <trkpt lat="43.35628" lon="2.42233">
        <ele>653.35</ele>
        <time>2015-11-02T09:58:00Z</time>
      </trkpt>
      <trkpt lat="43.35622" lon="2.42238">
        <ele>653.35</ele>
        <time>2015-11-02T09:58:06Z</time>
      </trkpt>
      <trkpt lat="43.35613" lon="2.42244">
        <ele>654.31</ele>
        <time>2015-11-02T09:58:16Z</time>
      </trkpt>
      <trkpt lat="43.35608" lon="2.42248">
        <ele>654.31</ele>
        <time>2015-11-02T09:58:23Z</time>
      </trkpt>
      <trkpt lat="43.35597" lon="2.42259">
        <ele>656.72</ele>
        <time>2015-11-02T09:58:36Z</time>
      </trkpt>
      <trkpt lat="43.35595" lon="2.4226">
        <ele>655.28</ele>
        <time>2015-11-02T09:58:38Z</time>
      </trkpt>
      <trkpt lat="43.35591" lon="2.42263">
        <ele>658.64</ele>
        <time>2015-11-02T09:58:44Z</time>
      </trkpt>
      <trkpt lat="43.3559" lon="2.42264">
        <ele>656.72</ele>
        <time>2015-11-02T09:58:45Z</time>
      </trkpt>
      <trkpt lat="43.35589" lon="2.42265">
        <ele>654.8</ele>
        <time>2015-11-02T09:58:47Z</time>
      </trkpt>
      <trkpt lat="43.35578" lon="2.42274">
        <ele>653.35</ele>
        <time>2015-11-02T09:59:01Z</time>
      </trkpt>
      <trkpt lat="43.35569" lon="2.42281">
        <ele>654.8</ele>
        <time>2015-11-02T09:59:13Z</time>
      </trkpt>
      <trkpt lat="43.35566" lon="2.42284">
        <ele>653.35</ele>
        <time>2015-11-02T09:59:17Z</time>
      </trkpt>
      <trkpt lat="43.35563" lon="2.42286">
        <ele>655.76</ele>
        <time>2015-11-02T09:59:20Z</time>
      </trkpt>
      <trkpt lat="43.35555" lon="2.42292">
        <ele>659.12</ele>
        <time>2015-11-02T09:59:29Z</time>
      </trkpt>
      <trkpt lat="43.35554" lon="2.42293">
        <ele>657.2</ele>
        <time>2015-11-02T09:59:32Z</time>
      </trkpt>
      <trkpt lat="43.35549" lon="2.42296">
        <ele>655.76</ele>
        <time>2015-11-02T09:59:37Z</time>
      </trkpt>
      <trkpt lat="43.35549" lon="2.42296">
        <ele>656.24</ele>
        <time>2015-11-02T09:59:38Z</time>
      </trkpt>
      <trkpt lat="43.35535" lon="2.42306">
        <ele>657.68</ele>
        <time>2015-11-02T09:59:50Z</time>
      </trkpt>
      <trkpt lat="43.35528" lon="2.42315">
        <ele>661.04</ele>
        <time>2015-11-02T10:00:00Z</time>
      </trkpt>
      <trkpt lat="43.35527" lon="2.42317">
        <ele>657.2</ele>
        <time>2015-11-02T10:00:04Z</time>
      </trkpt>
      <trkpt lat="43.35527" lon="2.42317">
        <ele>657.2</ele>
        <time>2015-11-02T10:00:05Z</time>
      </trkpt>
      <trkpt lat="43.35527" lon="2.42317">
        <ele>660.08</ele>
        <time>2015-11-02T10:00:08Z</time>
      </trkpt>
      <trkpt lat="43.35527" lon="2.42317">
        <ele>659.6</ele>
        <time>2015-11-02T10:00:09Z</time>
      </trkpt>
      <trkpt lat="43.35525" lon="2.42321">
        <ele>659.12</ele>
        <time>2015-11-02T10:00:21Z</time>
      </trkpt>
      <trkpt lat="43.35524" lon="2.42321">
        <ele>658.16</ele>
        <time>2015-11-02T10:00:23Z</time>
      </trkpt>
      <trkpt lat="43.3552" lon="2.4232">
        <ele>656.24</ele>
        <time>2015-11-02T10:00:27Z</time>
      </trkpt>
      <trkpt lat="43.35519" lon="2.4232">
        <ele>657.2</ele>
        <time>2015-11-02T10:00:28Z</time>
      </trkpt>
      <trkpt lat="43.35508" lon="2.42319">
        <ele>657.2</ele>
        <time>2015-11-02T10:00:37Z</time>
      </trkpt>
      <trkpt lat="43.35497" lon="2.4232">
        <ele>658.64</ele>
        <time>2015-11-02T10:00:46Z</time>
      </trkpt>
      <trkpt lat="43.35493" lon="2.42321">
        <ele>659.12</ele>
        <time>2015-11-02T10:00:49Z</time>
      </trkpt>
      <trkpt lat="43.35474" lon="2.42324">
        <ele>661.04</ele>
        <time>2015-11-02T10:01:05Z</time>
      </trkpt>
      <trkpt lat="43.35469" lon="2.42324">
        <ele>659.6</ele>
        <time>2015-11-02T10:01:10Z</time>
      </trkpt>
      <trkpt lat="43.35464" lon="2.42325">
        <ele>657.2</ele>
        <time>2015-11-02T10:01:13Z</time>
      </trkpt>
      <trkpt lat="43.35459" lon="2.42327">
        <ele>659.12</ele>
        <time>2015-11-02T10:01:16Z</time>
      </trkpt>
      <trkpt lat="43.35451" lon="2.42327">
        <ele>656.24</ele>
        <time>2015-11-02T10:01:23Z</time>
      </trkpt>
      <trkpt lat="43.35436" lon="2.42332">
        <ele>653.35</ele>
        <time>2015-11-02T10:01:35Z</time>
      </trkpt>
      <trkpt lat="43.35433" lon="2.42331">
        <ele>651.91</ele>
        <time>2015-11-02T10:01:37Z</time>
      </trkpt>
      <trkpt lat="43.35432" lon="2.42331">
        <ele>651.43</ele>
        <time>2015-11-02T10:01:38Z</time>
      </trkpt>
      <trkpt lat="43.35425" lon="2.42329">
        <ele>648.07</ele>
        <time>2015-11-02T10:01:44Z</time>
      </trkpt>
      <trkpt lat="43.35424" lon="2.42329">
        <ele>647.59</ele>
        <time>2015-11-02T10:01:45Z</time>
      </trkpt>
      <trkpt lat="43.35411" lon="2.42321">
        <ele>648.55</ele>
        <time>2015-11-02T10:01:57Z</time>
      </trkpt>
      <trkpt lat="43.35401" lon="2.42312">
        <ele>645.18</ele>
        <time>2015-11-02T10:02:07Z</time>
      </trkpt>
      <trkpt lat="43.35392" lon="2.42302">
        <ele>643.26</ele>
        <time>2015-11-02T10:02:17Z</time>
      </trkpt>
      <trkpt lat="43.35384" lon="2.42294">
        <ele>641.82</ele>
        <time>2015-11-02T10:02:26Z</time>
      </trkpt>
      <trkpt lat="43.35378" lon="2.42288">
        <ele>642.3</ele>
        <time>2015-11-02T10:02:33Z</time>
      </trkpt>
      <trkpt lat="43.35369" lon="2.42285">
        <ele>639.41</ele>
        <time>2015-11-02T10:02:42Z</time>
      </trkpt>
      <trkpt lat="43.35366" lon="2.42284">
        <ele>638.93</ele>
        <time>2015-11-02T10:02:47Z</time>
      </trkpt>
      <trkpt lat="43.3536" lon="2.42284">
        <ele>637.01</ele>
        <time>2015-11-02T10:02:53Z</time>
      </trkpt>
      <trkpt lat="43.35347" lon="2.42291">
        <ele>635.57</ele>
        <time>2015-11-02T10:03:05Z</time>
      </trkpt>
      <trkpt lat="43.35344" lon="2.42293">
        <ele>637.01</ele>
        <time>2015-11-02T10:03:07Z</time>
      </trkpt>
      <trkpt lat="43.35339" lon="2.42292">
        <ele>635.09</ele>
        <time>2015-11-02T10:03:12Z</time>
      </trkpt>
      <trkpt lat="43.35338" lon="2.42292">
        <ele>635.57</ele>
        <time>2015-11-02T10:03:13Z</time>
      </trkpt>
      <trkpt lat="43.35332" lon="2.42291">
        <ele>636.05</ele>
        <time>2015-11-02T10:03:18Z</time>
      </trkpt>
      <trkpt lat="43.35326" lon="2.4229">
        <ele>633.65</ele>
        <time>2015-11-02T10:03:23Z</time>
      </trkpt>
      <trkpt lat="43.35324" lon="2.4229">
        <ele>635.57</ele>
        <time>2015-11-02T10:03:25Z</time>
      </trkpt>
      <trkpt lat="43.35318" lon="2.42289">
        <ele>632.2</ele>
        <time>2015-11-02T10:03:30Z</time>
      </trkpt>
      <trkpt lat="43.35312" lon="2.42288">
        <ele>631.24</ele>
        <time>2015-11-02T10:03:34Z</time>
      </trkpt>
      <trkpt lat="43.35305" lon="2.42285">
        <ele>630.76</ele>
        <time>2015-11-02T10:03:44Z</time>
      </trkpt>
      <trkpt lat="43.35299" lon="2.42284">
        <ele>629.8</ele>
        <time>2015-11-02T10:03:48Z</time>
      </trkpt>
      <trkpt lat="43.35297" lon="2.42283">
        <ele>629.32</ele>
        <time>2015-11-02T10:03:50Z</time>
      </trkpt>
      <trkpt lat="43.35295" lon="2.42282">
        <ele>628.84</ele>
        <time>2015-11-02T10:03:54Z</time>
      </trkpt>
      <trkpt lat="43.35293" lon="2.42281">
        <ele>628.84</ele>
        <time>2015-11-02T10:03:56Z</time>
      </trkpt>
      <trkpt lat="43.35288" lon="2.42279">
        <ele>627.88</ele>
        <time>2015-11-02T10:04:00Z</time>
      </trkpt>
      <trkpt lat="43.35283" lon="2.42274">
        <ele>624.51</ele>
        <time>2015-11-02T10:04:06Z</time>
      </trkpt>
      <trkpt lat="43.35281" lon="2.42273">
        <ele>626.92</ele>
        <time>2015-11-02T10:04:10Z</time>
      </trkpt>
      <trkpt lat="43.35279" lon="2.42271">
        <ele>626.92</ele>
        <time>2015-11-02T10:04:14Z</time>
      </trkpt>
      <trkpt lat="43.35273" lon="2.4227">
        <ele>625.47</ele>
        <time>2015-11-02T10:04:20Z</time>
      </trkpt>
      <trkpt lat="43.35264" lon="2.42269">
        <ele>624.51</ele>
        <time>2015-11-02T10:04:26Z</time>
      </trkpt>
      <trkpt lat="43.35259" lon="2.42267">
        <ele>626.44</ele>
        <time>2015-11-02T10:04:31Z</time>
      </trkpt>
      <trkpt lat="43.35255" lon="2.42266">
        <ele>623.07</ele>
        <time>2015-11-02T10:04:34Z</time>
      </trkpt>
      <trkpt lat="43.35254" lon="2.42266">
        <ele>623.07</ele>
        <time>2015-11-02T10:04:35Z</time>
      </trkpt>
      <trkpt lat="43.3524" lon="2.42263">
        <ele>622.59</ele>
        <time>2015-11-02T10:04:47Z</time>
      </trkpt>
      <trkpt lat="43.35233" lon="2.42261">
        <ele>621.15</ele>
        <time>2015-11-02T10:04:53Z</time>
      </trkpt>
      <trkpt lat="43.35231" lon="2.4226">
        <ele>619.23</ele>
        <time>2015-11-02T10:04:55Z</time>
      </trkpt>
      <trkpt lat="43.35224" lon="2.42257">
        <ele>618.26</ele>
        <time>2015-11-02T10:05:01Z</time>
      </trkpt>
      <trkpt lat="43.3522" lon="2.42253">
        <ele>618.26</ele>
        <time>2015-11-02T10:05:06Z</time>
      </trkpt>
      <trkpt lat="43.35216" lon="2.4225">
        <ele>617.78</ele>
        <time>2015-11-02T10:05:10Z</time>
      </trkpt>
      <trkpt lat="43.35215" lon="2.4225">
        <ele>617.78</ele>
        <time>2015-11-02T10:05:11Z</time>
      </trkpt>
      <trkpt lat="43.35211" lon="2.42248">
        <ele>617.3</ele>
        <time>2015-11-02T10:05:16Z</time>
      </trkpt>
      <trkpt lat="43.35208" lon="2.42246">
        <ele>616.34</ele>
        <time>2015-11-02T10:05:19Z</time>
      </trkpt>
      <trkpt lat="43.35201" lon="2.42241">
        <ele>614.42</ele>
        <time>2015-11-02T10:05:25Z</time>
      </trkpt>
      <trkpt lat="43.35199" lon="2.42239">
        <ele>615.86</ele>
        <time>2015-11-02T10:05:27Z</time>
      </trkpt>
      <trkpt lat="43.35198" lon="2.42238">
        <ele>614.42</ele>
        <time>2015-11-02T10:05:28Z</time>
      </trkpt>
      <trkpt lat="43.35194" lon="2.42235">
        <ele>613.94</ele>
        <time>2015-11-02T10:05:32Z</time>
      </trkpt>
      <trkpt lat="43.3519" lon="2.42232">
        <ele>613.46</ele>
        <time>2015-11-02T10:05:36Z</time>
      </trkpt>
      <trkpt lat="43.35187" lon="2.42228">
        <ele>614.42</ele>
        <time>2015-11-02T10:05:40Z</time>
      </trkpt>
      <trkpt lat="43.35179" lon="2.42223">
        <ele>611.54</ele>
        <time>2015-11-02T10:05:48Z</time>
      </trkpt>
      <trkpt lat="43.35178" lon="2.42222">
        <ele>610.09</ele>
        <time>2015-11-02T10:05:50Z</time>
      </trkpt>
      <trkpt lat="43.35178" lon="2.42222">
        <ele>611.54</ele>
        <time>2015-11-02T10:05:52Z</time>
      </trkpt>
      <trkpt lat="43.35178" lon="2.42222">
        <ele>613.46</ele>
        <time>2015-11-02T10:06:00Z</time>
      </trkpt>
      <trkpt lat="43.35176" lon="2.4222">
        <ele>613.94</ele>
        <time>2015-11-02T10:06:02Z</time>
      </trkpt>
      <trkpt lat="43.35169" lon="2.42214">
        <ele>612.98</ele>
        <time>2015-11-02T10:06:09Z</time>
      </trkpt>
      <trkpt lat="43.35156" lon="2.42205">
        <ele>610.57</ele>
        <time>2015-11-02T10:06:23Z</time>
      </trkpt>
      <trkpt lat="43.35143" lon="2.42193">
        <ele>609.61</ele>
        <time>2015-11-02T10:06:36Z</time>
      </trkpt>
      <trkpt lat="43.35134" lon="2.42186">
        <ele>609.61</ele>
        <time>2015-11-02T10:06:45Z</time>
      </trkpt>
      <trkpt lat="43.35129" lon="2.4218">
        <ele>610.09</ele>
        <time>2015-11-02T10:06:51Z</time>
      </trkpt>
      <trkpt lat="43.35126" lon="2.42178">
        <ele>609.61</ele>
        <time>2015-11-02T10:06:54Z</time>
      </trkpt>
      <trkpt lat="43.35121" lon="2.42174">
        <ele>608.65</ele>
        <time>2015-11-02T10:07:00Z</time>
      </trkpt>
      <trkpt lat="43.35119" lon="2.42173">
        <ele>608.65</ele>
        <time>2015-11-02T10:07:02Z</time>
      </trkpt>
      <trkpt lat="43.35104" lon="2.42165">
        <ele>604.33</ele>
        <time>2015-11-02T10:07:15Z</time>
      </trkpt>
      <trkpt lat="43.35089" lon="2.42154">
        <ele>603.85</ele>
        <time>2015-11-02T10:07:29Z</time>
      </trkpt>
      <trkpt lat="43.35086" lon="2.42151">
        <ele>601.92</ele>
        <time>2015-11-02T10:07:32Z</time>
      </trkpt>
      <trkpt lat="43.35083" lon="2.42147">
        <ele>601.44</ele>
        <time>2015-11-02T10:07:36Z</time>
      </trkpt>
      <trkpt lat="43.35079" lon="2.42145">
        <ele>600.48</ele>
        <time>2015-11-02T10:07:40Z</time>
      </trkpt>
      <trkpt lat="43.35074" lon="2.42136">
        <ele>600</ele>
        <time>2015-11-02T10:07:51Z</time>
      </trkpt>
      <trkpt lat="43.35072" lon="2.42134">
        <ele>599.04</ele>
        <time>2015-11-02T10:07:53Z</time>
      </trkpt>
      <trkpt lat="43.35069" lon="2.42131">
        <ele>597.6</ele>
        <time>2015-11-02T10:07:56Z</time>
      </trkpt>
      <trkpt lat="43.35052" lon="2.42119">
        <ele>597.12</ele>
        <time>2015-11-02T10:08:10Z</time>
      </trkpt>
      <trkpt lat="43.35032" lon="2.42105">
        <ele>594.71</ele>
        <time>2015-11-02T10:08:26Z</time>
      </trkpt>
      <trkpt lat="43.35023" lon="2.42097">
        <ele>592.79</ele>
        <time>2015-11-02T10:08:37Z</time>
      </trkpt>
      <trkpt lat="43.35018" lon="2.42094">
        <ele>589.43</ele>
        <time>2015-11-02T10:08:43Z</time>
      </trkpt>
      <trkpt lat="43.35012" lon="2.42089">
        <ele>587.98</ele>
        <time>2015-11-02T10:08:50Z</time>
      </trkpt>
      <trkpt lat="43.35008" lon="2.42087">
        <ele>588.46</ele>
        <time>2015-11-02T10:08:54Z</time>
      </trkpt>
      <trkpt lat="43.35001" lon="2.42082">
        <ele>586.06</ele>
        <time>2015-11-02T10:09:02Z</time>
      </trkpt>
      <trkpt lat="43.35" lon="2.4208">
        <ele>586.54</ele>
        <time>2015-11-02T10:09:04Z</time>
      </trkpt>
      <trkpt lat="43.34997" lon="2.42078">
        <ele>585.58</ele>
        <time>2015-11-02T10:09:07Z</time>
      </trkpt>
      <trkpt lat="43.34992" lon="2.42076">
        <ele>584.62</ele>
        <time>2015-11-02T10:09:19Z</time>
      </trkpt>
      <trkpt lat="43.34993" lon="2.42077">
        <ele>585.58</ele>
        <time>2015-11-02T10:09:36Z</time>
      </trkpt>
      <trkpt lat="43.34994" lon="2.42076">
        <ele>584.62</ele>
        <time>2015-11-02T10:09:56Z</time>
      </trkpt>
      <trkpt lat="43.34994" lon="2.42076">
        <ele>585.58</ele>
        <time>2015-11-02T10:10:01Z</time>
      </trkpt>
      <trkpt lat="43.34986" lon="2.42074">
        <ele>581.73</ele>
        <time>2015-11-02T10:10:08Z</time>
      </trkpt>
      <trkpt lat="43.34985" lon="2.42074">
        <ele>583.18</ele>
        <time>2015-11-02T10:10:10Z</time>
      </trkpt>
      <trkpt lat="43.34982" lon="2.4207">
        <ele>581.25</ele>
        <time>2015-11-02T10:10:14Z</time>
      </trkpt>
      <trkpt lat="43.34974" lon="2.4206">
        <ele>578.37</ele>
        <time>2015-11-02T10:10:24Z</time>
      </trkpt>
      <trkpt lat="43.34965" lon="2.4205">
        <ele>577.41</ele>
        <time>2015-11-02T10:10:38Z</time>
      </trkpt>
      <trkpt lat="43.3496" lon="2.42042">
        <ele>575.01</ele>
        <time>2015-11-02T10:10:48Z</time>
      </trkpt>
      <trkpt lat="43.34959" lon="2.42037">
        <ele>575.01</ele>
        <time>2015-11-02T10:10:52Z</time>
      </trkpt>
      <trkpt lat="43.34956" lon="2.42031">
        <ele>574.04</ele>
        <time>2015-11-02T10:10:57Z</time>
      </trkpt>
      <trkpt lat="43.34956" lon="2.42026">
        <ele>573.56</ele>
        <time>2015-11-02T10:11:08Z</time>
      </trkpt>
      <trkpt lat="43.34956" lon="2.42026">
        <ele>574.04</ele>
        <time>2015-11-02T10:11:15Z</time>
      </trkpt>
      <trkpt lat="43.34948" lon="2.42018">
        <ele>574.04</ele>
        <time>2015-11-02T10:11:24Z</time>
      </trkpt>
      <trkpt lat="43.34947" lon="2.42015">
        <ele>571.16</ele>
        <time>2015-11-02T10:11:27Z</time>
      </trkpt>
      <trkpt lat="43.34946" lon="2.42014">
        <ele>571.16</ele>
        <time>2015-11-02T10:11:28Z</time>
      </trkpt>
      <trkpt lat="43.34934" lon="2.41992">
        <ele>568.76</ele>
        <time>2015-11-02T10:11:43Z</time>
      </trkpt>
      <trkpt lat="43.34932" lon="2.41987">
        <ele>567.8</ele>
        <time>2015-11-02T10:11:47Z</time>
      </trkpt>
      <trkpt lat="43.34927" lon="2.41965">
        <ele>564.91</ele>
        <time>2015-11-02T10:12:00Z</time>
      </trkpt>
      <trkpt lat="43.34924" lon="2.41959">
        <ele>563.95</ele>
        <time>2015-11-02T10:12:05Z</time>
      </trkpt>
      <trkpt lat="43.34917" lon="2.41943">
        <ele>561.55</ele>
        <time>2015-11-02T10:12:16Z</time>
      </trkpt>
      <trkpt lat="43.34912" lon="2.41934">
        <ele>560.11</ele>
        <time>2015-11-02T10:12:22Z</time>
      </trkpt>
      <trkpt lat="43.34908" lon="2.41925">
        <ele>559.14</ele>
        <time>2015-11-02T10:12:29Z</time>
      </trkpt>
      <trkpt lat="43.34903" lon="2.41917">
        <ele>557.7</ele>
        <time>2015-11-02T10:12:38Z</time>
      </trkpt>
      <trkpt lat="43.34901" lon="2.41912">
        <ele>556.74</ele>
        <time>2015-11-02T10:12:42Z</time>
      </trkpt>
      <trkpt lat="43.34893" lon="2.41901">
        <ele>555.3</ele>
        <time>2015-11-02T10:12:53Z</time>
      </trkpt>
      <trkpt lat="43.34889" lon="2.41893">
        <ele>554.82</ele>
        <time>2015-11-02T10:13:00Z</time>
      </trkpt>
      <trkpt lat="43.3488" lon="2.41884">
        <ele>551.45</ele>
        <time>2015-11-02T10:13:07Z</time>
      </trkpt>
      <trkpt lat="43.34874" lon="2.41879">
        <ele>550.01</ele>
        <time>2015-11-02T10:13:10Z</time>
      </trkpt>
      <trkpt lat="43.34869" lon="2.41874">
        <ele>550.97</ele>
        <time>2015-11-02T10:13:19Z</time>
      </trkpt>
      <trkpt lat="43.34869" lon="2.41874">
        <ele>549.53</ele>
        <time>2015-11-02T10:13:22Z</time>
      </trkpt>
      <trkpt lat="43.34868" lon="2.41866">
        <ele>550.01</ele>
        <time>2015-11-02T10:13:28Z</time>
      </trkpt>
      <trkpt lat="43.34864" lon="2.41861">
        <ele>550.01</ele>
        <time>2015-11-02T10:13:33Z</time>
      </trkpt>
      <trkpt lat="43.34862" lon="2.41856">
        <ele>548.57</ele>
        <time>2015-11-02T10:13:37Z</time>
      </trkpt>
      <trkpt lat="43.34856" lon="2.41847">
        <ele>548.57</ele>
        <time>2015-11-02T10:13:46Z</time>
      </trkpt>
      <trkpt lat="43.34853" lon="2.41843">
        <ele>546.65</ele>
        <time>2015-11-02T10:13:50Z</time>
      </trkpt>
      <trkpt lat="43.3485" lon="2.4184">
        <ele>546.65</ele>
        <time>2015-11-02T10:13:54Z</time>
      </trkpt>
      <trkpt lat="43.34846" lon="2.41833">
        <ele>546.17</ele>
        <time>2015-11-02T10:14:01Z</time>
      </trkpt>
      <trkpt lat="43.34844" lon="2.41831">
        <ele>546.17</ele>
        <time>2015-11-02T10:14:03Z</time>
      </trkpt>
      <trkpt lat="43.34842" lon="2.41828">
        <ele>544.72</ele>
        <time>2015-11-02T10:14:06Z</time>
      </trkpt>
      <trkpt lat="43.34833" lon="2.41813">
        <ele>543.28</ele>
        <time>2015-11-02T10:14:21Z</time>
      </trkpt>
      <trkpt lat="43.34825" lon="2.41798">
        <ele>539.92</ele>
        <time>2015-11-02T10:14:34Z</time>
      </trkpt>
      <trkpt lat="43.34824" lon="2.41797">
        <ele>539.44</ele>
        <time>2015-11-02T10:14:35Z</time>
      </trkpt>
      <trkpt lat="43.34817" lon="2.41786">
        <ele>536.55</ele>
        <time>2015-11-02T10:14:44Z</time>
      </trkpt>
      <trkpt lat="43.34817" lon="2.41785">
        <ele>537.51</ele>
        <time>2015-11-02T10:14:45Z</time>
      </trkpt>
      <trkpt lat="43.34815" lon="2.41781">
        <ele>537.99</ele>
        <time>2015-11-02T10:14:48Z</time>
      </trkpt>
      <trkpt lat="43.34813" lon="2.41778">
        <ele>537.03</ele>
        <time>2015-11-02T10:14:51Z</time>
      </trkpt>
      <trkpt lat="43.34799" lon="2.41761">
        <ele>533.19</ele>
        <time>2015-11-02T10:15:06Z</time>
      </trkpt>
      <trkpt lat="43.34791" lon="2.41753">
        <ele>530.3</ele>
        <time>2015-11-02T10:15:16Z</time>
      </trkpt>
      <trkpt lat="43.34788" lon="2.41749">
        <ele>532.71</ele>
        <time>2015-11-02T10:15:20Z</time>
      </trkpt>
      <trkpt lat="43.34787" lon="2.41749">
        <ele>531.75</ele>
        <time>2015-11-02T10:15:21Z</time>
      </trkpt>
      <trkpt lat="43.34785" lon="2.41746">
        <ele>530.3</ele>
        <time>2015-11-02T10:15:24Z</time>
      </trkpt>
      <trkpt lat="43.34782" lon="2.41744">
        <ele>530.79</ele>
        <time>2015-11-02T10:15:27Z</time>
      </trkpt>
      <trkpt lat="43.34775" lon="2.41738">
        <ele>532.23</ele>
        <time>2015-11-02T10:15:34Z</time>
      </trkpt>
      <trkpt lat="43.3477" lon="2.41738">
        <ele>528.86</ele>
        <time>2015-11-02T10:15:38Z</time>
      </trkpt>
      <trkpt lat="43.34769" lon="2.41738">
        <ele>528.86</ele>
        <time>2015-11-02T10:15:39Z</time>
      </trkpt>
      <trkpt lat="43.34764" lon="2.41737">
        <ele>529.34</ele>
        <time>2015-11-02T10:15:45Z</time>
      </trkpt>
      <trkpt lat="43.34758" lon="2.41741">
        <ele>525.98</ele>
        <time>2015-11-02T10:15:52Z</time>
      </trkpt>
      <trkpt lat="43.34756" lon="2.4174">
        <ele>525.5</ele>
        <time>2015-11-02T10:15:56Z</time>
      </trkpt>
      <trkpt lat="43.34752" lon="2.4174">
        <ele>523.58</ele>
        <time>2015-11-02T10:16:03Z</time>
      </trkpt>
      <trkpt lat="43.34752" lon="2.4174">
        <ele>526.46</ele>
        <time>2015-11-02T10:16:04Z</time>
      </trkpt>
      <trkpt lat="43.34752" lon="2.4174">
        <ele>526.46</ele>
        <time>2015-11-02T10:16:05Z</time>
      </trkpt>
      <trkpt lat="43.34751" lon="2.41741">
        <ele>525.5</ele>
        <time>2015-11-02T10:16:10Z</time>
      </trkpt>
      <trkpt lat="43.34745" lon="2.41743">
        <ele>523.58</ele>
        <time>2015-11-02T10:16:16Z</time>
      </trkpt>
      <trkpt lat="43.34736" lon="2.41749">
        <ele>522.13</ele>
        <time>2015-11-02T10:16:23Z</time>
      </trkpt>
      <trkpt lat="43.34723" lon="2.41757">
        <ele>521.65</ele>
        <time>2015-11-02T10:16:34Z</time>
      </trkpt>
      <trkpt lat="43.34712" lon="2.41763">
        <ele>518.77</ele>
        <time>2015-11-02T10:16:43Z</time>
      </trkpt>
      <trkpt lat="43.347" lon="2.41767">
        <ele>519.25</ele>
        <time>2015-11-02T10:16:54Z</time>
      </trkpt>
      <trkpt lat="43.34695" lon="2.41766">
        <ele>519.25</ele>
        <time>2015-11-02T10:16:58Z</time>
      </trkpt>
      <trkpt lat="43.34687" lon="2.41766">
        <ele>516.85</ele>
        <time>2015-11-02T10:17:06Z</time>
      </trkpt>
      <trkpt lat="43.34684" lon="2.41767">
        <ele>519.25</ele>
        <time>2015-11-02T10:17:09Z</time>
      </trkpt>
      <trkpt lat="43.34667" lon="2.41775">
        <ele>516.85</ele>
        <time>2015-11-02T10:17:25Z</time>
      </trkpt>
      <trkpt lat="43.34661" lon="2.41779">
        <ele>516.37</ele>
        <time>2015-11-02T10:17:31Z</time>
      </trkpt>
      <trkpt lat="43.34646" lon="2.41787">
        <ele>515.88</ele>
        <time>2015-11-02T10:17:44Z</time>
      </trkpt>
      <trkpt lat="43.34645" lon="2.41787">
        <ele>516.37</ele>
        <time>2015-11-02T10:17:46Z</time>
      </trkpt>
      <trkpt lat="43.3464" lon="2.41789">
        <ele>515.4</ele>
        <time>2015-11-02T10:17:50Z</time>
      </trkpt>
      <trkpt lat="43.34636" lon="2.41792">
        <ele>515.4</ele>
        <time>2015-11-02T10:17:54Z</time>
      </trkpt>
      <trkpt lat="43.34629" lon="2.41795">
        <ele>513.48</ele>
        <time>2015-11-02T10:18:01Z</time>
      </trkpt>
      <trkpt lat="43.34626" lon="2.41796">
        <ele>516.37</ele>
        <time>2015-11-02T10:18:04Z</time>
      </trkpt>
      <trkpt lat="43.34624" lon="2.41797">
        <ele>513.96</ele>
        <time>2015-11-02T10:18:06Z</time>
      </trkpt>
      <trkpt lat="43.34609" lon="2.41812">
        <ele>513</ele>
        <time>2015-11-02T10:18:21Z</time>
      </trkpt>
      <trkpt lat="43.34604" lon="2.41818">
        <ele>509.64</ele>
        <time>2015-11-02T10:18:27Z</time>
      </trkpt>
      <trkpt lat="43.34602" lon="2.41822">
        <ele>510.12</ele>
        <time>2015-11-02T10:18:29Z</time>
      </trkpt>
      <trkpt lat="43.34598" lon="2.41826">
        <ele>508.67</ele>
        <time>2015-11-02T10:18:33Z</time>
      </trkpt>
      <trkpt lat="43.34589" lon="2.41834">
        <ele>508.19</ele>
        <time>2015-11-02T10:18:44Z</time>
      </trkpt>
      <trkpt lat="43.34586" lon="2.41835">
        <ele>508.67</ele>
        <time>2015-11-02T10:18:46Z</time>
      </trkpt>
      <trkpt lat="43.34582" lon="2.41839">
        <ele>508.19</ele>
        <time>2015-11-02T10:18:50Z</time>
      </trkpt>
      <trkpt lat="43.3458" lon="2.41841">
        <ele>507.23</ele>
        <time>2015-11-02T10:18:52Z</time>
      </trkpt>
      <trkpt lat="43.34578" lon="2.41843">
        <ele>507.23</ele>
        <time>2015-11-02T10:18:54Z</time>
      </trkpt>
      <trkpt lat="43.34577" lon="2.41844">
        <ele>505.31</ele>
        <time>2015-11-02T10:18:56Z</time>
      </trkpt>
      <trkpt lat="43.34566" lon="2.41856">
        <ele>503.39</ele>
        <time>2015-11-02T10:19:07Z</time>
      </trkpt>
      <trkpt lat="43.34557" lon="2.41866">
        <ele>503.39</ele>
        <time>2015-11-02T10:19:17Z</time>
      </trkpt>
      <trkpt lat="43.34552" lon="2.41872">
        <ele>500.02</ele>
        <time>2015-11-02T10:19:23Z</time>
      </trkpt>
      <trkpt lat="43.34548" lon="2.41876">
        <ele>500.02</ele>
        <time>2015-11-02T10:19:27Z</time>
      </trkpt>
      <trkpt lat="43.34539" lon="2.41888">
        <ele>499.54</ele>
        <time>2015-11-02T10:19:37Z</time>
      </trkpt>
      <trkpt lat="43.34534" lon="2.41894">
        <ele>496.66</ele>
        <time>2015-11-02T10:19:42Z</time>
      </trkpt>
      <trkpt lat="43.34527" lon="2.41907">
        <ele>493.77</ele>
        <time>2015-11-02T10:19:54Z</time>
      </trkpt>
      <trkpt lat="43.34524" lon="2.41911">
        <ele>491.85</ele>
        <time>2015-11-02T10:19:58Z</time>
      </trkpt>
      <trkpt lat="43.34515" lon="2.41929">
        <ele>490.89</ele>
        <time>2015-11-02T10:20:11Z</time>
      </trkpt>
      <trkpt lat="43.34511" lon="2.41939">
        <ele>487.05</ele>
        <time>2015-11-02T10:20:18Z</time>
      </trkpt>
      <trkpt lat="43.34511" lon="2.41945">
        <ele>487.53</ele>
        <time>2015-11-02T10:20:21Z</time>
      </trkpt>
      <trkpt lat="43.34506" lon="2.41972">
        <ele>484.16</ele>
        <time>2015-11-02T10:20:37Z</time>
      </trkpt>
      <trkpt lat="43.34505" lon="2.41977">
        <ele>485.12</ele>
        <time>2015-11-02T10:20:40Z</time>
      </trkpt>
      <trkpt lat="43.34505" lon="2.4198">
        <ele>484.16</ele>
        <time>2015-11-02T10:20:42Z</time>
      </trkpt>
      <trkpt lat="43.34502" lon="2.41988">
        <ele>481.28</ele>
        <time>2015-11-02T10:20:48Z</time>
      </trkpt>
      <trkpt lat="43.34501" lon="2.41991">
        <ele>479.84</ele>
        <time>2015-11-02T10:20:50Z</time>
      </trkpt>
      <trkpt lat="43.345" lon="2.41993">
        <ele>479.84</ele>
        <time>2015-11-02T10:20:52Z</time>
      </trkpt>
      <trkpt lat="43.34498" lon="2.41995">
        <ele>478.87</ele>
        <time>2015-11-02T10:20:55Z</time>
      </trkpt>
      <trkpt lat="43.34493" lon="2.42001">
        <ele>478.39</ele>
        <time>2015-11-02T10:21:01Z</time>
      </trkpt>
      <trkpt lat="43.34483" lon="2.42015">
        <ele>475.03</ele>
        <time>2015-11-02T10:21:14Z</time>
      </trkpt>
      <trkpt lat="43.34479" lon="2.42017">
        <ele>474.55</ele>
        <time>2015-11-02T10:21:25Z</time>
      </trkpt>
      <trkpt lat="43.34481" lon="2.42014">
        <ele>474.07</ele>
        <time>2015-11-02T10:21:36Z</time>
      </trkpt>
      <trkpt lat="43.34482" lon="2.42012">
        <ele>475.99</ele>
        <time>2015-11-02T10:21:39Z</time>
      </trkpt>
      <trkpt lat="43.34483" lon="2.42009">
        <ele>477.43</ele>
        <time>2015-11-02T10:21:51Z</time>
      </trkpt>
      <trkpt lat="43.34483" lon="2.42011">
        <ele>475.51</ele>
        <time>2015-11-02T10:21:57Z</time>
      </trkpt>
      <trkpt lat="43.34482" lon="2.4201">
        <ele>478.87</ele>
        <time>2015-11-02T10:21:59Z</time>
      </trkpt>
      <trkpt lat="43.34483" lon="2.42011">
        <ele>478.39</ele>
        <time>2015-11-02T10:22:00Z</time>
      </trkpt>
      <trkpt lat="43.34483" lon="2.42011">
        <ele>477.91</ele>
        <time>2015-11-02T10:22:01Z</time>
      </trkpt>
      <trkpt lat="43.3448" lon="2.42016">
        <ele>475.03</ele>
        <time>2015-11-02T10:22:06Z</time>
      </trkpt>
      <trkpt lat="43.3448" lon="2.42017">
        <ele>475.03</ele>
        <time>2015-11-02T10:22:07Z</time>
      </trkpt>
      <trkpt lat="43.34474" lon="2.42022">
        <ele>473.59</ele>
        <time>2015-11-02T10:22:13Z</time>
      </trkpt>
      <trkpt lat="43.34463" lon="2.42028">
        <ele>472.63</ele>
        <time>2015-11-02T10:22:26Z</time>
      </trkpt>
      <trkpt lat="43.34461" lon="2.42029">
        <ele>472.14</ele>
        <time>2015-11-02T10:22:29Z</time>
      </trkpt>
      <trkpt lat="43.34454" lon="2.42032">
        <ele>471.66</ele>
        <time>2015-11-02T10:22:35Z</time>
      </trkpt>
      <trkpt lat="43.34449" lon="2.42035">
        <ele>470.22</ele>
        <time>2015-11-02T10:22:40Z</time>
      </trkpt>
      <trkpt lat="43.34439" lon="2.42041">
        <ele>468.78</ele>
        <time>2015-11-02T10:22:53Z</time>
      </trkpt>
      <trkpt lat="43.34439" lon="2.42042">
        <ele>469.74</ele>
        <time>2015-11-02T10:22:54Z</time>
      </trkpt>
      <trkpt lat="43.34434" lon="2.42046">
        <ele>466.86</ele>
        <time>2015-11-02T10:23:07Z</time>
      </trkpt>
      <trkpt lat="43.34432" lon="2.42048">
        <ele>466.86</ele>
        <time>2015-11-02T10:23:23Z</time>
      </trkpt>
      <trkpt lat="43.34429" lon="2.42051">
        <ele>466.86</ele>
        <time>2015-11-02T10:23:28Z</time>
      </trkpt>
      <trkpt lat="43.34424" lon="2.42056">
        <ele>465.9</ele>
        <time>2015-11-02T10:23:40Z</time>
      </trkpt>
      <trkpt lat="43.34417" lon="2.4206">
        <ele>464.45</ele>
        <time>2015-11-02T10:23:51Z</time>
      </trkpt>
      <trkpt lat="43.34408" lon="2.42061">
        <ele>463.49</ele>
        <time>2015-11-02T10:24:02Z</time>
      </trkpt>
      <trkpt lat="43.34399" lon="2.42059">
        <ele>461.57</ele>
        <time>2015-11-02T10:24:15Z</time>
      </trkpt>
      <trkpt lat="43.34398" lon="2.42059">
        <ele>461.57</ele>
        <time>2015-11-02T10:24:16Z</time>
      </trkpt>
      <trkpt lat="43.34394" lon="2.4206">
        <ele>460.61</ele>
        <time>2015-11-02T10:24:21Z</time>
      </trkpt>
      <trkpt lat="43.34383" lon="2.42061">
        <ele>459.17</ele>
        <time>2015-11-02T10:24:34Z</time>
      </trkpt>
      <trkpt lat="43.3438" lon="2.42061">
        <ele>458.21</ele>
        <time>2015-11-02T10:24:40Z</time>
      </trkpt>
      <trkpt lat="43.34378" lon="2.42063">
        <ele>457.72</ele>
        <time>2015-11-02T10:24:42Z</time>
      </trkpt>
      <trkpt lat="43.34376" lon="2.42064">
        <ele>457.72</ele>
        <time>2015-11-02T10:24:45Z</time>
      </trkpt>
      <trkpt lat="43.34374" lon="2.42064">
        <ele>456.76</ele>
        <time>2015-11-02T10:24:47Z</time>
      </trkpt>
      <trkpt lat="43.34356" lon="2.42067">
        <ele>454.84</ele>
        <time>2015-11-02T10:25:01Z</time>
      </trkpt>
      <trkpt lat="43.34347" lon="2.42068">
        <ele>454.84</ele>
        <time>2015-11-02T10:25:08Z</time>
      </trkpt>
      <trkpt lat="43.34345" lon="2.42068">
        <ele>454.84</ele>
        <time>2015-11-02T10:25:10Z</time>
      </trkpt>
      <trkpt lat="43.34334" lon="2.42069">
        <ele>453.88</ele>
        <time>2015-11-02T10:25:18Z</time>
      </trkpt>
      <trkpt lat="43.34331" lon="2.42068">
        <ele>454.84</ele>
        <time>2015-11-02T10:25:31Z</time>
      </trkpt>
      <trkpt lat="43.34328" lon="2.42067">
        <ele>453.4</ele>
        <time>2015-11-02T10:25:42Z</time>
      </trkpt>
      <trkpt lat="43.3432" lon="2.42067">
        <ele>452.44</ele>
        <time>2015-11-02T10:25:54Z</time>
      </trkpt>
      <trkpt lat="43.34319" lon="2.42067">
        <ele>452.44</ele>
        <time>2015-11-02T10:25:55Z</time>
      </trkpt>
      <trkpt lat="43.34316" lon="2.42067">
        <ele>451.96</ele>
        <time>2015-11-02T10:25:58Z</time>
      </trkpt>
      <trkpt lat="43.34303" lon="2.42061">
        <ele>451.48</ele>
        <time>2015-11-02T10:26:12Z</time>
      </trkpt>
      <trkpt lat="43.34301" lon="2.42059">
        <ele>451</ele>
        <time>2015-11-02T10:26:14Z</time>
      </trkpt>
      <trkpt lat="43.34295" lon="2.42053">
        <ele>450.03</ele>
        <time>2015-11-02T10:26:21Z</time>
      </trkpt>
      <trkpt lat="43.34291" lon="2.42043">
        <ele>449.07</ele>
        <time>2015-11-02T10:26:32Z</time>
      </trkpt>
      <trkpt lat="43.34291" lon="2.42042">
        <ele>448.59</ele>
        <time>2015-11-02T10:26:33Z</time>
      </trkpt>
      <trkpt lat="43.34288" lon="2.42028">
        <ele>446.67</ele>
        <time>2015-11-02T10:26:42Z</time>
      </trkpt>
      <trkpt lat="43.34285" lon="2.42022">
        <ele>447.15</ele>
        <time>2015-11-02T10:26:47Z</time>
      </trkpt>
      <trkpt lat="43.34284" lon="2.42019">
        <ele>446.19</ele>
        <time>2015-11-02T10:26:49Z</time>
      </trkpt>
      <trkpt lat="43.34283" lon="2.42012">
        <ele>446.19</ele>
        <time>2015-11-02T10:26:54Z</time>
      </trkpt>
      <trkpt lat="43.34283" lon="2.42008">
        <ele>445.71</ele>
        <time>2015-11-02T10:26:57Z</time>
      </trkpt>
      <trkpt lat="43.34285" lon="2.42004">
        <ele>445.71</ele>
        <time>2015-11-02T10:27:00Z</time>
      </trkpt>
      <trkpt lat="43.34286" lon="2.41998">
        <ele>443.79</ele>
        <time>2015-11-02T10:27:04Z</time>
      </trkpt>
      <trkpt lat="43.34294" lon="2.4198">
        <ele>441.86</ele>
        <time>2015-11-02T10:27:18Z</time>
      </trkpt>
      <trkpt lat="43.34299" lon="2.4197">
        <ele>440.42</ele>
        <time>2015-11-02T10:27:26Z</time>
      </trkpt>
      <trkpt lat="43.34302" lon="2.41954">
        <ele>438.5</ele>
        <time>2015-11-02T10:27:38Z</time>
      </trkpt>
      <trkpt lat="43.34302" lon="2.41948">
        <ele>437.06</ele>
        <time>2015-11-02T10:27:42Z</time>
      </trkpt>
      <trkpt lat="43.34296" lon="2.41926">
        <ele>437.54</ele>
        <time>2015-11-02T10:27:57Z</time>
      </trkpt>
      <trkpt lat="43.34296" lon="2.41925">
        <ele>437.06</ele>
        <time>2015-11-02T10:27:58Z</time>
      </trkpt>
      <trkpt lat="43.3429" lon="2.41909">
        <ele>435.61</ele>
        <time>2015-11-02T10:28:12Z</time>
      </trkpt>
      <trkpt lat="43.34287" lon="2.41901">
        <ele>435.61</ele>
        <time>2015-11-02T10:28:20Z</time>
      </trkpt>
      <trkpt lat="43.34285" lon="2.41897">
        <ele>436.1</ele>
        <time>2015-11-02T10:28:23Z</time>
      </trkpt>
      <trkpt lat="43.3428" lon="2.41884">
        <ele>435.13</ele>
        <time>2015-11-02T10:28:33Z</time>
      </trkpt>
      <trkpt lat="43.34279" lon="2.41882">
        <ele>435.61</ele>
        <time>2015-11-02T10:28:35Z</time>
      </trkpt>
      <trkpt lat="43.34276" lon="2.41874">
        <ele>434.65</ele>
        <time>2015-11-02T10:28:47Z</time>
      </trkpt>
      <trkpt lat="43.34275" lon="2.41872">
        <ele>434.65</ele>
        <time>2015-11-02T10:29:00Z</time>
      </trkpt>
      <trkpt lat="43.34275" lon="2.41872">
        <ele>434.65</ele>
        <time>2015-11-02T10:29:01Z</time>
      </trkpt>
      <trkpt lat="43.34277" lon="2.4187">
        <ele>434.17</ele>
        <time>2015-11-02T10:29:15Z</time>
      </trkpt>
      <trkpt lat="43.34277" lon="2.4187">
        <ele>434.17</ele>
        <time>2015-11-02T10:29:33Z</time>
      </trkpt>
      <trkpt lat="43.34277" lon="2.4187">
        <ele>436.58</ele>
        <time>2015-11-02T10:29:38Z</time>
      </trkpt>
      <trkpt lat="43.34276" lon="2.4187">
        <ele>435.13</ele>
        <time>2015-11-02T10:29:41Z</time>
      </trkpt>
      <trkpt lat="43.34276" lon="2.41867">
        <ele>434.17</ele>
        <time>2015-11-02T10:29:43Z</time>
      </trkpt>
      <trkpt lat="43.34276" lon="2.41853">
        <ele>431.77</ele>
        <time>2015-11-02T10:29:50Z</time>
      </trkpt>
      <trkpt lat="43.34275" lon="2.41847">
        <ele>434.17</ele>
        <time>2015-11-02T10:29:54Z</time>
      </trkpt>
      <trkpt lat="43.34271" lon="2.41841">
        <ele>432.25</ele>
        <time>2015-11-02T10:29:58Z</time>
      </trkpt>
      <trkpt lat="43.34264" lon="2.41829">
        <ele>431.77</ele>
        <time>2015-11-02T10:30:11Z</time>
      </trkpt>
      <trkpt lat="43.34262" lon="2.41826">
        <ele>431.29</ele>
        <time>2015-11-02T10:30:15Z</time>
      </trkpt>
      <trkpt lat="43.34248" lon="2.41807">
        <ele>430.33</ele>
        <time>2015-11-02T10:30:30Z</time>
      </trkpt>
      <trkpt lat="43.34237" lon="2.41794">
        <ele>429.37</ele>
        <time>2015-11-02T10:30:38Z</time>
      </trkpt>
      <trkpt lat="43.34245" lon="2.41764">
        <ele>432.73</ele>
        <time>2015-11-02T10:30:49Z</time>
      </trkpt>
      <trkpt lat="43.34246" lon="2.41762">
        <ele>432.73</ele>
        <time>2015-11-02T10:30:50Z</time>
      </trkpt>
      <trkpt lat="43.34247" lon="2.4176">
        <ele>433.21</ele>
        <time>2015-11-02T10:30:51Z</time>
      </trkpt>
      <trkpt lat="43.34259" lon="2.41729">
        <ele>436.58</ele>
        <time>2015-11-02T10:31:04Z</time>
      </trkpt>
      <trkpt lat="43.34269" lon="2.41702">
        <ele>438.98</ele>
        <time>2015-11-02T10:31:16Z</time>
      </trkpt>
      <trkpt lat="43.34279" lon="2.41678">
        <ele>440.9</ele>
        <time>2015-11-02T10:31:32Z</time>
      </trkpt>
      <trkpt lat="43.34282" lon="2.41671">
        <ele>439.94</ele>
        <time>2015-11-02T10:31:37Z</time>
      </trkpt>
      <trkpt lat="43.34293" lon="2.41659">
        <ele>440.9</ele>
        <time>2015-11-02T10:31:49Z</time>
      </trkpt>
      <trkpt lat="43.3431" lon="2.41658">
        <ele>442.82</ele>
        <time>2015-11-02T10:32:04Z</time>
      </trkpt>
      <trkpt lat="43.34314" lon="2.41656">
        <ele>444.75</ele>
        <time>2015-11-02T10:32:08Z</time>
      </trkpt>
      <trkpt lat="43.34319" lon="2.41652">
        <ele>445.23</ele>
        <time>2015-11-02T10:32:14Z</time>
      </trkpt>
      <trkpt lat="43.34326" lon="2.41631">
        <ele>444.75</ele>
        <time>2015-11-02T10:32:31Z</time>
      </trkpt>
      <trkpt lat="43.34329" lon="2.41619">
        <ele>448.59</ele>
        <time>2015-11-02T10:32:40Z</time>
      </trkpt>
      <trkpt lat="43.34333" lon="2.41595">
        <ele>449.07</ele>
        <time>2015-11-02T10:32:55Z</time>
      </trkpt>
      <trkpt lat="43.34333" lon="2.41594">
        <ele>449.55</ele>
        <time>2015-11-02T10:32:56Z</time>
      </trkpt>
      <trkpt lat="43.34325" lon="2.41577">
        <ele>449.55</ele>
        <time>2015-11-02T10:33:08Z</time>
      </trkpt>
      <trkpt lat="43.34313" lon="2.41562">
        <ele>451.96</ele>
        <time>2015-11-02T10:33:22Z</time>
      </trkpt>
      <trkpt lat="43.34307" lon="2.41553">
        <ele>452.92</ele>
        <time>2015-11-02T10:33:33Z</time>
      </trkpt>
      <trkpt lat="43.34306" lon="2.41553">
        <ele>449.55</ele>
        <time>2015-11-02T10:33:35Z</time>
      </trkpt>
      <trkpt lat="43.34304" lon="2.41552">
        <ele>452.92</ele>
        <time>2015-11-02T10:33:39Z</time>
      </trkpt>
      <trkpt lat="43.34304" lon="2.41552">
        <ele>453.88</ele>
        <time>2015-11-02T10:33:41Z</time>
      </trkpt>
      <trkpt lat="43.34301" lon="2.41555">
        <ele>452.92</ele>
        <time>2015-11-02T10:33:53Z</time>
      </trkpt>
      <trkpt lat="43.343" lon="2.41557">
        <ele>453.4</ele>
        <time>2015-11-02T10:33:55Z</time>
      </trkpt>
      <trkpt lat="43.34292" lon="2.41569">
        <ele>453.4</ele>
        <time>2015-11-02T10:34:10Z</time>
      </trkpt>
      <trkpt lat="43.3429" lon="2.41571">
        <ele>453.88</ele>
        <time>2015-11-02T10:34:14Z</time>
      </trkpt>
      <trkpt lat="43.34285" lon="2.41577">
        <ele>452.92</ele>
        <time>2015-11-02T10:34:24Z</time>
      </trkpt>
      <trkpt lat="43.34284" lon="2.41578">
        <ele>452.44</ele>
        <time>2015-11-02T10:34:30Z</time>
      </trkpt>
      <trkpt lat="43.34278" lon="2.41582">
        <ele>453.4</ele>
        <time>2015-11-02T10:34:46Z</time>
      </trkpt>
      <trkpt lat="43.34272" lon="2.4159">
        <ele>455.8</ele>
        <time>2015-11-02T10:34:57Z</time>
      </trkpt>
      <trkpt lat="43.34271" lon="2.41595">
        <ele>458.69</ele>
        <time>2015-11-02T10:35:02Z</time>
      </trkpt>
      <trkpt lat="43.34271" lon="2.41599">
        <ele>457.72</ele>
        <time>2015-11-02T10:35:19Z</time>
      </trkpt>
      <trkpt lat="43.34272" lon="2.416">
        <ele>454.36</ele>
        <time>2015-11-02T10:35:22Z</time>
      </trkpt>
      <trkpt lat="43.34273" lon="2.41599">
        <ele>456.76</ele>
        <time>2015-11-02T10:35:29Z</time>
      </trkpt>
      <trkpt lat="43.34273" lon="2.416">
        <ele>454.36</ele>
        <time>2015-11-02T10:35:42Z</time>
      </trkpt>
      <trkpt lat="43.34272" lon="2.41598">
        <ele>456.76</ele>
        <time>2015-11-02T10:36:00Z</time>
      </trkpt>
      <trkpt lat="43.34272" lon="2.41597">
        <ele>454.84</ele>
        <time>2015-11-02T10:36:16Z</time>
      </trkpt>
      <trkpt lat="43.34273" lon="2.41598">
        <ele>456.28</ele>
        <time>2015-11-02T10:36:19Z</time>
      </trkpt>
      <trkpt lat="43.34273" lon="2.41597">
        <ele>454.36</ele>
        <time>2015-11-02T10:36:29Z</time>
      </trkpt>
      <trkpt lat="43.3427" lon="2.41591">
        <ele>454.84</ele>
        <time>2015-11-02T10:36:34Z</time>
      </trkpt>
      <trkpt lat="43.3427" lon="2.41585">
        <ele>453.4</ele>
        <time>2015-11-02T10:36:37Z</time>
      </trkpt>
      <trkpt lat="43.34271" lon="2.41578">
        <ele>453.88</ele>
        <time>2015-11-02T10:36:42Z</time>
      </trkpt>
      <trkpt lat="43.34271" lon="2.41572">
        <ele>453.88</ele>
        <time>2015-11-02T10:36:46Z</time>
      </trkpt>
      <trkpt lat="43.34278" lon="2.41552">
        <ele>452.92</ele>
        <time>2015-11-02T10:37:01Z</time>
      </trkpt>
      <trkpt lat="43.3428" lon="2.41549">
        <ele>452.44</ele>
        <time>2015-11-02T10:37:03Z</time>
      </trkpt>
      <trkpt lat="43.34288" lon="2.41533">
        <ele>451.48</ele>
        <time>2015-11-02T10:37:17Z</time>
      </trkpt>
      <trkpt lat="43.34288" lon="2.41532">
        <ele>451.48</ele>
        <time>2015-11-02T10:37:18Z</time>
      </trkpt>
      <trkpt lat="43.34287" lon="2.41525">
        <ele>452.92</ele>
        <time>2015-11-02T10:37:22Z</time>
      </trkpt>
      <trkpt lat="43.34289" lon="2.41513">
        <ele>452.92</ele>
        <time>2015-11-02T10:37:31Z</time>
      </trkpt>
      <trkpt lat="43.34292" lon="2.41509">
        <ele>454.36</ele>
        <time>2015-11-02T10:37:34Z</time>
      </trkpt>
      <trkpt lat="43.34298" lon="2.41495">
        <ele>454.36</ele>
        <time>2015-11-02T10:37:48Z</time>
      </trkpt>
      <trkpt lat="43.34298" lon="2.41495">
        <ele>455.32</ele>
        <time>2015-11-02T10:37:58Z</time>
      </trkpt>
      <trkpt lat="43.343" lon="2.41492">
        <ele>454.84</ele>
        <time>2015-11-02T10:38:02Z</time>
      </trkpt>
      <trkpt lat="43.34306" lon="2.41473">
        <ele>455.8</ele>
        <time>2015-11-02T10:38:16Z</time>
      </trkpt>
      <trkpt lat="43.34313" lon="2.41463">
        <ele>452.92</ele>
        <time>2015-11-02T10:38:26Z</time>
      </trkpt>
      <trkpt lat="43.34318" lon="2.4145">
        <ele>451</ele>
        <time>2015-11-02T10:38:37Z</time>
      </trkpt>
      <trkpt lat="43.34318" lon="2.41449">
        <ele>450.52</ele>
        <time>2015-11-02T10:38:38Z</time>
      </trkpt>
      <trkpt lat="43.34321" lon="2.41442">
        <ele>450.52</ele>
        <time>2015-11-02T10:38:43Z</time>
      </trkpt>
      <trkpt lat="43.34325" lon="2.41438">
        <ele>448.11</ele>
        <time>2015-11-02T10:38:49Z</time>
      </trkpt>
      <trkpt lat="43.34331" lon="2.4143">
        <ele>446.67</ele>
        <time>2015-11-02T10:38:58Z</time>
      </trkpt>
      <trkpt lat="43.3433" lon="2.41417">
        <ele>444.75</ele>
        <time>2015-11-02T10:39:11Z</time>
      </trkpt>
      <trkpt lat="43.34332" lon="2.4141">
        <ele>442.34</ele>
        <time>2015-11-02T10:39:24Z</time>
      </trkpt>
      <trkpt lat="43.34334" lon="2.41402">
        <ele>441.38</ele>
        <time>2015-11-02T10:39:33Z</time>
      </trkpt>
      <trkpt lat="43.34332" lon="2.414">
        <ele>440.9</ele>
        <time>2015-11-02T10:39:35Z</time>
      </trkpt>
      <trkpt lat="43.34328" lon="2.41383">
        <ele>439.46</ele>
        <time>2015-11-02T10:39:47Z</time>
      </trkpt>
      <trkpt lat="43.34327" lon="2.41373">
        <ele>439.94</ele>
        <time>2015-11-02T10:40:01Z</time>
      </trkpt>
      <trkpt lat="43.34328" lon="2.41369">
        <ele>438.98</ele>
        <time>2015-11-02T10:40:19Z</time>
      </trkpt>
      <trkpt lat="43.34328" lon="2.41368">
        <ele>438.5</ele>
        <time>2015-11-02T10:40:40Z</time>
      </trkpt>
      <trkpt lat="43.34328" lon="2.41368">
        <ele>438.98</ele>
        <time>2015-11-02T10:40:59Z</time>
      </trkpt>
      <trkpt lat="43.34329" lon="2.41361">
        <ele>439.46</ele>
        <time>2015-11-02T10:41:16Z</time>
      </trkpt>
      <trkpt lat="43.3433" lon="2.4136">
        <ele>438.5</ele>
        <time>2015-11-02T10:41:25Z</time>
      </trkpt>
      <trkpt lat="43.3432" lon="2.41362">
        <ele>437.54</ele>
        <time>2015-11-02T10:41:42Z</time>
      </trkpt>
      <trkpt lat="43.3432" lon="2.41362">
        <ele>437.06</ele>
        <time>2015-11-02T10:41:55Z</time>
      </trkpt>
      <trkpt lat="43.34317" lon="2.4136">
        <ele>437.06</ele>
        <time>2015-11-02T10:41:57Z</time>
      </trkpt>
      <trkpt lat="43.3431" lon="2.41347">
        <ele>435.61</ele>
        <time>2015-11-02T10:42:06Z</time>
      </trkpt>
      <trkpt lat="43.34309" lon="2.41338">
        <ele>434.65</ele>
        <time>2015-11-02T10:42:21Z</time>
      </trkpt>
      <trkpt lat="43.34309" lon="2.41337">
        <ele>434.17</ele>
        <time>2015-11-02T10:42:33Z</time>
      </trkpt>
      <trkpt lat="43.34309" lon="2.41337">
        <ele>434.17</ele>
        <time>2015-11-02T10:42:41Z</time>
      </trkpt>
      <trkpt lat="43.34304" lon="2.41329">
        <ele>433.21</ele>
        <time>2015-11-02T10:42:49Z</time>
      </trkpt>
      <trkpt lat="43.34303" lon="2.41325">
        <ele>432.73</ele>
        <time>2015-11-02T10:42:52Z</time>
      </trkpt>
      <trkpt lat="43.34292" lon="2.41308">
        <ele>429.85</ele>
        <time>2015-11-02T10:43:07Z</time>
      </trkpt>
      <trkpt lat="43.34286" lon="2.41298">
        <ele>427.92</ele>
        <time>2015-11-02T10:43:15Z</time>
      </trkpt>
      <trkpt lat="43.34277" lon="2.41279">
        <ele>425.52</ele>
        <time>2015-11-02T10:43:30Z</time>
      </trkpt>
      <trkpt lat="43.34276" lon="2.41277">
        <ele>425.52</ele>
        <time>2015-11-02T10:43:32Z</time>
      </trkpt>
      <trkpt lat="43.34265" lon="2.41274">
        <ele>424.08</ele>
        <time>2015-11-02T10:43:46Z</time>
      </trkpt>
      <trkpt lat="43.34264" lon="2.41274">
        <ele>424.08</ele>
        <time>2015-11-02T10:44:00Z</time>
      </trkpt>
      <trkpt lat="43.34259" lon="2.41275">
        <ele>424.56</ele>
        <time>2015-11-02T10:44:11Z</time>
      </trkpt>
      <trkpt lat="43.34253" lon="2.41271">
        <ele>423.6</ele>
        <time>2015-11-02T10:44:23Z</time>
      </trkpt>
      <trkpt lat="43.3425" lon="2.41271">
        <ele>423.6</ele>
        <time>2015-11-02T10:44:38Z</time>
      </trkpt>
      <trkpt lat="43.34249" lon="2.41271">
        <ele>423.6</ele>
        <time>2015-11-02T10:44:41Z</time>
      </trkpt>
      <trkpt lat="43.34239" lon="2.4127">
        <ele>422.64</ele>
        <time>2015-11-02T10:44:52Z</time>
      </trkpt>
      <trkpt lat="43.34233" lon="2.41265">
        <ele>421.19</ele>
        <time>2015-11-02T10:45:06Z</time>
      </trkpt>
      <trkpt lat="43.34234" lon="2.41264">
        <ele>422.16</ele>
        <time>2015-11-02T10:45:20Z</time>
      </trkpt>
      <trkpt lat="43.34232" lon="2.41264">
        <ele>420.71</ele>
        <time>2015-11-02T10:45:39Z</time>
      </trkpt>
      <trkpt lat="43.34226" lon="2.41262">
        <ele>420.23</ele>
        <time>2015-11-02T10:45:46Z</time>
      </trkpt>
      <trkpt lat="43.34214" lon="2.41263">
        <ele>420.23</ele>
        <time>2015-11-02T10:45:57Z</time>
      </trkpt>
      <trkpt lat="43.34206" lon="2.41263">
        <ele>419.75</ele>
        <time>2015-11-02T10:46:04Z</time>
      </trkpt>
      <trkpt lat="43.34194" lon="2.41262">
        <ele>419.27</ele>
        <time>2015-11-02T10:46:13Z</time>
      </trkpt>
      <trkpt lat="43.34189" lon="2.41265">
        <ele>419.27</ele>
        <time>2015-11-02T10:46:18Z</time>
      </trkpt>
      <trkpt lat="43.34186" lon="2.41264">
        <ele>419.27</ele>
        <time>2015-11-02T10:46:21Z</time>
      </trkpt>
      <trkpt lat="43.34177" lon="2.41264">
        <ele>417.83</ele>
        <time>2015-11-02T10:46:27Z</time>
      </trkpt>
      <trkpt lat="43.34154" lon="2.41249">
        <ele>419.27</ele>
        <time>2015-11-02T10:46:39Z</time>
      </trkpt>
      <trkpt lat="43.34146" lon="2.41215">
        <ele>422.16</ele>
        <time>2015-11-02T10:46:50Z</time>
      </trkpt>
      <trkpt lat="43.34145" lon="2.41198">
        <ele>425.52</ele>
        <time>2015-11-02T10:46:57Z</time>
      </trkpt>
      <trkpt lat="43.34143" lon="2.41182">
        <ele>426.48</ele>
        <time>2015-11-02T10:47:07Z</time>
      </trkpt>
      <trkpt lat="43.34139" lon="2.41163">
        <ele>429.37</ele>
        <time>2015-11-02T10:47:22Z</time>
      </trkpt>
      <trkpt lat="43.34138" lon="2.41148">
        <ele>430.81</ele>
        <time>2015-11-02T10:47:32Z</time>
      </trkpt>
      <trkpt lat="43.34137" lon="2.41145">
        <ele>431.77</ele>
        <time>2015-11-02T10:47:34Z</time>
      </trkpt>
      <trkpt lat="43.34135" lon="2.41135">
        <ele>432.73</ele>
        <time>2015-11-02T10:47:40Z</time>
      </trkpt>
      <trkpt lat="43.34133" lon="2.41128">
        <ele>432.73</ele>
        <time>2015-11-02T10:47:44Z</time>
      </trkpt>
      <trkpt lat="43.34128" lon="2.41116">
        <ele>432.25</ele>
        <time>2015-11-02T10:47:51Z</time>
      </trkpt>
      <trkpt lat="43.34125" lon="2.41107">
        <ele>432.73</ele>
        <time>2015-11-02T10:47:57Z</time>
      </trkpt>
      <trkpt lat="43.3412" lon="2.41102">
        <ele>432.25</ele>
        <time>2015-11-02T10:48:02Z</time>
      </trkpt>
      <trkpt lat="43.34107" lon="2.4109">
        <ele>431.29</ele>
        <time>2015-11-02T10:48:16Z</time>
      </trkpt>
      <trkpt lat="43.34102" lon="2.41085">
        <ele>430.33</ele>
        <time>2015-11-02T10:48:22Z</time>
      </trkpt>
      <trkpt lat="43.34097" lon="2.4108">
        <ele>430.81</ele>
        <time>2015-11-02T10:48:27Z</time>
      </trkpt>
      <trkpt lat="43.34091" lon="2.41074">
        <ele>429.37</ele>
        <time>2015-11-02T10:48:34Z</time>
      </trkpt>
      <trkpt lat="43.34075" lon="2.41061">
        <ele>429.37</ele>
        <time>2015-11-02T10:48:50Z</time>
      </trkpt>
      <trkpt lat="43.3406" lon="2.41047">
        <ele>429.85</ele>
        <time>2015-11-02T10:49:05Z</time>
      </trkpt>
      <trkpt lat="43.34053" lon="2.41041">
        <ele>428.89</ele>
        <time>2015-11-02T10:49:12Z</time>
      </trkpt>
      <trkpt lat="43.34038" lon="2.4103">
        <ele>429.37</ele>
        <time>2015-11-02T10:49:27Z</time>
      </trkpt>
      <trkpt lat="43.34034" lon="2.41027">
        <ele>427.92</ele>
        <time>2015-11-02T10:49:31Z</time>
      </trkpt>
      <trkpt lat="43.34025" lon="2.41021">
        <ele>427.92</ele>
        <time>2015-11-02T10:49:40Z</time>
      </trkpt>
      <trkpt lat="43.34023" lon="2.4102">
        <ele>426.48</ele>
        <time>2015-11-02T10:49:42Z</time>
      </trkpt>
      <trkpt lat="43.34005" lon="2.41012">
        <ele>426.48</ele>
        <time>2015-11-02T10:49:58Z</time>
      </trkpt>
      <trkpt lat="43.33989" lon="2.41004">
        <ele>425.52</ele>
        <time>2015-11-02T10:50:13Z</time>
      </trkpt>
      <trkpt lat="43.33984" lon="2.41001">
        <ele>423.6</ele>
        <time>2015-11-02T10:50:17Z</time>
      </trkpt>
      <trkpt lat="43.33972" lon="2.40995">
        <ele>422.64</ele>
        <time>2015-11-02T10:50:29Z</time>
      </trkpt>
      <trkpt lat="43.33964" lon="2.4099">
        <ele>423.12</ele>
        <time>2015-11-02T10:50:36Z</time>
      </trkpt>
      <trkpt lat="43.3395" lon="2.40979">
        <ele>422.16</ele>
        <time>2015-11-02T10:50:49Z</time>
      </trkpt>
      <trkpt lat="43.33937" lon="2.40967">
        <ele>421.19</ele>
        <time>2015-11-02T10:51:02Z</time>
      </trkpt>
      <trkpt lat="43.33925" lon="2.40952">
        <ele>420.23</ele>
        <time>2015-11-02T10:51:15Z</time>
      </trkpt>
      <trkpt lat="43.33913" lon="2.40933">
        <ele>421.19</ele>
        <time>2015-11-02T10:51:30Z</time>
      </trkpt>
      <trkpt lat="43.33912" lon="2.40931">
        <ele>420.23</ele>
        <time>2015-11-02T10:51:32Z</time>
      </trkpt>
      <trkpt lat="43.33903" lon="2.40918">
        <ele>419.75</ele>
        <time>2015-11-02T10:51:42Z</time>
      </trkpt>
      <trkpt lat="43.339" lon="2.40911">
        <ele>418.79</ele>
        <time>2015-11-02T10:51:46Z</time>
      </trkpt>
      <trkpt lat="43.33897" lon="2.40907">
        <ele>418.79</ele>
        <time>2015-11-02T10:51:50Z</time>
      </trkpt>
      <trkpt lat="43.33889" lon="2.40895">
        <ele>417.83</ele>
        <time>2015-11-02T10:51:59Z</time>
      </trkpt>
      <trkpt lat="43.33876" lon="2.40875">
        <ele>415.91</ele>
        <time>2015-11-02T10:52:14Z</time>
      </trkpt>
      <trkpt lat="43.33865" lon="2.4086">
        <ele>415.43</ele>
        <time>2015-11-02T10:52:28Z</time>
      </trkpt>
      <trkpt lat="43.33853" lon="2.40846">
        <ele>413.98</ele>
        <time>2015-11-02T10:52:42Z</time>
      </trkpt>
      <trkpt lat="43.33849" lon="2.4084">
        <ele>413.02</ele>
        <time>2015-11-02T10:52:48Z</time>
      </trkpt>
      <trkpt lat="43.33847" lon="2.40838">
        <ele>413.02</ele>
        <time>2015-11-02T10:52:50Z</time>
      </trkpt>
      <trkpt lat="43.3384" lon="2.40828">
        <ele>412.06</ele>
        <time>2015-11-02T10:53:02Z</time>
      </trkpt>
      <trkpt lat="43.33838" lon="2.40826">
        <ele>412.06</ele>
        <time>2015-11-02T10:53:04Z</time>
      </trkpt>
      <trkpt lat="43.33823" lon="2.40811">
        <ele>408.7</ele>
        <time>2015-11-02T10:53:20Z</time>
      </trkpt>
      <trkpt lat="43.33807" lon="2.40793">
        <ele>407.26</ele>
        <time>2015-11-02T10:53:37Z</time>
      </trkpt>
      <trkpt lat="43.33791" lon="2.40777">
        <ele>406.29</ele>
        <time>2015-11-02T10:53:53Z</time>
      </trkpt>
      <trkpt lat="43.33785" lon="2.40772">
        <ele>406.29</ele>
        <time>2015-11-02T10:53:58Z</time>
      </trkpt>
      <trkpt lat="43.3378" lon="2.40765">
        <ele>405.81</ele>
        <time>2015-11-02T10:54:04Z</time>
      </trkpt>
      <trkpt lat="43.33765" lon="2.4075">
        <ele>405.33</ele>
        <time>2015-11-02T10:54:19Z</time>
      </trkpt>
      <trkpt lat="43.33755" lon="2.40738">
        <ele>405.33</ele>
        <time>2015-11-02T10:54:31Z</time>
      </trkpt>
      <trkpt lat="43.33741" lon="2.40723">
        <ele>403.89</ele>
        <time>2015-11-02T10:54:45Z</time>
      </trkpt>
      <trkpt lat="43.33738" lon="2.40718">
        <ele>404.85</ele>
        <time>2015-11-02T10:54:49Z</time>
      </trkpt>
      <trkpt lat="43.33725" lon="2.40701">
        <ele>402.93</ele>
        <time>2015-11-02T10:55:04Z</time>
      </trkpt>
      <trkpt lat="43.33713" lon="2.40684">
        <ele>402.93</ele>
        <time>2015-11-02T10:55:19Z</time>
      </trkpt>
      <trkpt lat="43.33704" lon="2.40667">
        <ele>402.45</ele>
        <time>2015-11-02T10:55:32Z</time>
      </trkpt>
      <trkpt lat="43.33696" lon="2.40645">
        <ele>399.57</ele>
        <time>2015-11-02T10:55:46Z</time>
      </trkpt>
      <trkpt lat="43.33691" lon="2.40634">
        <ele>399.08</ele>
        <time>2015-11-02T10:55:54Z</time>
      </trkpt>
      <trkpt lat="43.33687" lon="2.40625">
        <ele>397.64</ele>
        <time>2015-11-02T10:56:00Z</time>
      </trkpt>
      <trkpt lat="43.33678" lon="2.40603">
        <ele>396.2</ele>
        <time>2015-11-02T10:56:15Z</time>
      </trkpt>
      <trkpt lat="43.3367" lon="2.40586">
        <ele>396.68</ele>
        <time>2015-11-02T10:56:28Z</time>
      </trkpt>
      <trkpt lat="43.33667" lon="2.40582">
        <ele>396.2</ele>
        <time>2015-11-02T10:56:32Z</time>
      </trkpt>
      <trkpt lat="43.33653" lon="2.40561">
        <ele>397.16</ele>
        <time>2015-11-02T10:56:50Z</time>
      </trkpt>
      <trkpt lat="43.33647" lon="2.40554">
        <ele>396.68</ele>
        <time>2015-11-02T10:56:56Z</time>
      </trkpt>
      <trkpt lat="43.33634" lon="2.40531">
        <ele>394.76</ele>
        <time>2015-11-02T10:57:14Z</time>
      </trkpt>
      <trkpt lat="43.33629" lon="2.40523">
        <ele>393.32</ele>
        <time>2015-11-02T10:57:21Z</time>
      </trkpt>
      <trkpt lat="43.33618" lon="2.40506">
        <ele>390.91</ele>
        <time>2015-11-02T10:57:36Z</time>
      </trkpt>
      <trkpt lat="43.33607" lon="2.40492">
        <ele>388.99</ele>
        <time>2015-11-02T10:57:49Z</time>
      </trkpt>
      <trkpt lat="43.33601" lon="2.4048">
        <ele>388.51</ele>
        <time>2015-11-02T10:58:01Z</time>
      </trkpt>
      <trkpt lat="43.33599" lon="2.40476">
        <ele>388.99</ele>
        <time>2015-11-02T10:58:03Z</time>
      </trkpt>
      <trkpt lat="43.33597" lon="2.40472">
        <ele>388.99</ele>
        <time>2015-11-02T10:58:06Z</time>
      </trkpt>
      <trkpt lat="43.3359" lon="2.40461">
        <ele>386.59</ele>
        <time>2015-11-02T10:58:16Z</time>
      </trkpt>
      <trkpt lat="43.33586" lon="2.40448">
        <ele>386.11</ele>
        <time>2015-11-02T10:58:27Z</time>
      </trkpt>
      <trkpt lat="43.33583" lon="2.40443">
        <ele>385.63</ele>
        <time>2015-11-02T10:58:31Z</time>
      </trkpt>
      <trkpt lat="43.33581" lon="2.40428">
        <ele>385.15</ele>
        <time>2015-11-02T10:58:44Z</time>
      </trkpt>
      <trkpt lat="43.3358" lon="2.40425">
        <ele>385.15</ele>
        <time>2015-11-02T10:58:46Z</time>
      </trkpt>
      <trkpt lat="43.33578" lon="2.40406">
        <ele>384.66</ele>
        <time>2015-11-02T10:58:59Z</time>
      </trkpt>
      <trkpt lat="43.33576" lon="2.40386">
        <ele>383.22</ele>
        <time>2015-11-02T10:59:12Z</time>
      </trkpt>
      <trkpt lat="43.33577" lon="2.40378">
        <ele>382.74</ele>
        <time>2015-11-02T10:59:23Z</time>
      </trkpt>
      <trkpt lat="43.33576" lon="2.40376">
        <ele>382.74</ele>
        <time>2015-11-02T10:59:31Z</time>
      </trkpt>
      <trkpt lat="43.33574" lon="2.40371">
        <ele>383.7</ele>
        <time>2015-11-02T10:59:34Z</time>
      </trkpt>
      <trkpt lat="43.33572" lon="2.4036">
        <ele>381.78</ele>
        <time>2015-11-02T10:59:49Z</time>
      </trkpt>
      <trkpt lat="43.33571" lon="2.40359">
        <ele>381.78</ele>
        <time>2015-11-02T10:59:50Z</time>
      </trkpt>
      <trkpt lat="43.33569" lon="2.40357">
        <ele>381.78</ele>
        <time>2015-11-02T10:59:52Z</time>
      </trkpt>
      <trkpt lat="43.33567" lon="2.40354">
        <ele>380.82</ele>
        <time>2015-11-02T10:59:55Z</time>
      </trkpt>
      <trkpt lat="43.33561" lon="2.4035">
        <ele>380.82</ele>
        <time>2015-11-02T11:00:00Z</time>
      </trkpt>
      <trkpt lat="43.33549" lon="2.40346">
        <ele>378.9</ele>
        <time>2015-11-02T11:00:10Z</time>
      </trkpt>
      <trkpt lat="43.33534" lon="2.40349">
        <ele>376.97</ele>
        <time>2015-11-02T11:00:24Z</time>
      </trkpt>
      <trkpt lat="43.33531" lon="2.40352">
        <ele>376.97</ele>
        <time>2015-11-02T11:00:39Z</time>
      </trkpt>
      <trkpt lat="43.33529" lon="2.40352">
        <ele>376.97</ele>
        <time>2015-11-02T11:00:42Z</time>
      </trkpt>
      <trkpt lat="43.33526" lon="2.40354">
        <ele>376.49</ele>
        <time>2015-11-02T11:00:46Z</time>
      </trkpt>
      <trkpt lat="43.33517" lon="2.40356">
        <ele>376.01</ele>
        <time>2015-11-02T11:00:54Z</time>
      </trkpt>
      <trkpt lat="43.33511" lon="2.40354">
        <ele>375.05</ele>
        <time>2015-11-02T11:01:01Z</time>
      </trkpt>
      <trkpt lat="43.33501" lon="2.40355">
        <ele>374.57</ele>
        <time>2015-11-02T11:01:16Z</time>
      </trkpt>
      <trkpt lat="43.33498" lon="2.40355">
        <ele>373.61</ele>
        <time>2015-11-02T11:01:19Z</time>
      </trkpt>
      <trkpt lat="43.33489" lon="2.40357">
        <ele>373.61</ele>
        <time>2015-11-02T11:01:32Z</time>
      </trkpt>
      <trkpt lat="43.33489" lon="2.40357">
        <ele>373.61</ele>
        <time>2015-11-02T11:01:36Z</time>
      </trkpt>
      <trkpt lat="43.33487" lon="2.40355">
        <ele>373.61</ele>
        <time>2015-11-02T11:01:38Z</time>
      </trkpt>
      <trkpt lat="43.33477" lon="2.40339">
        <ele>372.17</ele>
        <time>2015-11-02T11:01:51Z</time>
      </trkpt>
      <trkpt lat="43.33463" lon="2.40312">
        <ele>371.69</ele>
        <time>2015-11-02T11:02:11Z</time>
      </trkpt>
      <trkpt lat="43.33456" lon="2.40302">
        <ele>369.76</ele>
        <time>2015-11-02T11:02:18Z</time>
      </trkpt>
      <trkpt lat="43.33454" lon="2.40298">
        <ele>370.73</ele>
        <time>2015-11-02T11:02:22Z</time>
      </trkpt>
      <trkpt lat="43.33452" lon="2.40295">
        <ele>370.24</ele>
        <time>2015-11-02T11:02:24Z</time>
      </trkpt>
      <trkpt lat="43.33448" lon="2.40287">
        <ele>370.24</ele>
        <time>2015-11-02T11:02:33Z</time>
      </trkpt>
      <trkpt lat="43.33447" lon="2.40284">
        <ele>370.24</ele>
        <time>2015-11-02T11:02:35Z</time>
      </trkpt>
      <trkpt lat="43.33436" lon="2.40268">
        <ele>369.28</ele>
        <time>2015-11-02T11:02:49Z</time>
      </trkpt>
      <trkpt lat="43.33433" lon="2.40263">
        <ele>371.69</ele>
        <time>2015-11-02T11:02:53Z</time>
      </trkpt>
      <trkpt lat="43.33429" lon="2.40259">
        <ele>369.28</ele>
        <time>2015-11-02T11:02:57Z</time>
      </trkpt>
      <trkpt lat="43.33428" lon="2.40257">
        <ele>368.8</ele>
        <time>2015-11-02T11:02:58Z</time>
      </trkpt>
      <trkpt lat="43.33423" lon="2.40244">
        <ele>367.84</ele>
        <time>2015-11-02T11:03:08Z</time>
      </trkpt>
      <trkpt lat="43.33415" lon="2.40237">
        <ele>368.8</ele>
        <time>2015-11-02T11:03:23Z</time>
      </trkpt>
      <trkpt lat="43.33413" lon="2.4024">
        <ele>368.8</ele>
        <time>2015-11-02T11:03:31Z</time>
      </trkpt>
      <trkpt lat="43.33411" lon="2.40243">
        <ele>368.8</ele>
        <time>2015-11-02T11:03:34Z</time>
      </trkpt>
      <trkpt lat="43.33407" lon="2.40256">
        <ele>368.32</ele>
        <time>2015-11-02T11:03:43Z</time>
      </trkpt>
      <trkpt lat="43.33402" lon="2.40274">
        <ele>368.8</ele>
        <time>2015-11-02T11:03:56Z</time>
      </trkpt>
      <trkpt lat="43.334" lon="2.4028">
        <ele>369.28</ele>
        <time>2015-11-02T11:04:01Z</time>
      </trkpt>
      <trkpt lat="43.33397" lon="2.40302">
        <ele>369.28</ele>
        <time>2015-11-02T11:04:15Z</time>
      </trkpt>
      <trkpt lat="43.33397" lon="2.40317">
        <ele>368.32</ele>
        <time>2015-11-02T11:04:24Z</time>
      </trkpt>
      <trkpt lat="43.33398" lon="2.40332">
        <ele>367.84</ele>
        <time>2015-11-02T11:04:34Z</time>
      </trkpt>
      <trkpt lat="43.33391" lon="2.40343">
        <ele>366.88</ele>
        <time>2015-11-02T11:04:48Z</time>
      </trkpt>
      <trkpt lat="43.3339" lon="2.40344">
        <ele>368.8</ele>
        <time>2015-11-02T11:04:58Z</time>
      </trkpt>
      <trkpt lat="43.33389" lon="2.40346">
        <ele>367.36</ele>
        <time>2015-11-02T11:05:00Z</time>
      </trkpt>
      <trkpt lat="43.33387" lon="2.40357">
        <ele>366.88</ele>
        <time>2015-11-02T11:05:14Z</time>
      </trkpt>
      <trkpt lat="43.33387" lon="2.40365">
        <ele>366.4</ele>
        <time>2015-11-02T11:05:25Z</time>
      </trkpt>
      <trkpt lat="43.33387" lon="2.40366">
        <ele>366.4</ele>
        <time>2015-11-02T11:05:34Z</time>
      </trkpt>
      <trkpt lat="43.33387" lon="2.40366">
        <ele>365.44</ele>
        <time>2015-11-02T11:05:50Z</time>
      </trkpt>
      <trkpt lat="43.33387" lon="2.40366">
        <ele>366.88</ele>
        <time>2015-11-02T11:05:54Z</time>
      </trkpt>
      <trkpt lat="43.33387" lon="2.40367">
        <ele>362.55</ele>
        <time>2015-11-02T11:05:56Z</time>
      </trkpt>
    </trkseg>
  </trk>
</gpx>